PWSweather.com
Personal Weather Stations
Station Observations
KTXSHORE2
Houston Yacht Club, Shoreacres, TX 77571

Houston Yacht ClubShoreacres, TX 77571

Lat: 29.622278, Lon: -94.99543

Elevation: 12

Station Type: Davis Vantagevue

Latest ConditionsUpdated 7:58:00 PM CST Thursday, Dec 13, 2018
Currently Today's Max Today's Min Today's Average
Temperature 65.8°F18.8°C 71.4°F21.9°C 60.6°F15.9°C 65.8°F18.8°C
Dew Point -- -- -- --
Winds 4.9 mph W7.9 kmh W 19.9 mph -32.0 kmh - - 7.7 mph 12.4 kmh
Wind Gusts -- -- - -
Humidity 49% 97% 43% 85%
Pressure 29.74 in1007.1 mb 29.87 in1011.5 mb 29.66 in1004.4 mb -
Precipitation - 0.71 in18.0 mm - -
Hour Temp Dew Point Humidity Winds Wind Gusts Pressure Precip Precip Rate Daily Precip Total
07:58 PM 65.8°F18.8°C -- 49% 4.9 mph W7.9 kmh W -- 29.74 in1007.1 mb 0.00 in0.0 mm 0.00 in0.0 mm 0.71 in18.0 mm
07:57 PM 66.0°F18.9°C -- 45% 4.0 mph WSW6.4 kmh WSW -- 29.73 in1006.8 mb 0.00 in0.0 mm 0.00 in0.0 mm 0.71 in18.0 mm
07:56 PM 66.0°F18.9°C -- 46% 6.0 mph WSW9.7 kmh WSW -- 29.73 in1006.8 mb 0.00 in0.0 mm 0.00 in0.0 mm 0.71 in18.0 mm
07:55 PM 66.0°F18.9°C -- 46% 6.0 mph WSW9.7 kmh WSW -- 29.73 in1006.8 mb 0.00 in0.0 mm 0.00 in0.0 mm 0.71 in18.0 mm
07:54 PM 66.4°F19.1°C -- 45% 4.9 mph WSW7.9 kmh WSW -- 29.73 in1006.8 mb 0.00 in0.0 mm 0.00 in0.0 mm 0.71 in18.0 mm
07:53 PM 66.4°F19.1°C -- 45% 4.9 mph WSW7.9 kmh WSW -- 29.73 in1006.8 mb 0.00 in0.0 mm 0.00 in0.0 mm 0.71 in18.0 mm
07:52 PM 66.4°F19.1°C -- 46% 6.0 mph WSW9.7 kmh WSW -- 29.73 in1006.8 mb 0.00 in0.0 mm 0.00 in0.0 mm 0.71 in18.0 mm
07:51 PM 66.4°F19.1°C -- 46% 6.0 mph WSW9.7 kmh WSW -- 29.73 in1006.8 mb 0.00 in0.0 mm 0.00 in0.0 mm 0.71 in18.0 mm
07:50 PM 66.6°F19.2°C -- 46% 4.0 mph WSW6.4 kmh WSW -- 29.73 in1006.8 mb 0.00 in0.0 mm 0.00 in0.0 mm 0.71 in18.0 mm
07:49 PM 66.6°F19.2°C -- 45% 6.0 mph WSW9.7 kmh WSW -- 29.73 in1006.8 mb 0.00 in0.0 mm 0.00 in0.0 mm 0.71 in18.0 mm
07:48 PM 66.6°F19.2°C -- 45% 6.9 mph WSW11.1 kmh WSW -- 29.73 in1006.8 mb 0.00 in0.0 mm 0.00 in0.0 mm 0.71 in18.0 mm
07:47 PM 66.6°F19.2°C -- 45% 6.0 mph WSW9.7 kmh WSW -- 29.73 in1006.8 mb 0.00 in0.0 mm 0.00 in0.0 mm 0.71 in18.0 mm
07:46 PM 66.6°F19.2°C -- 45% 6.9 mph WSW11.1 kmh WSW -- 29.73 in1006.8 mb 0.00 in0.0 mm 0.00 in0.0 mm 0.71 in18.0 mm
07:45 PM 66.6°F19.2°C -- 46% 6.0 mph WSW9.7 kmh WSW -- 29.73 in1006.8 mb 0.00 in0.0 mm 0.00 in0.0 mm 0.71 in18.0 mm
07:44 PM 66.7°F19.3°C -- 44% 6.0 mph WSW9.7 kmh WSW -- 29.73 in1006.8 mb 0.00 in0.0 mm 0.00 in0.0 mm 0.71 in18.0 mm
07:43 PM 66.7°F19.3°C -- 46% 4.9 mph WSW7.9 kmh WSW -- 29.73 in1006.8 mb 0.00 in0.0 mm 0.00 in0.0 mm 0.71 in18.0 mm
07:42 PM 66.7°F19.3°C -- 45% 8.1 mph WSW13.0 kmh WSW -- 29.73 in1006.8 mb 0.00 in0.0 mm 0.00 in0.0 mm 0.71 in18.0 mm
07:41 PM 66.7°F19.3°C -- 45% 6.9 mph WSW11.1 kmh WSW -- 29.73 in1006.8 mb 0.00 in0.0 mm 0.00 in0.0 mm 0.71 in18.0 mm
07:40 PM 66.9°F19.4°C -- 46% 6.9 mph WSW11.1 kmh WSW -- 29.73 in1006.8 mb 0.00 in0.0 mm 0.00 in0.0 mm 0.71 in18.0 mm
07:39 PM 66.9°F19.4°C -- 46% 6.9 mph WSW11.1 kmh WSW -- 29.73 in1006.8 mb 0.00 in0.0 mm 0.00 in0.0 mm 0.71 in18.0 mm
07:38 PM 66.9°F19.4°C -- 46% 8.1 mph WSW13.0 kmh WSW -- 29.73 in1006.8 mb 0.00 in0.0 mm 0.00 in0.0 mm 0.71 in18.0 mm
07:37 PM 66.9°F19.4°C -- 45% 6.9 mph WSW11.1 kmh WSW -- 29.73 in1006.8 mb 0.00 in0.0 mm 0.00 in0.0 mm 0.71 in18.0 mm
07:36 PM 66.9°F19.4°C -- 46% 6.9 mph WSW11.1 kmh WSW -- 29.73 in1006.8 mb 0.00 in0.0 mm 0.00 in0.0 mm 0.71 in18.0 mm
07:35 PM 67.1°F19.5°C -- 46% 4.9 mph WSW7.9 kmh WSW -- 29.72 in1006.4 mb 0.00 in0.0 mm 0.00 in0.0 mm 0.71 in18.0 mm
07:34 PM 67.3°F19.6°C -- 47% 6.0 mph WSW9.7 kmh WSW -- 29.72 in1006.4 mb 0.00 in0.0 mm 0.00 in0.0 mm 0.71 in18.0 mm
07:33 PM 67.3°F19.6°C -- 46% 6.9 mph WSW11.1 kmh WSW -- 29.72 in1006.4 mb 0.00 in0.0 mm 0.00 in0.0 mm 0.71 in18.0 mm
07:32 PM 67.5°F19.7°C -- 44% 8.1 mph WSW13.0 kmh WSW -- 29.73 in1006.8 mb 0.00 in0.0 mm 0.00 in0.0 mm 0.71 in18.0 mm
07:31 PM 67.5°F19.7°C -- 46% 8.9 mph W14.3 kmh W -- 29.72 in1006.4 mb 0.00 in0.0 mm 0.00 in0.0 mm 0.71 in18.0 mm
07:30 PM 67.5°F19.7°C -- 45% 8.9 mph WSW14.3 kmh WSW -- 29.72 in1006.4 mb 0.00 in0.0 mm 0.00 in0.0 mm 0.71 in18.0 mm
07:29 PM 67.6°F19.8°C -- 45% 6.9 mph WSW11.1 kmh WSW -- 29.72 in1006.4 mb 0.00 in0.0 mm 0.00 in0.0 mm 0.71 in18.0 mm
07:28 PM 67.6°F19.8°C -- 45% 10.1 mph WSW16.3 kmh WSW -- 29.72 in1006.4 mb 0.00 in0.0 mm 0.00 in0.0 mm 0.71 in18.0 mm
07:27 PM 67.5°F19.7°C -- 43% 10.1 mph WNW16.3 kmh WNW -- 29.72 in1006.4 mb 0.00 in0.0 mm 0.00 in0.0 mm 0.71 in18.0 mm
07:26 PM 67.5°F19.7°C -- 44% 8.9 mph W14.3 kmh W -- 29.72 in1006.4 mb 0.00 in0.0 mm 0.00 in0.0 mm 0.71 in18.0 mm
07:25 PM 67.5°F19.7°C -- 48% 6.9 mph WSW11.1 kmh WSW -- 29.72 in1006.4 mb 0.00 in0.0 mm 0.00 in0.0 mm 0.71 in18.0 mm
07:24 PM 67.5°F19.7°C -- 47% 4.9 mph WSW7.9 kmh WSW -- 29.72 in1006.4 mb 0.00 in0.0 mm 0.00 in0.0 mm 0.71 in18.0 mm
07:23 PM 67.6°F19.8°C -- 46% 6.0 mph W9.7 kmh W -- 29.72 in1006.4 mb 0.00 in0.0 mm 0.00 in0.0 mm 0.71 in18.0 mm
07:22 PM 67.6°F19.8°C -- 47% 6.0 mph WSW9.7 kmh WSW -- 29.72 in1006.4 mb 0.00 in0.0 mm 0.00 in0.0 mm 0.71 in18.0 mm
07:21 PM 67.6°F19.8°C -- 47% 6.0 mph WSW9.7 kmh WSW -- 29.72 in1006.4 mb 0.00 in0.0 mm 0.00 in0.0 mm 0.71 in18.0 mm
07:20 PM 67.6°F19.8°C -- 50% 4.0 mph WSW6.4 kmh WSW -- 29.72 in1006.4 mb 0.00 in0.0 mm 0.00 in0.0 mm 0.71 in18.0 mm
07:19 PM 67.8°F19.9°C -- 49% 6.0 mph W9.7 kmh W -- 29.72 in1006.4 mb 0.00 in0.0 mm 0.00 in0.0 mm 0.71 in18.0 mm
07:18 PM 68.0°F20.0°C -- 48% 6.0 mph W9.7 kmh W -- 29.72 in1006.4 mb 0.00 in0.0 mm 0.00 in0.0 mm 0.71 in18.0 mm
07:17 PM 68.2°F20.1°C -- 49% 8.1 mph WSW13.0 kmh WSW -- 29.72 in1006.4 mb 0.00 in0.0 mm 0.00 in0.0 mm 0.71 in18.0 mm
07:16 PM 68.2°F20.1°C -- 43% 6.0 mph WSW9.7 kmh WSW -- 29.72 in1006.4 mb 0.00 in0.0 mm 0.00 in0.0 mm 0.71 in18.0 mm
07:15 PM 68.0°F20.0°C -- 43% 13.0 mph W20.9 kmh W -- 29.72 in1006.4 mb 0.00 in0.0 mm 0.00 in0.0 mm 0.71 in18.0 mm
07:14 PM 67.8°F19.9°C -- 47% 10.1 mph WSW16.3 kmh WSW -- 29.72 in1006.4 mb 0.00 in0.0 mm 0.00 in0.0 mm 0.71 in18.0 mm
07:13 PM 67.8°F19.9°C -- 49% 8.9 mph W14.3 kmh W -- 29.72 in1006.4 mb 0.00 in0.0 mm 0.00 in0.0 mm 0.71 in18.0 mm
07:12 PM 67.8°F19.9°C -- 50% 8.1 mph WSW13.0 kmh WSW -- 29.72 in1006.4 mb 0.00 in0.0 mm 0.00 in0.0 mm 0.71 in18.0 mm
07:11 PM 67.8°F19.9°C -- 53% 8.1 mph WSW13.0 kmh WSW -- 29.72 in1006.4 mb 0.00 in0.0 mm 0.00 in0.0 mm 0.71 in18.0 mm
07:10 PM 67.8°F19.9°C -- 52% 6.9 mph WSW11.1 kmh WSW -- 29.72 in1006.4 mb 0.00 in0.0 mm 0.00 in0.0 mm 0.71 in18.0 mm
07:09 PM 67.8°F19.9°C -- 52% 8.1 mph W13.0 kmh W -- 29.72 in1006.4 mb 0.00 in0.0 mm 0.00 in0.0 mm 0.71 in18.0 mm
07:08 PM 67.8°F19.9°C -- 52% 8.1 mph W13.0 kmh W -- 29.72 in1006.4 mb 0.00 in0.0 mm 0.00 in0.0 mm 0.71 in18.0 mm
07:07 PM 67.8°F19.9°C -- 52% 6.0 mph W9.7 kmh W -- 29.72 in1006.4 mb 0.00 in0.0 mm 0.00 in0.0 mm 0.71 in18.0 mm
07:06 PM 67.8°F19.9°C -- 53% 6.9 mph WSW11.1 kmh WSW -- 29.72 in1006.4 mb 0.00 in0.0 mm 0.00 in0.0 mm 0.71 in18.0 mm
07:05 PM 67.8°F19.9°C -- 56% 8.1 mph W13.0 kmh W -- 29.72 in1006.4 mb 0.00 in0.0 mm 0.00 in0.0 mm 0.71 in18.0 mm
07:04 PM 67.8°F19.9°C -- 56% 6.0 mph W9.7 kmh W -- 29.72 in1006.4 mb 0.00 in0.0 mm 0.00 in0.0 mm 0.71 in18.0 mm
07:03 PM 67.8°F19.9°C -- 55% 8.1 mph WSW13.0 kmh WSW -- 29.72 in1006.4 mb 0.00 in0.0 mm 0.00 in0.0 mm 0.71 in18.0 mm
07:02 PM 68.0°F20.0°C -- 55% 10.1 mph WSW16.3 kmh WSW -- 29.72 in1006.4 mb 0.00 in0.0 mm 0.00 in0.0 mm 0.71 in18.0 mm
07:01 PM 68.0°F20.0°C -- 53% 8.9 mph WSW14.3 kmh WSW -- 29.72 in1006.4 mb 0.00 in0.0 mm 0.00 in0.0 mm 0.71 in18.0 mm
07:00 PM 67.8°F19.9°C -- 55% 16.1 mph WSW25.9 kmh WSW -- 29.72 in1006.4 mb 0.00 in0.0 mm 0.00 in0.0 mm 0.71 in18.0 mm
06:59 PM 67.8°F19.9°C -- 59% 12.1 mph W19.5 kmh W -- 29.72 in1006.4 mb 0.00 in0.0 mm 0.00 in0.0 mm 0.71 in18.0 mm
06:58 PM 67.8°F19.9°C -- 56% 11.0 mph WSW17.7 kmh WSW -- 29.72 in1006.4 mb 0.00 in0.0 mm 0.00 in0.0 mm 0.71 in18.0 mm
06:57 PM 67.6°F19.8°C -- 58% 13.0 mph W20.9 kmh W -- 29.72 in1006.4 mb 0.00 in0.0 mm 0.00 in0.0 mm 0.71 in18.0 mm
06:56 PM 67.5°F19.7°C -- 63% 8.1 mph WNW13.0 kmh WNW -- 29.72 in1006.4 mb 0.00 in0.0 mm 0.00 in0.0 mm 0.71 in18.0 mm
06:55 PM 67.5°F19.7°C -- 63% 10.1 mph W16.3 kmh W -- 29.72 in1006.4 mb 0.00 in0.0 mm 0.00 in0.0 mm 0.71 in18.0 mm
06:54 PM 67.3°F19.6°C -- 62% 10.1 mph WSW16.3 kmh WSW -- 29.72 in1006.4 mb 0.00 in0.0 mm 0.00 in0.0 mm 0.71 in18.0 mm
06:53 PM 67.1°F19.5°C -- 65% 13.0 mph WSW20.9 kmh WSW -- 29.72 in1006.4 mb 0.00 in0.0 mm 0.00 in0.0 mm 0.71 in18.0 mm
06:52 PM 67.1°F19.5°C -- 69% 10.1 mph W16.3 kmh W -- 29.72 in1006.4 mb 0.00 in0.0 mm 0.00 in0.0 mm 0.71 in18.0 mm
06:51 PM 67.3°F19.6°C -- 69% 8.9 mph WSW14.3 kmh WSW -- 29.72 in1006.4 mb 0.00 in0.0 mm 0.00 in0.0 mm 0.71 in18.0 mm
06:50 PM 67.5°F19.7°C -- 68% 6.0 mph WSW9.7 kmh WSW -- 29.72 in1006.4 mb 0.00 in0.0 mm 0.00 in0.0 mm 0.71 in18.0 mm
06:49 PM 67.6°F19.8°C -- 67% 6.9 mph WSW11.1 kmh WSW -- 29.72 in1006.4 mb 0.00 in0.0 mm 0.00 in0.0 mm 0.71 in18.0 mm
06:48 PM 67.6°F19.8°C -- 67% 8.1 mph WSW13.0 kmh WSW -- 29.72 in1006.4 mb 0.00 in0.0 mm 0.00 in0.0 mm 0.71 in18.0 mm
06:47 PM 67.6°F19.8°C -- 66% 8.1 mph WSW13.0 kmh WSW -- 29.72 in1006.4 mb 0.00 in0.0 mm 0.00 in0.0 mm 0.71 in18.0 mm
06:46 PM 67.6°F19.8°C -- 63% 10.1 mph WSW16.3 kmh WSW -- 29.72 in1006.4 mb 0.00 in0.0 mm 0.00 in0.0 mm 0.71 in18.0 mm
06:45 PM 67.6°F19.8°C -- 66% 11.0 mph WSW17.7 kmh WSW -- 29.72 in1006.4 mb 0.00 in0.0 mm 0.00 in0.0 mm 0.71 in18.0 mm
06:44 PM 67.8°F19.9°C -- 66% 8.9 mph W14.3 kmh W -- 29.72 in1006.4 mb 0.00 in0.0 mm 0.00 in0.0 mm 0.71 in18.0 mm
06:43 PM 67.8°F19.9°C -- 66% 8.1 mph WSW13.0 kmh WSW -- 29.72 in1006.4 mb 0.00 in0.0 mm 0.00 in0.0 mm 0.71 in18.0 mm
06:42 PM 67.8°F19.9°C -- 67% 8.9 mph WSW14.3 kmh WSW -- 29.72 in1006.4 mb 0.00 in0.0 mm 0.00 in0.0 mm 0.71 in18.0 mm
06:41 PM 67.6°F19.8°C -- 66% 8.1 mph WSW13.0 kmh WSW -- 29.72 in1006.4 mb 0.00 in0.0 mm 0.00 in0.0 mm 0.71 in18.0 mm
06:40 PM 67.6°F19.8°C -- 67% 8.9 mph WSW14.3 kmh WSW -- 29.72 in1006.4 mb 0.00 in0.0 mm 0.00 in0.0 mm 0.71 in18.0 mm
06:39 PM 67.6°F19.8°C -- 67% 6.9 mph WSW11.1 kmh WSW -- 29.72 in1006.4 mb 0.00 in0.0 mm 0.00 in0.0 mm 0.71 in18.0 mm
06:38 PM 67.6°F19.8°C -- 67% 6.9 mph W11.1 kmh W -- 29.72 in1006.4 mb 0.00 in0.0 mm 0.00 in0.0 mm 0.71 in18.0 mm
06:37 PM 67.6°F19.8°C -- 68% 8.9 mph WSW14.3 kmh WSW -- 29.72 in1006.4 mb 0.00 in0.0 mm 0.00 in0.0 mm 0.71 in18.0 mm
06:36 PM 67.6°F19.8°C -- 69% 6.0 mph WSW9.7 kmh WSW -- 29.72 in1006.4 mb 0.00 in0.0 mm 0.00 in0.0 mm 0.71 in18.0 mm
06:35 PM 67.8°F19.9°C -- 68% 6.9 mph W11.1 kmh W -- 29.72 in1006.4 mb 0.00 in0.0 mm 0.00 in0.0 mm 0.71 in18.0 mm
06:34 PM 67.8°F19.9°C -- 68% 6.9 mph WSW11.1 kmh WSW -- 29.72 in1006.4 mb 0.00 in0.0 mm 0.00 in0.0 mm 0.71 in18.0 mm
06:33 PM 67.8°F19.9°C -- 67% 8.1 mph WSW13.0 kmh WSW -- 29.71 in1006.1 mb 0.00 in0.0 mm 0.00 in0.0 mm 0.71 in18.0 mm
06:32 PM 68.0°F20.0°C -- 67% 6.9 mph WSW11.1 kmh WSW -- 29.71 in1006.1 mb 0.00 in0.0 mm 0.00 in0.0 mm 0.71 in18.0 mm
06:31 PM 67.8°F19.9°C -- 68% 6.9 mph SW11.1 kmh SW -- 29.71 in1006.1 mb 0.00 in0.0 mm 0.00 in0.0 mm 0.71 in18.0 mm
06:30 PM 67.8°F19.9°C -- 68% 8.1 mph WSW13.0 kmh WSW -- 29.71 in1006.1 mb 0.00 in0.0 mm 0.00 in0.0 mm 0.71 in18.0 mm
06:29 PM 67.8°F19.9°C -- 67% 6.9 mph WSW11.1 kmh WSW -- 29.71 in1006.1 mb 0.00 in0.0 mm 0.00 in0.0 mm 0.71 in18.0 mm
06:28 PM 67.8°F19.9°C -- 68% 6.9 mph SW11.1 kmh SW -- 29.71 in1006.1 mb 0.00 in0.0 mm 0.00 in0.0 mm 0.71 in18.0 mm
06:27 PM 68.0°F20.0°C -- 68% 6.0 mph SW9.7 kmh SW -- 29.71 in1006.1 mb 0.00 in0.0 mm 0.00 in0.0 mm 0.71 in18.0 mm
06:26 PM 68.0°F20.0°C -- 67% 8.1 mph WSW13.0 kmh WSW -- 29.71 in1006.1 mb 0.00 in0.0 mm 0.00 in0.0 mm 0.71 in18.0 mm
06:25 PM 68.2°F20.1°C -- 68% 6.9 mph WSW11.1 kmh WSW -- 29.71 in1006.1 mb 0.00 in0.0 mm 0.00 in0.0 mm 0.71 in18.0 mm
06:24 PM 68.2°F20.1°C -- 67% 6.9 mph WSW11.1 kmh WSW -- 29.71 in1006.1 mb 0.00 in0.0 mm 0.00 in0.0 mm 0.71 in18.0 mm
06:23 PM 68.0°F20.0°C -- 67% 6.9 mph WSW11.1 kmh WSW -- 29.71 in1006.1 mb 0.00 in0.0 mm 0.00 in0.0 mm 0.71 in18.0 mm
06:22 PM 67.8°F19.9°C -- 68% 8.1 mph WSW13.0 kmh WSW -- 29.70 in1005.8 mb 0.00 in0.0 mm 0.00 in0.0 mm 0.71 in18.0 mm
06:21 PM 67.8°F19.9°C -- 68% 4.9 mph WSW7.9 kmh WSW -- 29.70 in1005.8 mb 0.00 in0.0 mm 0.00 in0.0 mm 0.71 in18.0 mm
06:20 PM 67.8°F19.9°C -- 68% 4.9 mph SW7.9 kmh SW -- 29.70 in1005.8 mb 0.00 in0.0 mm 0.00 in0.0 mm 0.71 in18.0 mm
06:19 PM 67.8°F19.9°C -- 68% 6.0 mph SW9.7 kmh SW -- 29.70 in1005.8 mb 0.00 in0.0 mm 0.00 in0.0 mm 0.71 in18.0 mm
06:18 PM 67.6°F19.8°C -- 69% 6.9 mph WSW11.1 kmh WSW -- 29.70 in1005.8 mb 0.00 in0.0 mm 0.00 in0.0 mm 0.71 in18.0 mm
06:17 PM 67.6°F19.8°C -- 70% 6.0 mph SW9.7 kmh SW -- 29.70 in1005.8 mb 0.00 in0.0 mm 0.00 in0.0 mm 0.71 in18.0 mm
06:16 PM 67.6°F19.8°C -- 71% 4.9 mph SW7.9 kmh SW -- 29.70 in1005.8 mb 0.00 in0.0 mm 0.00 in0.0 mm 0.71 in18.0 mm
06:15 PM 67.6°F19.8°C -- 71% 4.0 mph SW6.4 kmh SW -- 29.70 in1005.8 mb 0.00 in0.0 mm 0.00 in0.0 mm 0.71 in18.0 mm
06:14 PM 67.6°F19.8°C -- 71% 4.9 mph WSW7.9 kmh WSW -- 29.70 in1005.8 mb 0.00 in0.0 mm 0.00 in0.0 mm 0.71 in18.0 mm
06:13 PM 67.6°F19.8°C -- 71% 4.9 mph WSW7.9 kmh WSW -- 29.70 in1005.8 mb 0.00 in0.0 mm 0.00 in0.0 mm 0.71 in18.0 mm
06:12 PM 67.6°F19.8°C -- 71% 4.9 mph WSW7.9 kmh WSW -- 29.70 in1005.8 mb 0.00 in0.0 mm 0.00 in0.0 mm 0.71 in18.0 mm
06:11 PM 67.6°F19.8°C -- 71% 6.0 mph WSW9.7 kmh WSW -- 29.70 in1005.8 mb 0.00 in0.0 mm 0.00 in0.0 mm 0.71 in18.0 mm
06:10 PM 67.6°F19.8°C -- 71% 4.9 mph WSW7.9 kmh WSW -- 29.70 in1005.8 mb 0.00 in0.0 mm 0.00 in0.0 mm 0.71 in18.0 mm
06:09 PM 67.6°F19.8°C -- 72% 4.0 mph SW6.4 kmh SW -- 29.70 in1005.8 mb 0.00 in0.0 mm 0.00 in0.0 mm 0.71 in18.0 mm
06:08 PM 67.6°F19.8°C -- 72% 4.0 mph SW6.4 kmh SW -- 29.70 in1005.8 mb 0.00 in0.0 mm 0.00 in0.0 mm 0.71 in18.0 mm
06:07 PM 67.8°F19.9°C -- 72% 4.0 mph SW6.4 kmh SW -- 29.70 in1005.8 mb 0.00 in0.0 mm 0.00 in0.0 mm 0.71 in18.0 mm
06:06 PM 67.8°F19.9°C -- 73% 4.0 mph WSW6.4 kmh WSW -- 29.70 in1005.8 mb 0.00 in0.0 mm 0.00 in0.0 mm 0.71 in18.0 mm
06:05 PM 67.8°F19.9°C -- 73% 4.9 mph WSW7.9 kmh WSW -- 29.70 in1005.8 mb 0.00 in0.0 mm 0.00 in0.0 mm 0.71 in18.0 mm
06:04 PM 68.0°F20.0°C -- 73% 4.9 mph WSW7.9 kmh WSW -- 29.70 in1005.8 mb 0.00 in0.0 mm 0.00 in0.0 mm 0.71 in18.0 mm
06:03 PM 68.2°F20.1°C -- 73% 4.0 mph WSW6.4 kmh WSW -- 29.70 in1005.8 mb 0.00 in0.0 mm 0.00 in0.0 mm 0.71 in18.0 mm
06:02 PM 68.2°F20.1°C -- 73% 4.9 mph WSW7.9 kmh WSW -- 29.70 in1005.8 mb 0.00 in0.0 mm 0.00 in0.0 mm 0.71 in18.0 mm
06:01 PM 68.4°F20.2°C -- 73% 4.9 mph SW7.9 kmh SW -- 29.70 in1005.8 mb 0.00 in0.0 mm 0.00 in0.0 mm 0.71 in18.0 mm
06:00 PM 68.4°F20.2°C -- 74% 6.0 mph WSW9.7 kmh WSW -- 29.70 in1005.8 mb 0.00 in0.0 mm 0.00 in0.0 mm 0.71 in18.0 mm
05:59 PM 68.4°F20.2°C -- 74% 6.0 mph SW9.7 kmh SW -- 29.70 in1005.8 mb 0.00 in0.0 mm 0.00 in0.0 mm 0.71 in18.0 mm
05:58 PM 68.5°F20.3°C -- 74% 4.0 mph SW6.4 kmh SW -- 29.70 in1005.8 mb 0.00 in0.0 mm 0.00 in0.0 mm 0.71 in18.0 mm
05:57 PM 68.5°F20.3°C -- 74% 4.9 mph WSW7.9 kmh WSW -- 29.70 in1005.8 mb 0.00 in0.0 mm 0.00 in0.0 mm 0.71 in18.0 mm
05:56 PM 68.5°F20.3°C -- 75% 4.9 mph WSW7.9 kmh WSW -- 29.70 in1005.8 mb 0.00 in0.0 mm 0.00 in0.0 mm 0.71 in18.0 mm
05:55 PM 68.5°F20.3°C -- 75% 4.0 mph SW6.4 kmh SW -- 29.70 in1005.8 mb 0.00 in0.0 mm 0.00 in0.0 mm 0.71 in18.0 mm
05:54 PM 68.5°F20.3°C -- 75% 4.0 mph SW6.4 kmh SW -- 29.70 in1005.8 mb 0.00 in0.0 mm 0.00 in0.0 mm 0.71 in18.0 mm
05:53 PM 68.5°F20.3°C -- 75% 4.9 mph WSW7.9 kmh WSW -- 29.70 in1005.8 mb 0.00 in0.0 mm 0.00 in0.0 mm 0.71 in18.0 mm
05:52 PM 68.7°F20.4°C -- 75% 2.9 mph WSW4.7 kmh WSW -- 29.70 in1005.8 mb 0.00 in0.0 mm 0.00 in0.0 mm 0.71 in18.0 mm
05:51 PM 68.7°F20.4°C -- 75% 4.9 mph WSW7.9 kmh WSW -- 29.70 in1005.8 mb 0.00 in0.0 mm 0.00 in0.0 mm 0.71 in18.0 mm
05:50 PM 68.7°F20.4°C -- 75% 2.9 mph SW4.7 kmh SW -- 29.70 in1005.8 mb 0.00 in0.0 mm 0.00 in0.0 mm 0.71 in18.0 mm
05:49 PM 68.9°F20.5°C -- 75% 2.9 mph WSW4.7 kmh WSW -- 29.70 in1005.8 mb 0.00 in0.0 mm 0.00 in0.0 mm 0.71 in18.0 mm
05:48 PM 68.9°F20.5°C -- 75% 4.0 mph SW6.4 kmh SW -- 29.70 in1005.8 mb 0.00 in0.0 mm 0.00 in0.0 mm 0.71 in18.0 mm
05:47 PM 68.9°F20.5°C -- 75% 4.0 mph SW6.4 kmh SW -- 29.70 in1005.8 mb 0.00 in0.0 mm 0.00 in0.0 mm 0.71 in18.0 mm
05:46 PM 69.1°F20.6°C -- 76% 4.9 mph SW7.9 kmh SW -- 29.70 in1005.8 mb 0.00 in0.0 mm 0.00 in0.0 mm 0.71 in18.0 mm
05:45 PM 69.1°F20.6°C -- 76% 4.9 mph SW7.9 kmh SW -- 29.70 in1005.8 mb 0.00 in0.0 mm 0.00 in0.0 mm 0.71 in18.0 mm
05:44 PM 69.1°F20.6°C -- 76% 2.9 mph SW4.7 kmh SW -- 29.70 in1005.8 mb 0.00 in0.0 mm 0.00 in0.0 mm 0.71 in18.0 mm
05:43 PM 69.1°F20.6°C -- 77% 4.0 mph SW6.4 kmh SW -- 29.69 in1005.4 mb 0.00 in0.0 mm 0.00 in0.0 mm 0.71 in18.0 mm
05:42 PM 69.1°F20.6°C -- 76% 4.0 mph SW6.4 kmh SW -- 29.69 in1005.4 mb 0.00 in0.0 mm 0.00 in0.0 mm 0.71 in18.0 mm
05:41 PM 69.1°F20.6°C -- 77% 4.0 mph SW6.4 kmh SW -- 29.69 in1005.4 mb 0.00 in0.0 mm 0.00 in0.0 mm 0.71 in18.0 mm
05:40 PM 69.1°F20.6°C -- 77% 4.0 mph SSW6.4 kmh SSW -- 29.69 in1005.4 mb 0.00 in0.0 mm 0.00 in0.0 mm 0.71 in18.0 mm
05:39 PM 69.1°F20.6°C -- 78% 2.9 mph SW4.7 kmh SW -- 29.69 in1005.4 mb 0.00 in0.0 mm 0.00 in0.0 mm 0.71 in18.0 mm
05:38 PM 68.9°F20.5°C -- 78% 2.9 mph SSW4.7 kmh SSW -- 29.69 in1005.4 mb 0.00 in0.0 mm 0.00 in0.0 mm 0.71 in18.0 mm
05:37 PM 69.1°F20.6°C -- 79% 4.9 mph SW7.9 kmh SW -- 29.69 in1005.4 mb 0.00 in0.0 mm 0.00 in0.0 mm 0.71 in18.0 mm
05:36 PM 68.9°F20.5°C -- 79% 2.9 mph SW4.7 kmh SW -- 29.69 in1005.4 mb 0.00 in0.0 mm 0.00 in0.0 mm 0.71 in18.0 mm
05:35 PM 68.9°F20.5°C -- 80% 6.0 mph SW9.7 kmh SW -- 29.69 in1005.4 mb 0.00 in0.0 mm 0.00 in0.0 mm 0.71 in18.0 mm
05:34 PM 68.9°F20.5°C -- 80% 4.0 mph SW6.4 kmh SW -- 29.70 in1005.8 mb 0.00 in0.0 mm 0.00 in0.0 mm 0.71 in18.0 mm
05:33 PM 68.9°F20.5°C -- 80% 4.0 mph SSW6.4 kmh SSW -- 29.69 in1005.4 mb 0.00 in0.0 mm 0.00 in0.0 mm 0.71 in18.0 mm
05:32 PM 68.7°F20.4°C -- 80% 4.9 mph SW7.9 kmh SW -- 29.70 in1005.8 mb 0.00 in0.0 mm 0.00 in0.0 mm 0.71 in18.0 mm
05:31 PM 68.7°F20.4°C -- 81% 4.0 mph SW6.4 kmh SW -- 29.69 in1005.4 mb 0.00 in0.0 mm 0.00 in0.0 mm 0.71 in18.0 mm
05:30 PM 68.7°F20.4°C -- 81% 4.9 mph SW7.9 kmh SW -- 29.69 in1005.4 mb 0.00 in0.0 mm 0.00 in0.0 mm 0.71 in18.0 mm
05:29 PM 68.7°F20.4°C -- 82% 4.0 mph SW6.4 kmh SW -- 29.70 in1005.8 mb 0.00 in0.0 mm 0.00 in0.0 mm 0.71 in18.0 mm
05:28 PM 68.7°F20.4°C -- 82% 4.0 mph SW6.4 kmh SW -- 29.70 in1005.8 mb 0.00 in0.0 mm 0.00 in0.0 mm 0.71 in18.0 mm
05:27 PM 68.7°F20.4°C -- 82% 4.0 mph SW6.4 kmh SW -- 29.70 in1005.8 mb 0.00 in0.0 mm 0.00 in0.0 mm 0.71 in18.0 mm
05:26 PM 68.9°F20.5°C -- 82% 4.9 mph WSW7.9 kmh WSW -- 29.70 in1005.8 mb 0.00 in0.0 mm 0.00 in0.0 mm 0.71 in18.0 mm
05:25 PM 69.1°F20.6°C -- 82% 4.0 mph SW6.4 kmh SW -- 29.69 in1005.4 mb 0.00 in0.0 mm 0.00 in0.0 mm 0.71 in18.0 mm
05:24 PM 69.1°F20.6°C -- 81% 4.0 mph WSW6.4 kmh WSW -- 29.69 in1005.4 mb 0.00 in0.0 mm 0.00 in0.0 mm 0.71 in18.0 mm
05:23 PM 69.1°F20.6°C -- 81% 4.0 mph WSW6.4 kmh WSW -- 29.70 in1005.8 mb 0.00 in0.0 mm 0.00 in0.0 mm 0.71 in18.0 mm
05:22 PM 69.1°F20.6°C -- 81% 4.9 mph SW7.9 kmh SW -- 29.70 in1005.8 mb 0.00 in0.0 mm 0.00 in0.0 mm 0.71 in18.0 mm
05:21 PM 69.1°F20.6°C -- 81% 2.9 mph SW4.7 kmh SW -- 29.69 in1005.4 mb 0.00 in0.0 mm 0.00 in0.0 mm 0.71 in18.0 mm
05:20 PM 69.3°F20.7°C -- 81% 4.9 mph SW7.9 kmh SW -- 29.69 in1005.4 mb 0.00 in0.0 mm 0.00 in0.0 mm 0.71 in18.0 mm
05:19 PM 69.3°F20.7°C -- 81% 4.0 mph SW6.4 kmh SW -- 29.69 in1005.4 mb 0.00 in0.0 mm 0.00 in0.0 mm 0.71 in18.0 mm
05:18 PM 69.3°F20.7°C -- 81% 4.0 mph SW6.4 kmh SW -- 29.69 in1005.4 mb 0.00 in0.0 mm 0.00 in0.0 mm 0.71 in18.0 mm
05:17 PM 69.3°F20.7°C -- 81% 2.9 mph SW4.7 kmh SW -- 29.70 in1005.8 mb 0.00 in0.0 mm 0.00 in0.0 mm 0.71 in18.0 mm
05:16 PM 69.4°F20.8°C -- 81% 4.9 mph SW7.9 kmh SW -- 29.69 in1005.4 mb 0.00 in0.0 mm 0.00 in0.0 mm 0.71 in18.0 mm
05:15 PM 69.4°F20.8°C -- 80% 4.0 mph WSW6.4 kmh WSW -- 29.69 in1005.4 mb 0.00 in0.0 mm 0.00 in0.0 mm 0.71 in18.0 mm
05:14 PM 69.4°F20.8°C -- 80% 4.0 mph SW6.4 kmh SW -- 29.69 in1005.4 mb 0.00 in0.0 mm 0.00 in0.0 mm 0.71 in18.0 mm
05:13 PM 69.4°F20.8°C -- 81% 4.0 mph WSW6.4 kmh WSW -- 29.69 in1005.4 mb 0.00 in0.0 mm 0.00 in0.0 mm 0.71 in18.0 mm
05:12 PM 69.4°F20.8°C -- 81% 4.0 mph SW6.4 kmh SW -- 29.69 in1005.4 mb 0.00 in0.0 mm 0.00 in0.0 mm 0.71 in18.0 mm
05:11 PM 69.4°F20.8°C -- 81% 4.0 mph WSW6.4 kmh WSW -- 29.69 in1005.4 mb 0.00 in0.0 mm 0.00 in0.0 mm 0.71 in18.0 mm
05:10 PM 69.4°F20.8°C -- 81% 2.9 mph WSW4.7 kmh WSW -- 29.69 in1005.4 mb 0.00 in0.0 mm 0.00 in0.0 mm 0.71 in18.0 mm
05:09 PM 69.4°F20.8°C -- 81% 4.9 mph SW7.9 kmh SW -- 29.69 in1005.4 mb 0.00 in0.0 mm 0.00 in0.0 mm 0.71 in18.0 mm
05:08 PM 69.4°F20.8°C -- 81% 4.9 mph WSW7.9 kmh WSW -- 29.69 in1005.4 mb 0.00 in0.0 mm 0.00 in0.0 mm 0.71 in18.0 mm
05:07 PM 69.6°F20.9°C -- 81% 4.0 mph WSW6.4 kmh WSW -- 29.69 in1005.4 mb 0.00 in0.0 mm 0.00 in0.0 mm 0.71 in18.0 mm
05:06 PM 69.6°F20.9°C -- 81% 4.0 mph WSW6.4 kmh WSW -- 29.69 in1005.4 mb 0.00 in0.0 mm 0.00 in0.0 mm 0.71 in18.0 mm
05:05 PM 69.8°F21.0°C -- 81% 4.9 mph SW7.9 kmh SW -- 29.69 in1005.4 mb 0.00 in0.0 mm 0.00 in0.0 mm 0.71 in18.0 mm
05:04 PM 70.0°F21.1°C -- 81% 4.0 mph SW6.4 kmh SW -- 29.69 in1005.4 mb 0.00 in0.0 mm 0.00 in0.0 mm 0.71 in18.0 mm
05:03 PM 70.0°F21.1°C -- 81% 4.0 mph SW6.4 kmh SW -- 29.69 in1005.4 mb 0.00 in0.0 mm 0.00 in0.0 mm 0.71 in18.0 mm
05:02 PM 70.0°F21.1°C -- 81% 4.0 mph WSW6.4 kmh WSW -- 29.69 in1005.4 mb 0.00 in0.0 mm 0.00 in0.0 mm 0.71 in18.0 mm
05:01 PM 70.2°F21.2°C -- 81% 4.9 mph WSW7.9 kmh WSW -- 29.69 in1005.4 mb 0.00 in0.0 mm 0.00 in0.0 mm 0.71 in18.0 mm
05:00 PM 70.2°F21.2°C -- 81% 4.9 mph WSW7.9 kmh WSW -- 29.69 in1005.4 mb 0.00 in0.0 mm 0.00 in0.0 mm 0.71 in18.0 mm
04:59 PM 70.2°F21.2°C -- 80% 6.0 mph WSW9.7 kmh WSW -- 29.69 in1005.4 mb 0.00 in0.0 mm 0.00 in0.0 mm 0.71 in18.0 mm
04:58 PM 70.2°F21.2°C -- 80% 4.9 mph WSW7.9 kmh WSW -- 29.69 in1005.4 mb 0.00 in0.0 mm 0.00 in0.0 mm 0.71 in18.0 mm
04:57 PM 70.2°F21.2°C -- 81% 4.9 mph SW7.9 kmh SW -- 29.69 in1005.4 mb 0.00 in0.0 mm 0.00 in0.0 mm 0.71 in18.0 mm
04:56 PM 70.3°F21.3°C -- 80% 4.0 mph WSW6.4 kmh WSW -- 29.69 in1005.4 mb 0.00 in0.0 mm 0.00 in0.0 mm 0.71 in18.0 mm
04:55 PM 70.3°F21.3°C -- 80% 4.9 mph WSW7.9 kmh WSW -- 29.69 in1005.4 mb 0.00 in0.0 mm 0.00 in0.0 mm 0.71 in18.0 mm
04:54 PM 70.3°F21.3°C -- 80% 6.9 mph WSW11.1 kmh WSW -- 29.69 in1005.4 mb 0.00 in0.0 mm 0.00 in0.0 mm 0.71 in18.0 mm
04:53 PM 70.3°F21.3°C -- 80% 6.9 mph WSW11.1 kmh WSW -- 29.69 in1005.4 mb 0.00 in0.0 mm 0.00 in0.0 mm 0.71 in18.0 mm
04:52 PM 70.3°F21.3°C -- 80% 8.1 mph WSW13.0 kmh WSW -- 29.69 in1005.4 mb 0.00 in0.0 mm 0.00 in0.0 mm 0.71 in18.0 mm
04:51 PM 70.5°F21.4°C -- 80% 4.9 mph SW7.9 kmh SW -- 29.69 in1005.4 mb 0.00 in0.0 mm 0.00 in0.0 mm 0.71 in18.0 mm
04:50 PM 70.5°F21.4°C -- 79% 4.0 mph SW6.4 kmh SW -- 29.69 in1005.4 mb 0.00 in0.0 mm 0.00 in0.0 mm 0.71 in18.0 mm
04:49 PM 70.7°F21.5°C -- 79% 6.0 mph WSW9.7 kmh WSW -- 29.69 in1005.4 mb 0.00 in0.0 mm 0.00 in0.0 mm 0.71 in18.0 mm
04:48 PM 70.9°F21.6°C -- 79% 6.0 mph WSW9.7 kmh WSW -- 29.69 in1005.4 mb 0.00 in0.0 mm 0.00 in0.0 mm 0.71 in18.0 mm
04:47 PM 70.9°F21.6°C -- 79% 4.0 mph SSW6.4 kmh SSW -- 29.69 in1005.4 mb 0.00 in0.0 mm 0.00 in0.0 mm 0.71 in18.0 mm
04:46 PM 70.9°F21.6°C -- 79% 6.0 mph WSW9.7 kmh WSW -- 29.69 in1005.4 mb 0.00 in0.0 mm 0.00 in0.0 mm 0.71 in18.0 mm
04:45 PM 70.9°F21.6°C -- 79% 4.9 mph SW7.9 kmh SW -- 29.69 in1005.4 mb 0.00 in0.0 mm 0.00 in0.0 mm 0.71 in18.0 mm
04:44 PM 70.9°F21.6°C -- 80% 6.0 mph SW9.7 kmh SW -- 29.68 in1005.1 mb 0.00 in0.0 mm 0.00 in0.0 mm 0.71 in18.0 mm
04:43 PM 70.9°F21.6°C -- 80% 4.9 mph SW7.9 kmh SW -- 29.69 in1005.4 mb 0.00 in0.0 mm 0.00 in0.0 mm 0.71 in18.0 mm
04:42 PM 70.7°F21.5°C -- 80% 4.9 mph SSW7.9 kmh SSW -- 29.68 in1005.1 mb 0.00 in0.0 mm 0.00 in0.0 mm 0.71 in18.0 mm
04:41 PM 70.7°F21.5°C -- 80% 6.9 mph SW11.1 kmh SW -- 29.69 in1005.4 mb 0.00 in0.0 mm 0.00 in0.0 mm 0.71 in18.0 mm
04:40 PM 70.7°F21.5°C -- 81% 6.9 mph SW11.1 kmh SW -- 29.69 in1005.4 mb 0.00 in0.0 mm 0.00 in0.0 mm 0.71 in18.0 mm
04:39 PM 70.7°F21.5°C -- 81% 4.9 mph SW7.9 kmh SW -- 29.69 in1005.4 mb 0.00 in0.0 mm 0.00 in0.0 mm 0.71 in18.0 mm
04:38 PM 70.7°F21.5°C -- 81% 6.0 mph SW9.7 kmh SW -- 29.69 in1005.4 mb 0.00 in0.0 mm 0.00 in0.0 mm 0.71 in18.0 mm
04:37 PM 70.5°F21.4°C -- 81% 6.9 mph SW11.1 kmh SW -- 29.69 in1005.4 mb 0.00 in0.0 mm 0.00 in0.0 mm 0.71 in18.0 mm
04:36 PM 70.5°F21.4°C -- 81% 6.0 mph SW9.7 kmh SW -- 29.68 in1005.1 mb 0.00 in0.0 mm 0.00 in0.0 mm 0.71 in18.0 mm
04:35 PM 70.3°F21.3°C -- 80% 4.9 mph SW7.9 kmh SW -- 29.68 in1005.1 mb 0.00 in0.0 mm 0.00 in0.0 mm 0.71 in18.0 mm
04:34 PM 70.5°F21.4°C -- 81% 4.9 mph WSW7.9 kmh WSW -- 29.68 in1005.1 mb 0.00 in0.0 mm 0.00 in0.0 mm 0.71 in18.0 mm
04:33 PM 70.5°F21.4°C -- 81% 4.0 mph SW6.4 kmh SW -- 29.68 in1005.1 mb 0.00 in0.0 mm 0.00 in0.0 mm 0.71 in18.0 mm
04:32 PM 70.5°F21.4°C -- 81% 4.9 mph SW7.9 kmh SW -- 29.68 in1005.1 mb 0.00 in0.0 mm 0.00 in0.0 mm 0.71 in18.0 mm
04:31 PM 70.5°F21.4°C -- 81% 2.9 mph WSW4.7 kmh WSW -- 29.68 in1005.1 mb 0.00 in0.0 mm 0.00 in0.0 mm 0.71 in18.0 mm
04:30 PM 70.5°F21.4°C -- 81% 4.9 mph SW7.9 kmh SW -- 29.68 in1005.1 mb 0.00 in0.0 mm 0.00 in0.0 mm 0.71 in18.0 mm
04:29 PM 70.3°F21.3°C -- 81% 8.1 mph WSW13.0 kmh WSW -- 29.68 in1005.1 mb 0.00 in0.0 mm 0.00 in0.0 mm 0.71 in18.0 mm
04:28 PM 70.5°F21.4°C -- 81% 4.0 mph WSW6.4 kmh WSW -- 29.68 in1005.1 mb 0.00 in0.0 mm 0.00 in0.0 mm 0.71 in18.0 mm
04:27 PM 70.5°F21.4°C -- 81% 4.0 mph SW6.4 kmh SW -- 29.68 in1005.1 mb 0.00 in0.0 mm 0.00 in0.0 mm 0.71 in18.0 mm
04:26 PM 70.5°F21.4°C -- 82% 6.0 mph SW9.7 kmh SW -- 29.68 in1005.1 mb 0.00 in0.0 mm 0.00 in0.0 mm 0.71 in18.0 mm
04:25 PM 70.3°F21.3°C -- 82% 6.0 mph SW9.7 kmh SW -- 29.68 in1005.1 mb 0.00 in0.0 mm 0.00 in0.0 mm 0.71 in18.0 mm
04:24 PM 70.2°F21.2°C -- 82% 4.9 mph SW7.9 kmh SW -- 29.68 in1005.1 mb 0.00 in0.0 mm 0.00 in0.0 mm 0.71 in18.0 mm
04:23 PM 70.2°F21.2°C -- 82% 4.9 mph W7.9 kmh W -- 29.68 in1005.1 mb 0.00 in0.0 mm 0.00 in0.0 mm 0.71 in18.0 mm
04:22 PM 70.0°F21.1°C -- 83% 2.9 mph SW4.7 kmh SW -- 29.68 in1005.1 mb 0.00 in0.0 mm 0.00 in0.0 mm 0.71 in18.0 mm
04:21 PM 70.0°F21.1°C -- 83% 6.0 mph SW9.7 kmh SW -- 29.68 in1005.1 mb 0.00 in0.0 mm 0.00 in0.0 mm 0.71 in18.0 mm
04:20 PM 69.8°F21.0°C -- 83% 4.9 mph SW7.9 kmh SW -- 29.69 in1005.4 mb 0.00 in0.0 mm 0.00 in0.0 mm 0.71 in18.0 mm
04:19 PM 69.6°F20.9°C -- 83% 6.0 mph WSW9.7 kmh WSW -- 29.68 in1005.1 mb 0.00 in0.0 mm 0.00 in0.0 mm 0.71 in18.0 mm
04:18 PM 69.4°F20.8°C -- 83% 4.9 mph WSW7.9 kmh WSW -- 29.68 in1005.1 mb 0.00 in0.0 mm 0.00 in0.0 mm 0.71 in18.0 mm
04:17 PM 69.4°F20.8°C -- 83% 6.0 mph SW9.7 kmh SW -- 29.68 in1005.1 mb 0.00 in0.0 mm 0.00 in0.0 mm 0.71 in18.0 mm
04:16 PM 69.3°F20.7°C -- 83% 8.1 mph SW13.0 kmh SW -- 29.69 in1005.4 mb 0.00 in0.0 mm 0.00 in0.0 mm 0.71 in18.0 mm
04:15 PM 69.1°F20.6°C -- 83% 6.0 mph SW9.7 kmh SW -- 29.69 in1005.4 mb 0.00 in0.0 mm 0.00 in0.0 mm 0.71 in18.0 mm
04:14 PM 69.3°F20.7°C -- 83% 4.9 mph WSW7.9 kmh WSW -- 29.68 in1005.1 mb 0.00 in0.0 mm 0.00 in0.0 mm 0.71 in18.0 mm
04:13 PM 69.3°F20.7°C -- 83% 6.0 mph WSW9.7 kmh WSW -- 29.69 in1005.4 mb 0.00 in0.0 mm 0.00 in0.0 mm 0.71 in18.0 mm
04:12 PM 69.3°F20.7°C -- 83% 4.0 mph WSW6.4 kmh WSW -- 29.68 in1005.1 mb 0.00 in0.0 mm 0.00 in0.0 mm 0.71 in18.0 mm
04:11 PM 69.4°F20.8°C -- 83% 6.0 mph WSW9.7 kmh WSW -- 29.69 in1005.4 mb 0.00 in0.0 mm 0.00 in0.0 mm 0.71 in18.0 mm
04:10 PM 69.4°F20.8°C -- 83% 4.9 mph WSW7.9 kmh WSW -- 29.68 in1005.1 mb 0.00 in0.0 mm 0.00 in0.0 mm 0.71 in18.0 mm
04:09 PM 69.4°F20.8°C -- 83% 6.9 mph WSW11.1 kmh WSW -- 29.68 in1005.1 mb 0.00 in0.0 mm 0.00 in0.0 mm 0.71 in18.0 mm
04:08 PM 69.3°F20.7°C -- 83% 6.9 mph SW11.1 kmh SW -- 29.68 in1005.1 mb 0.00 in0.0 mm 0.00 in0.0 mm 0.71 in18.0 mm
04:07 PM 69.3°F20.7°C -- 83% 10.1 mph SW16.3 kmh SW -- 29.68 in1005.1 mb 0.00 in0.0 mm 0.00 in0.0 mm 0.71 in18.0 mm
04:06 PM 69.3°F20.7°C -- 84% 6.0 mph SW9.7 kmh SW -- 29.68 in1005.1 mb 0.00 in0.0 mm 0.00 in0.0 mm 0.71 in18.0 mm
04:05 PM 69.3°F20.7°C -- 84% 8.9 mph SW14.3 kmh SW -- 29.68 in1005.1 mb 0.00 in0.0 mm 0.00 in0.0 mm 0.71 in18.0 mm
04:04 PM 69.3°F20.7°C -- 84% 8.9 mph SW14.3 kmh SW -- 29.68 in1005.1 mb 0.00 in0.0 mm 0.00 in0.0 mm 0.71 in18.0 mm
04:03 PM 69.3°F20.7°C -- 84% 6.0 mph WSW9.7 kmh WSW -- 29.68 in1005.1 mb 0.00 in0.0 mm 0.00 in0.0 mm 0.71 in18.0 mm
04:02 PM 69.3°F20.7°C -- 84% 6.0 mph WSW9.7 kmh WSW -- 29.68 in1005.1 mb 0.00 in0.0 mm 0.00 in0.0 mm 0.71 in18.0 mm
04:01 PM 69.3°F20.7°C -- 84% 6.9 mph WSW11.1 kmh WSW -- 29.68 in1005.1 mb 0.00 in0.0 mm 0.00 in0.0 mm 0.71 in18.0 mm
04:00 PM 69.1°F20.6°C -- 84% 6.0 mph SW9.7 kmh SW -- 29.68 in1005.1 mb 0.00 in0.0 mm 0.00 in0.0 mm 0.71 in18.0 mm
03:59 PM 69.1°F20.6°C -- 84% 4.9 mph W7.9 kmh W -- 29.68 in1005.1 mb 0.00 in0.0 mm 0.00 in0.0 mm 0.71 in18.0 mm
03:58 PM 69.3°F20.7°C -- 84% 6.9 mph SW11.1 kmh SW -- 29.68 in1005.1 mb 0.00 in0.0 mm 0.00 in0.0 mm 0.71 in18.0 mm
03:57 PM 69.3°F20.7°C -- 84% 4.9 mph SW7.9 kmh SW -- 29.68 in1005.1 mb 0.00 in0.0 mm 0.00 in0.0 mm 0.71 in18.0 mm
03:56 PM 69.3°F20.7°C -- 84% 6.0 mph WSW9.7 kmh WSW -- 29.68 in1005.1 mb 0.00 in0.0 mm 0.00 in0.0 mm 0.71 in18.0 mm
03:55 PM 69.1°F20.6°C -- 85% 6.9 mph WSW11.1 kmh WSW -- 29.68 in1005.1 mb 0.00 in0.0 mm 0.00 in0.0 mm 0.71 in18.0 mm
03:54 PM 68.9°F20.5°C -- 85% 6.9 mph WSW11.1 kmh WSW -- 29.68 in1005.1 mb 0.00 in0.0 mm 0.00 in0.0 mm 0.71 in18.0 mm
03:53 PM 68.5°F20.3°C -- 85% 8.1 mph SW13.0 kmh SW -- 29.68 in1005.1 mb 0.00 in0.0 mm 0.00 in0.0 mm 0.71 in18.0 mm
03:52 PM 68.5°F20.3°C -- 85% 6.9 mph SW11.1 kmh SW -- 29.68 in1005.1 mb 0.00 in0.0 mm 0.00 in0.0 mm 0.71 in18.0 mm
03:51 PM 68.5°F20.3°C -- 85% 6.9 mph SW11.1 kmh SW -- 29.68 in1005.1 mb 0.00 in0.0 mm 0.00 in0.0 mm 0.71 in18.0 mm
03:50 PM 68.5°F20.3°C -- 85% 8.1 mph WSW13.0 kmh WSW -- 29.68 in1005.1 mb 0.00 in0.0 mm 0.00 in0.0 mm 0.71 in18.0 mm
03:49 PM 68.5°F20.3°C -- 85% 6.9 mph WSW11.1 kmh WSW -- 29.68 in1005.1 mb 0.00 in0.0 mm 0.00 in0.0 mm 0.71 in18.0 mm
03:48 PM 68.7°F20.4°C -- 84% 6.0 mph WSW9.7 kmh WSW -- 29.68 in1005.1 mb 0.00 in0.0 mm 0.00 in0.0 mm 0.71 in18.0 mm
03:47 PM 68.7°F20.4°C -- 84% 4.9 mph W7.9 kmh W -- 29.68 in1005.1 mb 0.00 in0.0 mm 0.00 in0.0 mm 0.71 in18.0 mm
03:46 PM 68.9°F20.5°C -- 84% 6.0 mph WSW9.7 kmh WSW -- 29.68 in1005.1 mb 0.00 in0.0 mm 0.00 in0.0 mm 0.71 in18.0 mm
03:45 PM 68.9°F20.5°C -- 84% 10.1 mph SW16.3 kmh SW -- 29.68 in1005.1 mb 0.00 in0.0 mm 0.00 in0.0 mm 0.71 in18.0 mm
03:44 PM 68.9°F20.5°C -- 82% 8.1 mph SW13.0 kmh SW -- 29.68 in1005.1 mb 0.00 in0.0 mm 0.00 in0.0 mm 0.71 in18.0 mm
03:43 PM 69.1°F20.6°C -- 83% 6.0 mph WSW9.7 kmh WSW -- 29.68 in1005.1 mb 0.00 in0.0 mm 0.00 in0.0 mm 0.71 in18.0 mm
03:42 PM 69.1°F20.6°C -- 82% 10.1 mph WSW16.3 kmh WSW -- 29.68 in1005.1 mb 0.00 in0.0 mm 0.00 in0.0 mm 0.71 in18.0 mm
03:41 PM 68.7°F20.4°C -- 83% 6.9 mph WSW11.1 kmh WSW -- 29.68 in1005.1 mb 0.00 in0.0 mm 0.00 in0.0 mm 0.71 in18.0 mm
03:40 PM 68.7°F20.4°C -- 83% 6.0 mph SW9.7 kmh SW -- 29.68 in1005.1 mb 0.00 in0.0 mm 0.00 in0.0 mm 0.71 in18.0 mm
03:39 PM 68.7°F20.4°C -- 83% 6.0 mph SW9.7 kmh SW -- 29.68 in1005.1 mb 0.00 in0.0 mm 0.00 in0.0 mm 0.71 in18.0 mm
03:38 PM 68.7°F20.4°C -- 82% 8.9 mph SW14.3 kmh SW -- 29.68 in1005.1 mb 0.00 in0.0 mm 0.00 in0.0 mm 0.71 in18.0 mm
03:37 PM 68.7°F20.4°C -- 82% 6.0 mph SW9.7 kmh SW -- 29.68 in1005.1 mb 0.00 in0.0 mm 0.00 in0.0 mm 0.71 in18.0 mm
03:36 PM 68.7°F20.4°C -- 82% 6.0 mph SW9.7 kmh SW -- 29.68 in1005.1 mb 0.00 in0.0 mm 0.00 in0.0 mm 0.71 in18.0 mm
03:35 PM 68.7°F20.4°C -- 84% 6.9 mph WSW11.1 kmh WSW -- 29.67 in1004.7 mb 0.00 in0.0 mm 0.00 in0.0 mm 0.71 in18.0 mm
03:34 PM 68.5°F20.3°C -- 85% 4.9 mph SW7.9 kmh SW -- 29.67 in1004.7 mb 0.00 in0.0 mm 0.00 in0.0 mm 0.71 in18.0 mm
03:33 PM 68.7°F20.4°C -- 85% 2.9 mph SSW4.7 kmh SSW -- 29.68 in1005.1 mb 0.00 in0.0 mm 0.00 in0.0 mm 0.71 in18.0 mm
03:32 PM 68.5°F20.3°C -- 86% 6.0 mph SW9.7 kmh SW -- 29.67 in1004.7 mb 0.00 in0.0 mm 0.00 in0.0 mm 0.71 in18.0 mm
03:31 PM 68.4°F20.2°C -- 86% 8.1 mph SW13.0 kmh SW -- 29.68 in1005.1 mb 0.00 in0.0 mm 0.00 in0.0 mm 0.71 in18.0 mm
03:30 PM 68.4°F20.2°C -- 86% 4.9 mph SW7.9 kmh SW -- 29.67 in1004.7 mb 0.00 in0.0 mm 0.00 in0.0 mm 0.71 in18.0 mm
03:29 PM 68.2°F20.1°C -- 86% 4.9 mph SSW7.9 kmh SSW -- 29.67 in1004.7 mb 0.00 in0.0 mm 0.00 in0.0 mm 0.71 in18.0 mm
03:28 PM 68.2°F20.1°C -- 86% 2.0 mph SSW3.2 kmh SSW -- 29.67 in1004.7 mb 0.00 in0.0 mm 0.00 in0.0 mm 0.71 in18.0 mm
03:27 PM 68.0°F20.0°C -- 86% 6.0 mph SSW9.7 kmh SSW -- 29.67 in1004.7 mb 0.00 in0.0 mm 0.00 in0.0 mm 0.71 in18.0 mm
03:26 PM 67.8°F19.9°C -- 85% 4.0 mph SW6.4 kmh SW -- 29.67 in1004.7 mb 0.00 in0.0 mm 0.00 in0.0 mm 0.71 in18.0 mm
03:25 PM 67.8°F19.9°C -- 85% 6.0 mph SE9.7 kmh SE -- 29.67 in1004.7 mb 0.00 in0.0 mm 0.00 in0.0 mm 0.71 in18.0 mm
03:24 PM 67.6°F19.8°C -- 86% 10.1 mph S16.3 kmh S -- 29.68 in1005.1 mb 0.00 in0.0 mm 0.00 in0.0 mm 0.71 in18.0 mm
03:23 PM 67.5°F19.7°C -- 87% 8.1 mph SSW13.0 kmh SSW -- 29.68 in1005.1 mb 0.00 in0.0 mm 0.00 in0.0 mm 0.71 in18.0 mm
03:22 PM 67.3°F19.6°C -- 87% 6.9 mph SSW11.1 kmh SSW -- 29.67 in1004.7 mb 0.00 in0.0 mm 0.00 in0.0 mm 0.71 in18.0 mm
03:21 PM 67.1°F19.5°C -- 89% 8.9 mph SSE14.3 kmh SSE -- 29.67 in1004.7 mb 0.00 in0.0 mm 0.00 in0.0 mm 0.71 in18.0 mm
03:20 PM 67.1°F19.5°C -- 89% 8.9 mph S14.3 kmh S -- 29.68 in1005.1 mb 0.00 in0.0 mm 0.00 in0.0 mm 0.71 in18.0 mm
03:19 PM 67.1°F19.5°C -- 90% 8.9 mph SSW14.3 kmh SSW -- 29.68 in1005.1 mb 0.00 in0.0 mm 0.00 in0.0 mm 0.71 in18.0 mm
03:18 PM 67.3°F19.6°C -- 91% 2.9 mph SSW4.7 kmh SSW -- 29.68 in1005.1 mb 0.00 in0.0 mm 0.00 in0.0 mm 0.70 in17.8 mm
03:17 PM 67.3°F19.6°C -- 90% 6.0 mph SW9.7 kmh SW -- 29.67 in1004.7 mb 0.00 in0.0 mm 0.00 in0.0 mm 0.70 in17.8 mm
03:16 PM 67.5°F19.7°C -- 90% 6.0 mph SW9.7 kmh SW -- 29.67 in1004.7 mb 0.00 in0.0 mm 0.00 in0.0 mm 0.70 in17.8 mm
03:15 PM 67.5°F19.7°C -- 89% 11.0 mph SW17.7 kmh SW -- 29.68 in1005.1 mb 0.00 in0.0 mm 0.00 in0.0 mm 0.70 in17.8 mm
03:14 PM 67.6°F19.8°C -- 89% 15.0 mph WSW24.1 kmh WSW -- 29.68 in1005.1 mb 0.00 in0.0 mm 0.00 in0.0 mm 0.70 in17.8 mm
03:13 PM 67.8°F19.9°C -- 89% 14.1 mph WSW22.7 kmh WSW -- 29.68 in1005.1 mb 0.00 in0.0 mm 0.00 in0.0 mm 0.69 in17.5 mm
03:12 PM 68.0°F20.0°C -- 88% 8.9 mph SW14.3 kmh SW -- 29.68 in1005.1 mb 0.00 in0.0 mm 0.00 in0.0 mm 0.69 in17.5 mm
03:11 PM 68.4°F20.2°C -- 87% 14.1 mph WSW22.7 kmh WSW -- 29.68 in1005.1 mb 0.00 in0.0 mm 0.00 in0.0 mm 0.68 in17.3 mm
03:10 PM 68.5°F20.3°C -- 87% 11.0 mph WSW17.7 kmh WSW -- 29.68 in1005.1 mb 0.00 in0.0 mm 0.00 in0.0 mm 0.67 in17.0 mm
03:09 PM 68.7°F20.4°C -- 86% 14.1 mph WSW22.7 kmh WSW -- 29.68 in1005.1 mb 0.00 in0.0 mm 0.00 in0.0 mm 0.66 in16.8 mm
03:08 PM 68.9°F20.5°C -- 86% 10.1 mph SW16.3 kmh SW -- 29.68 in1005.1 mb 0.00 in0.0 mm 0.00 in0.0 mm 0.62 in15.7 mm
03:07 PM 69.1°F20.6°C -- 85% 6.0 mph SW9.7 kmh SW -- 29.67 in1004.7 mb 0.00 in0.0 mm 0.00 in0.0 mm 0.58 in14.7 mm
03:06 PM 69.1°F20.6°C -- 85% 6.0 mph WSW9.7 kmh WSW -- 29.68 in1005.1 mb 0.00 in0.0 mm 0.00 in0.0 mm 0.57 in14.5 mm
03:05 PM 69.3°F20.7°C -- 84% 4.0 mph SW6.4 kmh SW -- 29.67 in1004.7 mb 0.00 in0.0 mm 0.00 in0.0 mm 0.55 in14.0 mm
03:04 PM 69.4°F20.8°C -- 84% 8.9 mph S14.3 kmh S -- 29.68 in1005.1 mb 0.00 in0.0 mm 0.00 in0.0 mm 0.54 in13.7 mm
03:03 PM 69.4°F20.8°C -- 84% 8.9 mph SW14.3 kmh SW -- 29.67 in1004.7 mb 0.00 in0.0 mm 0.00 in0.0 mm 0.53 in13.5 mm
03:02 PM 69.4°F20.8°C -- 83% 4.0 mph SSW6.4 kmh SSW -- 29.67 in1004.7 mb 0.00 in0.0 mm 0.00 in0.0 mm 0.49 in12.4 mm
03:01 PM 69.4°F20.8°C -- 83% 6.0 mph SE9.7 kmh SE -- 29.67 in1004.7 mb 0.00 in0.0 mm 0.00 in0.0 mm 0.49 in12.4 mm
03:00 PM 69.4°F20.8°C -- 83% 6.0 mph SSE9.7 kmh SSE -- 29.67 in1004.7 mb 0.00 in0.0 mm 0.00 in0.0 mm 0.49 in12.4 mm
02:59 PM 69.6°F20.9°C -- 82% 6.9 mph S11.1 kmh S -- 29.67 in1004.7 mb 0.00 in0.0 mm 0.00 in0.0 mm 0.49 in12.4 mm
02:58 PM 69.6°F20.9°C -- 82% 6.0 mph SE9.7 kmh SE -- 29.67 in1004.7 mb 0.00 in0.0 mm 0.00 in0.0 mm 0.49 in12.4 mm
02:57 PM 69.6°F20.9°C -- 82% 6.9 mph SSE11.1 kmh SSE -- 29.66 in1004.4 mb 0.00 in0.0 mm 0.00 in0.0 mm 0.49 in12.4 mm
02:56 PM 69.6°F20.9°C -- 82% 8.9 mph S14.3 kmh S -- 29.67 in1004.7 mb 0.00 in0.0 mm 0.00 in0.0 mm 0.49 in12.4 mm
02:55 PM 70.0°F21.1°C -- 82% 8.1 mph SE13.0 kmh SE -- 29.66 in1004.4 mb 0.00 in0.0 mm 0.00 in0.0 mm 0.49 in12.4 mm
02:54 PM 70.0°F21.1°C -- 82% 8.1 mph SW13.0 kmh SW -- 29.66 in1004.4 mb 0.00 in0.0 mm 0.00 in0.0 mm 0.49 in12.4 mm
02:53 PM 70.0°F21.1°C -- 82% 8.1 mph SSW13.0 kmh SSW -- 29.66 in1004.4 mb 0.00 in0.0 mm 0.00 in0.0 mm 0.49 in12.4 mm
02:52 PM 70.2°F21.2°C -- 81% 8.9 mph SSW14.3 kmh SSW -- 29.66 in1004.4 mb 0.00 in0.0 mm 0.00 in0.0 mm 0.49 in12.4 mm
02:51 PM 70.2°F21.2°C -- 81% 6.9 mph SSE11.1 kmh SSE -- 29.66 in1004.4 mb 0.00 in0.0 mm 0.00 in0.0 mm 0.49 in12.4 mm
02:50 PM 70.2°F21.2°C -- 81% 8.1 mph SSE13.0 kmh SSE -- 29.67 in1004.7 mb 0.00 in0.0 mm 0.00 in0.0 mm 0.49 in12.4 mm
02:49 PM 70.2°F21.2°C -- 81% 8.1 mph SSE13.0 kmh SSE -- 29.67 in1004.7 mb 0.00 in0.0 mm 0.00 in0.0 mm 0.49 in12.4 mm
02:48 PM 70.3°F21.3°C -- 80% 8.1 mph SSW13.0 kmh SSW -- 29.67 in1004.7 mb 0.00 in0.0 mm 0.00 in0.0 mm 0.49 in12.4 mm
02:47 PM 70.5°F21.4°C -- 80% 6.9 mph S11.1 kmh S -- 29.67 in1004.7 mb 0.00 in0.0 mm 0.00 in0.0 mm 0.49 in12.4 mm
02:46 PM 70.5°F21.4°C -- 80% 6.9 mph S11.1 kmh S -- 29.67 in1004.7 mb 0.00 in0.0 mm 0.00 in0.0 mm 0.49 in12.4 mm
02:45 PM 70.7°F21.5°C -- 80% 11.0 mph S17.7 kmh S -- 29.67 in1004.7 mb 0.00 in0.0 mm 0.00 in0.0 mm 0.49 in12.4 mm
02:44 PM 70.7°F21.5°C -- 79% 10.1 mph SSW16.3 kmh SSW -- 29.67 in1004.7 mb 0.00 in0.0 mm 0.00 in0.0 mm 0.49 in12.4 mm
02:43 PM 70.9°F21.6°C -- 79% 13.0 mph S20.9 kmh S -- 29.67 in1004.7 mb 0.00 in0.0 mm 0.00 in0.0 mm 0.49 in12.4 mm
02:42 PM 70.9°F21.6°C -- 79% 12.1 mph SSW19.5 kmh SSW -- 29.67 in1004.7 mb 0.00 in0.0 mm 0.00 in0.0 mm 0.49 in12.4 mm
02:41 PM 71.1°F21.7°C -- 79% 13.0 mph S20.9 kmh S -- 29.67 in1004.7 mb 0.00 in0.0 mm 0.00 in0.0 mm 0.49 in12.4 mm
02:40 PM 71.1°F21.7°C -- 79% 19.9 mph S32.0 kmh S -- 29.67 in1004.7 mb 0.00 in0.0 mm 0.00 in0.0 mm 0.49 in12.4 mm
02:39 PM 71.2°F21.8°C -- 79% 10.1 mph SE16.3 kmh SE -- 29.67 in1004.7 mb 0.00 in0.0 mm 0.00 in0.0 mm 0.49 in12.4 mm
02:38 PM 71.2°F21.8°C -- 78% 14.1 mph S22.7 kmh S -- 29.67 in1004.7 mb 0.00 in0.0 mm 0.00 in0.0 mm 0.49 in12.4 mm
02:37 PM 71.4°F21.9°C -- 78% 11.0 mph S17.7 kmh S -- 29.67 in1004.7 mb 0.00 in0.0 mm 0.00 in0.0 mm 0.49 in12.4 mm
02:36 PM 71.4°F21.9°C -- 78% 11.0 mph S17.7 kmh S -- 29.67 in1004.7 mb 0.00 in0.0 mm 0.00 in0.0 mm 0.49 in12.4 mm
02:35 PM 71.4°F21.9°C -- 78% 13.0 mph S20.9 kmh S -- 29.67 in1004.7 mb 0.00 in0.0 mm 0.00 in0.0 mm 0.49 in12.4 mm
02:34 PM 71.4°F21.9°C -- 78% 16.1 mph SSE25.9 kmh SSE -- 29.67 in1004.7 mb 0.00 in0.0 mm 0.00 in0.0 mm 0.49 in12.4 mm
02:33 PM 71.4°F21.9°C -- 78% 11.0 mph SE17.7 kmh SE -- 29.67 in1004.7 mb 0.00 in0.0 mm 0.00 in0.0 mm 0.49 in12.4 mm
02:32 PM 71.4°F21.9°C -- 78% 17.9 mph S28.8 kmh S -- 29.67 in1004.7 mb 0.00 in0.0 mm 0.00 in0.0 mm 0.49 in12.4 mm
02:31 PM 71.4°F21.9°C -- 78% 8.9 mph S14.3 kmh S -- 29.67 in1004.7 mb 0.00 in0.0 mm 0.00 in0.0 mm 0.49 in12.4 mm
02:30 PM 71.4°F21.9°C -- 78% 11.0 mph S17.7 kmh S -- 29.67 in1004.7 mb 0.00 in0.0 mm 0.00 in0.0 mm 0.49 in12.4 mm
02:29 PM 71.2°F21.8°C -- 78% 8.1 mph S13.0 kmh S -- 29.67 in1004.7 mb 0.00 in0.0 mm 0.00 in0.0 mm 0.49 in12.4 mm
02:28 PM 71.2°F21.8°C -- 78% 10.1 mph S16.3 kmh S -- 29.67 in1004.7 mb 0.00 in0.0 mm 0.00 in0.0 mm 0.49 in12.4 mm
02:27 PM 71.2°F21.8°C -- 78% 15.0 mph S24.1 kmh S -- 29.67 in1004.7 mb 0.00 in0.0 mm 0.00 in0.0 mm 0.49 in12.4 mm
02:26 PM 71.2°F21.8°C -- 78% 10.1 mph S16.3 kmh S -- 29.67 in1004.7 mb 0.00 in0.0 mm 0.00 in0.0 mm 0.49 in12.4 mm
02:25 PM 71.1°F21.7°C -- 78% 6.9 mph S11.1 kmh S -- 29.67 in1004.7 mb 0.00 in0.0 mm 0.00 in0.0 mm 0.49 in12.4 mm
02:24 PM 71.1°F21.7°C -- 79% 14.1 mph SSE22.7 kmh SSE -- 29.67 in1004.7 mb 0.00 in0.0 mm 0.00 in0.0 mm 0.49 in12.4 mm
02:23 PM 70.9°F21.6°C -- 79% 12.1 mph SSE19.5 kmh SSE -- 29.67 in1004.7 mb 0.00 in0.0 mm 0.00 in0.0 mm 0.49 in12.4 mm
02:22 PM 70.9°F21.6°C -- 79% 15.0 mph SSE24.1 kmh SSE -- 29.67 in1004.7 mb 0.00 in0.0 mm 0.00 in0.0 mm 0.49 in12.4 mm
02:21 PM 70.7°F21.5°C -- 80% 11.0 mph S17.7 kmh S -- 29.67 in1004.7 mb 0.00 in0.0 mm 0.00 in0.0 mm 0.49 in12.4 mm
02:20 PM 70.5°F21.4°C -- 80% 12.1 mph S19.5 kmh S -- 29.67 in1004.7 mb 0.00 in0.0 mm 0.00 in0.0 mm 0.49 in12.4 mm
02:19 PM 70.3°F21.3°C -- 81% 8.9 mph S14.3 kmh S -- 29.67 in1004.7 mb 0.00 in0.0 mm 0.00 in0.0 mm 0.49 in12.4 mm
02:18 PM 70.2°F21.2°C -- 81% 8.1 mph S13.0 kmh S -- 29.67 in1004.7 mb 0.00 in0.0 mm 0.00 in0.0 mm 0.49 in12.4 mm
02:17 PM 70.0°F21.1°C -- 82% 10.1 mph S16.3 kmh S -- 29.67 in1004.7 mb 0.00 in0.0 mm 0.00 in0.0 mm 0.49 in12.4 mm
02:16 PM 70.0°F21.1°C -- 82% 8.9 mph SE14.3 kmh SE -- 29.67 in1004.7 mb 0.00 in0.0 mm 0.00 in0.0 mm 0.49 in12.4 mm
02:15 PM 69.8°F21.0°C -- 83% 11.0 mph SSE17.7 kmh SSE -- 29.68 in1005.1 mb 0.00 in0.0 mm 0.00 in0.0 mm 0.49 in12.4 mm
02:14 PM 69.6°F20.9°C -- 83% 11.0 mph S17.7 kmh S -- 29.68 in1005.1 mb 0.00 in0.0 mm 0.00 in0.0 mm 0.49 in12.4 mm
02:13 PM 69.4°F20.8°C -- 84% 8.9 mph S14.3 kmh S -- 29.68 in1005.1 mb 0.00 in0.0 mm 0.00 in0.0 mm 0.49 in12.4 mm
02:12 PM 69.4°F20.8°C -- 84% 8.9 mph S14.3 kmh S -- 29.68 in1005.1 mb 0.00 in0.0 mm 0.00 in0.0 mm 0.49 in12.4 mm
02:11 PM 69.4°F20.8°C -- 84% 10.1 mph S16.3 kmh S -- 29.68 in1005.1 mb 0.00 in0.0 mm 0.00 in0.0 mm 0.49 in12.4 mm
02:10 PM 69.4°F20.8°C -- 84% 14.1 mph SSE22.7 kmh SSE -- 29.68 in1005.1 mb 0.00 in0.0 mm 0.00 in0.0 mm 0.49 in12.4 mm
02:09 PM 69.4°F20.8°C -- 84% 13.0 mph SSE20.9 kmh SSE -- 29.68 in1005.1 mb 0.00 in0.0 mm 0.00 in0.0 mm 0.49 in12.4 mm
02:08 PM 69.4°F20.8°C -- 84% 8.9 mph S14.3 kmh S -- 29.67 in1004.7 mb 0.00 in0.0 mm 0.00 in0.0 mm 0.49 in12.4 mm
02:07 PM 69.4°F20.8°C -- 84% 10.1 mph S16.3 kmh S -- 29.68 in1005.1 mb 0.00 in0.0 mm 0.00 in0.0 mm 0.49 in12.4 mm
02:06 PM 69.4°F20.8°C -- 84% 10.1 mph SSE16.3 kmh SSE -- 29.67 in1004.7 mb 0.00 in0.0 mm 0.00 in0.0 mm 0.49 in12.4 mm
02:05 PM 69.6°F20.9°C -- 84% 14.1 mph SSE22.7 kmh SSE -- 29.68 in1005.1 mb 0.00 in0.0 mm 0.00 in0.0 mm 0.49 in12.4 mm
02:04 PM 69.6°F20.9°C -- 84% 13.0 mph S20.9 kmh S -- 29.68 in1005.1 mb 0.00 in0.0 mm 0.00 in0.0 mm 0.49 in12.4 mm
02:03 PM 69.8°F21.0°C -- 83% 11.0 mph S17.7 kmh S -- 29.68 in1005.1 mb 0.00 in0.0 mm 0.00 in0.0 mm 0.49 in12.4 mm
02:02 PM 70.0°F21.1°C -- 83% 14.1 mph S22.7 kmh S -- 29.68 in1005.1 mb 0.00 in0.0 mm 0.00 in0.0 mm 0.49 in12.4 mm
02:01 PM 70.0°F21.1°C -- 83% 11.0 mph SSE17.7 kmh SSE -- 29.68 in1005.1 mb 0.00 in0.0 mm 0.00 in0.0 mm 0.49 in12.4 mm
02:00 PM 70.0°F21.1°C -- 83% 12.1 mph SSE19.5 kmh SSE -- 29.68 in1005.1 mb 0.00 in0.0 mm 0.00 in0.0 mm 0.49 in12.4 mm
01:59 PM 70.0°F21.1°C -- 83% 10.1 mph S16.3 kmh S -- 29.68 in1005.1 mb 0.00 in0.0 mm 0.00 in0.0 mm 0.49 in12.4 mm
01:58 PM 70.0°F21.1°C -- 83% 10.1 mph S16.3 kmh S -- 29.68 in1005.1 mb 0.00 in0.0 mm 0.00 in0.0 mm 0.49 in12.4 mm
01:57 PM 69.8°F21.0°C -- 83% 12.1 mph SSE19.5 kmh SSE -- 29.68 in1005.1 mb 0.00 in0.0 mm 0.00 in0.0 mm 0.49 in12.4 mm
01:56 PM 69.8°F21.0°C -- 83% 11.0 mph SSE17.7 kmh SSE -- 29.68 in1005.1 mb 0.00 in0.0 mm 0.00 in0.0 mm 0.49 in12.4 mm
01:55 PM 69.6°F20.9°C -- 83% 13.0 mph S20.9 kmh S -- 29.68 in1005.1 mb 0.00 in0.0 mm 0.00 in0.0 mm 0.49 in12.4 mm
01:54 PM 69.6°F20.9°C -- 82% 11.0 mph SSE17.7 kmh SSE -- 29.68 in1005.1 mb 0.00 in0.0 mm 0.00 in0.0 mm 0.49 in12.4 mm
01:53 PM 69.6°F20.9°C -- 83% 13.0 mph S20.9 kmh S -- 29.68 in1005.1 mb 0.00 in0.0 mm 0.00 in0.0 mm 0.49 in12.4 mm
01:52 PM 69.4°F20.8°C -- 82% 15.0 mph S24.1 kmh S -- 29.67 in1004.7 mb 0.00 in0.0 mm 0.00 in0.0 mm 0.49 in12.4 mm
01:51 PM 69.4°F20.8°C -- 83% 8.1 mph S13.0 kmh S -- 29.67 in1004.7 mb 0.00 in0.0 mm 0.00 in0.0 mm 0.49 in12.4 mm
01:50 PM 69.4°F20.8°C -- 83% 8.1 mph SSE13.0 kmh SSE -- 29.68 in1005.1 mb 0.00 in0.0 mm 0.00 in0.0 mm 0.49 in12.4 mm
01:49 PM 69.4°F20.8°C -- 84% 10.1 mph SSE16.3 kmh SSE -- 29.68 in1005.1 mb 0.00 in0.0 mm 0.00 in0.0 mm 0.49 in12.4 mm
01:48 PM 69.4°F20.8°C -- 84% 10.1 mph SSE16.3 kmh SSE -- 29.68 in1005.1 mb 0.00 in0.0 mm 0.00 in0.0 mm 0.49 in12.4 mm
01:47 PM 69.4°F20.8°C -- 84% 12.1 mph S19.5 kmh S -- 29.68 in1005.1 mb 0.00 in0.0 mm 0.00 in0.0 mm 0.49 in12.4 mm
01:46 PM 69.3°F20.7°C -- 83% 12.1 mph S19.5 kmh S -- 29.68 in1005.1 mb 0.00 in0.0 mm 0.00 in0.0 mm 0.49 in12.4 mm
01:45 PM 69.4°F20.8°C -- 83% 12.1 mph S19.5 kmh S -- 29.68 in1005.1 mb 0.00 in0.0 mm 0.00 in0.0 mm 0.49 in12.4 mm
01:44 PM 69.4°F20.8°C -- 83% 10.1 mph SE16.3 kmh SE -- 29.68 in1005.1 mb 0.00 in0.0 mm 0.00 in0.0 mm 0.49 in12.4 mm
01:43 PM 69.4°F20.8°C -- 83% 14.1 mph SSE22.7 kmh SSE -- 29.68 in1005.1 mb 0.00 in0.0 mm 0.00 in0.0 mm 0.49 in12.4 mm
01:42 PM 69.6°F20.9°C -- 84% 14.1 mph SSE22.7 kmh SSE -- 29.68 in1005.1 mb 0.00 in0.0 mm 0.00 in0.0 mm 0.49 in12.4 mm
01:41 PM 69.6°F20.9°C -- 83% 13.0 mph SSE20.9 kmh SSE -- 29.68 in1005.1 mb 0.00 in0.0 mm 0.00 in0.0 mm 0.49 in12.4 mm
01:40 PM 69.6°F20.9°C -- 83% 11.0 mph SSE17.7 kmh SSE -- 29.68 in1005.1 mb 0.00 in0.0 mm 0.00 in0.0 mm 0.49 in12.4 mm
01:39 PM 69.6°F20.9°C -- 83% 11.0 mph S17.7 kmh S -- 29.68 in1005.1 mb 0.00 in0.0 mm 0.00 in0.0 mm 0.49 in12.4 mm
01:38 PM 69.4°F20.8°C -- 84% 12.1 mph SE19.5 kmh SE -- 29.68 in1005.1 mb 0.00 in0.0 mm 0.00 in0.0 mm 0.49 in12.4 mm
01:37 PM 69.4°F20.8°C -- 83% 8.9 mph S14.3 kmh S -- 29.68 in1005.1 mb 0.00 in0.0 mm 0.00 in0.0 mm 0.49 in12.4 mm
01:36 PM 69.4°F20.8°C -- 84% 6.0 mph SE9.7 kmh SE -- 29.68 in1005.1 mb 0.00 in0.0 mm 0.00 in0.0 mm 0.49 in12.4 mm
01:35 PM 69.4°F20.8°C -- 84% 8.9 mph SSE14.3 kmh SSE -- 29.68 in1005.1 mb 0.00 in0.0 mm 0.00 in0.0 mm 0.49 in12.4 mm
01:34 PM 69.3°F20.7°C -- 84% 8.9 mph SSE14.3 kmh SSE -- 29.68 in1005.1 mb 0.00 in0.0 mm 0.00 in0.0 mm 0.49 in12.4 mm
01:33 PM 69.1°F20.6°C -- 84% 8.9 mph SSE14.3 kmh SSE -- 29.68 in1005.1 mb 0.00 in0.0 mm 0.00 in0.0 mm 0.49 in12.4 mm
01:32 PM 69.1°F20.6°C -- 85% 8.1 mph SSW13.0 kmh SSW -- 29.68 in1005.1 mb 0.00 in0.0 mm 0.00 in0.0 mm 0.49 in12.4 mm
01:31 PM 68.7°F20.4°C -- 85% 12.1 mph SE19.5 kmh SE -- 29.68 in1005.1 mb 0.00 in0.0 mm 0.00 in0.0 mm 0.49 in12.4 mm
01:30 PM 68.7°F20.4°C -- 84% 10.1 mph SSE16.3 kmh SSE -- 29.68 in1005.1 mb 0.00 in0.0 mm 0.00 in0.0 mm 0.49 in12.4 mm
01:29 PM 68.7°F20.4°C -- 84% 10.1 mph SE16.3 kmh SE -- 29.68 in1005.1 mb 0.00 in0.0 mm 0.00 in0.0 mm 0.49 in12.4 mm
01:28 PM 68.7°F20.4°C -- 85% 10.1 mph S16.3 kmh S -- 29.69 in1005.4 mb 0.00 in0.0 mm 0.00 in0.0 mm 0.49 in12.4 mm
01:27 PM 68.7°F20.4°C -- 85% 10.1 mph SSE16.3 kmh SSE -- 29.69 in1005.4 mb 0.00 in0.0 mm 0.00 in0.0 mm 0.49 in12.4 mm
01:26 PM 68.7°F20.4°C -- 85% 6.9 mph SSE11.1 kmh SSE -- 29.69 in1005.4 mb 0.00 in0.0 mm 0.00 in0.0 mm 0.49 in12.4 mm
01:25 PM 68.7°F20.4°C -- 85% 10.1 mph S16.3 kmh S -- 29.69 in1005.4 mb 0.00 in0.0 mm 0.00 in0.0 mm 0.49 in12.4 mm
01:24 PM 68.7°F20.4°C -- 85% 12.1 mph S19.5 kmh S -- 29.69 in1005.4 mb 0.00 in0.0 mm 0.00 in0.0 mm 0.49 in12.4 mm
01:23 PM 68.7°F20.4°C -- 85% 16.1 mph SSE25.9 kmh SSE -- 29.69 in1005.4 mb 0.00 in0.0 mm 0.00 in0.0 mm 0.49 in12.4 mm
01:22 PM 68.5°F20.3°C -- 85% 8.9 mph SSE14.3 kmh SSE -- 29.69 in1005.4 mb 0.00 in0.0 mm 0.00 in0.0 mm 0.49 in12.4 mm
01:21 PM 68.5°F20.3°C -- 85% 11.0 mph S17.7 kmh S -- 29.69 in1005.4 mb 0.00 in0.0 mm 0.00 in0.0 mm 0.49 in12.4 mm
01:20 PM 68.5°F20.3°C -- 85% 8.9 mph S14.3 kmh S -- 29.69 in1005.4 mb 0.00 in0.0 mm 0.00 in0.0 mm 0.49 in12.4 mm
01:19 PM 68.5°F20.3°C -- 85% 10.1 mph S16.3 kmh S -- 29.69 in1005.4 mb 0.00 in0.0 mm 0.00 in0.0 mm 0.49 in12.4 mm
01:18 PM 68.5°F20.3°C -- 85% 12.1 mph SSE19.5 kmh SSE -- 29.69 in1005.4 mb 0.00 in0.0 mm 0.00 in0.0 mm 0.49 in12.4 mm
01:17 PM 68.5°F20.3°C -- 85% 8.9 mph S14.3 kmh S -- 29.69 in1005.4 mb 0.00 in0.0 mm 0.00 in0.0 mm 0.49 in12.4 mm
01:16 PM 68.4°F20.2°C -- 86% 12.1 mph SSE19.5 kmh SSE -- 29.69 in1005.4 mb 0.00 in0.0 mm 0.00 in0.0 mm 0.49 in12.4 mm
01:15 PM 68.4°F20.2°C -- 86% 10.1 mph S16.3 kmh S -- 29.69 in1005.4 mb 0.00 in0.0 mm 0.00 in0.0 mm 0.49 in12.4 mm
01:14 PM 68.2°F20.1°C -- 86% 11.0 mph S17.7 kmh S -- 29.69 in1005.4 mb 0.00 in0.0 mm 0.00 in0.0 mm 0.49 in12.4 mm
01:13 PM 68.2°F20.1°C -- 86% 8.1 mph SSE13.0 kmh SSE -- 29.69 in1005.4 mb 0.00 in0.0 mm 0.00 in0.0 mm 0.49 in12.4 mm
01:12 PM 68.2°F20.1°C -- 86% 14.1 mph S22.7 kmh S -- 29.69 in1005.4 mb 0.00 in0.0 mm 0.00 in0.0 mm 0.49 in12.4 mm
01:11 PM 68.2°F20.1°C -- 86% 12.1 mph SSE19.5 kmh SSE -- 29.69 in1005.4 mb 0.00 in0.0 mm 0.00 in0.0 mm 0.49 in12.4 mm
01:10 PM 68.2°F20.1°C -- 86% 11.0 mph S17.7 kmh S -- 29.69 in1005.4 mb 0.00 in0.0 mm 0.00 in0.0 mm 0.49 in12.4 mm
01:09 PM 68.0°F20.0°C -- 86% 13.0 mph SSE20.9 kmh SSE -- 29.69 in1005.4 mb 0.00 in0.0 mm 0.00 in0.0 mm 0.49 in12.4 mm
01:08 PM 67.8°F19.9°C -- 87% 8.9 mph SSE14.3 kmh SSE -- 29.69 in1005.4 mb 0.00 in0.0 mm 0.00 in0.0 mm 0.49 in12.4 mm
01:07 PM 67.8°F19.9°C -- 86% 12.1 mph S19.5 kmh S -- 29.69 in1005.4 mb 0.00 in0.0 mm 0.00 in0.0 mm 0.49 in12.4 mm
01:06 PM 67.8°F19.9°C -- 86% 11.0 mph SSE17.7 kmh SSE -- 29.69 in1005.4 mb 0.00 in0.0 mm 0.00 in0.0 mm 0.49 in12.4 mm
01:05 PM 67.6°F19.8°C -- 86% 12.1 mph SSE19.5 kmh SSE -- 29.69 in1005.4 mb 0.00 in0.0 mm 0.00 in0.0 mm 0.49 in12.4 mm
01:04 PM 67.6°F19.8°C -- 86% 8.9 mph SE14.3 kmh SE -- 29.69 in1005.4 mb 0.00 in0.0 mm 0.00 in0.0 mm 0.49 in12.4 mm
01:03 PM 67.8°F19.9°C -- 86% 11.0 mph SSE17.7 kmh SSE -- 29.69 in1005.4 mb 0.00 in0.0 mm 0.00 in0.0 mm 0.49 in12.4 mm
01:02 PM 67.8°F19.9°C -- 85% 8.9 mph SSE14.3 kmh SSE -- 29.69 in1005.4 mb 0.00 in0.0 mm 0.00 in0.0 mm 0.49 in12.4 mm
01:01 PM 67.8°F19.9°C -- 85% 14.1 mph SE22.7 kmh SE -- 29.69 in1005.4 mb 0.00 in0.0 mm 0.00 in0.0 mm 0.49 in12.4 mm
01:00 PM 67.8°F19.9°C -- 85% 15.0 mph SSE24.1 kmh SSE -- 29.69 in1005.4 mb 0.00 in0.0 mm 0.00 in0.0 mm 0.49 in12.4 mm
12:59 PM 67.8°F19.9°C -- 85% 13.0 mph SSE20.9 kmh SSE -- 29.69 in1005.4 mb 0.00 in0.0 mm 0.00 in0.0 mm 0.49 in12.4 mm
12:58 PM 67.8°F19.9°C -- 85% 13.0 mph SSE20.9 kmh SSE -- 29.69 in1005.4 mb 0.00 in0.0 mm 0.00 in0.0 mm 0.49 in12.4 mm
12:57 PM 67.8°F19.9°C -- 85% 13.0 mph SSE20.9 kmh SSE -- 29.69 in1005.4 mb 0.00 in0.0 mm 0.00 in0.0 mm 0.49 in12.4 mm
12:56 PM 68.0°F20.0°C -- 84% 11.0 mph SE17.7 kmh SE -- 29.70 in1005.8 mb 0.00 in0.0 mm 0.00 in0.0 mm 0.49 in12.4 mm
12:55 PM 68.0°F20.0°C -- 84% 15.0 mph SE24.1 kmh SE -- 29.70 in1005.8 mb 0.00 in0.0 mm 0.00 in0.0 mm 0.49 in12.4 mm
12:54 PM 68.0°F20.0°C -- 84% 17.0 mph SSE27.4 kmh SSE -- 29.70 in1005.8 mb 0.00 in0.0 mm 0.00 in0.0 mm 0.49 in12.4 mm
12:53 PM 68.2°F20.1°C -- 84% 12.1 mph SE19.5 kmh SE -- 29.70 in1005.8 mb 0.00 in0.0 mm 0.00 in0.0 mm 0.49 in12.4 mm
12:52 PM 68.2°F20.1°C -- 84% 15.0 mph SSE24.1 kmh SSE -- 29.70 in1005.8 mb 0.00 in0.0 mm 0.00 in0.0 mm 0.49 in12.4 mm
12:51 PM 68.2°F20.1°C -- 83% 12.1 mph SSE19.5 kmh SSE -- 29.70 in1005.8 mb 0.00 in0.0 mm 0.00 in0.0 mm 0.49 in12.4 mm
12:50 PM 68.4°F20.2°C -- 83% 14.1 mph SE22.7 kmh SE -- 29.70 in1005.8 mb 0.00 in0.0 mm 0.00 in0.0 mm 0.49 in12.4 mm
12:49 PM 68.4°F20.2°C -- 84% 10.1 mph SSE16.3 kmh SSE -- 29.70 in1005.8 mb 0.00 in0.0 mm 0.00 in0.0 mm 0.49 in12.4 mm
12:48 PM 68.4°F20.2°C -- 83% 12.1 mph S19.5 kmh S -- 29.70 in1005.8 mb 0.00 in0.0 mm 0.00 in0.0 mm 0.49 in12.4 mm
12:47 PM 68.2°F20.1°C -- 83% 13.0 mph SSE20.9 kmh SSE -- 29.70 in1005.8 mb 0.00 in0.0 mm 0.00 in0.0 mm 0.49 in12.4 mm
12:46 PM 68.2°F20.1°C -- 83% 13.0 mph SSE20.9 kmh SSE -- 29.70 in1005.8 mb 0.00 in0.0 mm 0.00 in0.0 mm 0.49 in12.4 mm
12:45 PM 68.2°F20.1°C -- 84% 11.0 mph SSE17.7 kmh SSE -- 29.70 in1005.8 mb 0.00 in0.0 mm 0.00 in0.0 mm 0.49 in12.4 mm
12:44 PM 68.2°F20.1°C -- 84% 15.0 mph S24.1 kmh S -- 29.71 in1006.1 mb 0.00 in0.0 mm 0.00 in0.0 mm 0.49 in12.4 mm
12:43 PM 68.2°F20.1°C -- 84% 10.1 mph SE16.3 kmh SE -- 29.71 in1006.1 mb 0.00 in0.0 mm 0.00 in0.0 mm 0.49 in12.4 mm
12:42 PM 68.0°F20.0°C -- 83% 14.1 mph SSE22.7 kmh SSE -- 29.71 in1006.1 mb 0.00 in0.0 mm 0.00 in0.0 mm 0.49 in12.4 mm
12:41 PM 68.2°F20.1°C -- 83% 10.1 mph SE16.3 kmh SE -- 29.71 in1006.1 mb 0.00 in0.0 mm 0.00 in0.0 mm 0.49 in12.4 mm
12:40 PM 68.2°F20.1°C -- 83% 8.9 mph SSE14.3 kmh SSE -- 29.71 in1006.1 mb 0.00 in0.0 mm 0.00 in0.0 mm 0.49 in12.4 mm
12:39 PM 68.4°F20.2°C -- 82% 12.1 mph SSE19.5 kmh SSE -- 29.71 in1006.1 mb 0.00 in0.0 mm 0.00 in0.0 mm 0.49 in12.4 mm
12:38 PM 68.4°F20.2°C -- 82% 10.1 mph SSE16.3 kmh SSE -- 29.71 in1006.1 mb 0.00 in0.0 mm 0.00 in0.0 mm 0.49 in12.4 mm
12:37 PM 68.5°F20.3°C -- 81% 11.0 mph SE17.7 kmh SE -- 29.71 in1006.1 mb 0.00 in0.0 mm 0.00 in0.0 mm 0.49 in12.4 mm
12:36 PM 68.7°F20.4°C -- 80% 14.1 mph SSE22.7 kmh SSE -- 29.71 in1006.1 mb 0.00 in0.0 mm 0.00 in0.0 mm 0.49 in12.4 mm
12:35 PM 69.1°F20.6°C -- 80% 12.1 mph SSE19.5 kmh SSE -- 29.71 in1006.1 mb 0.00 in0.0 mm 0.00 in0.0 mm 0.49 in12.4 mm
12:34 PM 69.4°F20.8°C -- 78% 15.0 mph SSE24.1 kmh SSE -- 29.71 in1006.1 mb 0.00 in0.0 mm 0.00 in0.0 mm 0.49 in12.4 mm
12:33 PM 69.6°F20.9°C -- 77% 11.0 mph SSE17.7 kmh SSE -- 29.72 in1006.4 mb 0.00 in0.0 mm 0.00 in0.0 mm 0.49 in12.4 mm
12:32 PM 69.6°F20.9°C -- 77% 10.1 mph S16.3 kmh S -- 29.72 in1006.4 mb 0.00 in0.0 mm 0.00 in0.0 mm 0.49 in12.4 mm
12:31 PM 69.6°F20.9°C -- 77% 11.0 mph SSE17.7 kmh SSE -- 29.72 in1006.4 mb 0.00 in0.0 mm 0.00 in0.0 mm 0.49 in12.4 mm
12:30 PM 69.6°F20.9°C -- 77% 8.1 mph S13.0 kmh S -- 29.72 in1006.4 mb 0.00 in0.0 mm 0.00 in0.0 mm 0.49 in12.4 mm
12:29 PM 69.8°F21.0°C -- 77% 10.1 mph SSW16.3 kmh SSW -- 29.72 in1006.4 mb 0.00 in0.0 mm 0.00 in0.0 mm 0.49 in12.4 mm
12:28 PM 69.6°F20.9°C -- 77% 11.0 mph S17.7 kmh S -- 29.72 in1006.4 mb 0.00 in0.0 mm 0.00 in0.0 mm 0.49 in12.4 mm
12:27 PM 69.6°F20.9°C -- 77% 8.9 mph SSE14.3 kmh SSE -- 29.72 in1006.4 mb 0.00 in0.0 mm 0.00 in0.0 mm 0.49 in12.4 mm
12:26 PM 69.8°F21.0°C -- 77% 10.1 mph SE16.3 kmh SE -- 29.72 in1006.4 mb 0.00 in0.0 mm 0.00 in0.0 mm 0.49 in12.4 mm
12:25 PM 69.8°F21.0°C -- 77% 8.9 mph SSW14.3 kmh SSW -- 29.72 in1006.4 mb 0.00 in0.0 mm 0.00 in0.0 mm 0.49 in12.4 mm
12:24 PM 70.0°F21.1°C -- 77% 11.0 mph SSE17.7 kmh SSE -- 29.72 in1006.4 mb 0.00 in0.0 mm 0.00 in0.0 mm 0.49 in12.4 mm
12:23 PM 70.0°F21.1°C -- 77% 10.1 mph S16.3 kmh S -- 29.72 in1006.4 mb 0.00 in0.0 mm 0.00 in0.0 mm 0.49 in12.4 mm
12:22 PM 70.2°F21.2°C -- 76% 13.0 mph SE20.9 kmh SE -- 29.72 in1006.4 mb 0.00 in0.0 mm 0.00 in0.0 mm 0.49 in12.4 mm
12:21 PM 70.2°F21.2°C -- 76% 11.0 mph SSE17.7 kmh SSE -- 29.72 in1006.4 mb 0.00 in0.0 mm 0.00 in0.0 mm 0.49 in12.4 mm
12:20 PM 70.2°F21.2°C -- 76% 6.9 mph S11.1 kmh S -- 29.72 in1006.4 mb 0.00 in0.0 mm 0.00 in0.0 mm 0.49 in12.4 mm
12:19 PM 70.2°F21.2°C -- 76% 10.1 mph S16.3 kmh S -- 29.72 in1006.4 mb 0.00 in0.0 mm 0.00 in0.0 mm 0.49 in12.4 mm
12:18 PM 70.2°F21.2°C -- 76% 8.1 mph S13.0 kmh S -- 29.72 in1006.4 mb 0.00 in0.0 mm 0.00 in0.0 mm 0.49 in12.4 mm
12:17 PM 70.2°F21.2°C -- 76% 13.0 mph SE20.9 kmh SE -- 29.72 in1006.4 mb 0.00 in0.0 mm 0.00 in0.0 mm 0.49 in12.4 mm
12:16 PM 70.3°F21.3°C -- 76% 8.9 mph S14.3 kmh S -- 29.72 in1006.4 mb 0.00 in0.0 mm 0.00 in0.0 mm 0.49 in12.4 mm
12:15 PM 70.3°F21.3°C -- 76% 8.9 mph S14.3 kmh S -- 29.72 in1006.4 mb 0.00 in0.0 mm 0.00 in0.0 mm 0.49 in12.4 mm
12:14 PM 70.3°F21.3°C -- 76% 14.1 mph S22.7 kmh S -- 29.72 in1006.4 mb 0.00 in0.0 mm 0.00 in0.0 mm 0.49 in12.4 mm
12:13 PM 70.3°F21.3°C -- 77% 6.9 mph S11.1 kmh S -- 29.72 in1006.4 mb 0.00 in0.0 mm 0.00 in0.0 mm 0.49 in12.4 mm
12:12 PM 70.3°F21.3°C -- 76% 8.9 mph SSE14.3 kmh SSE -- 29.72 in1006.4 mb 0.00 in0.0 mm 0.00 in0.0 mm 0.49 in12.4 mm
12:11 PM 70.3°F21.3°C -- 77% 10.1 mph SSE16.3 kmh SSE -- 29.72 in1006.4 mb 0.00 in0.0 mm 0.00 in0.0 mm 0.49 in12.4 mm
12:10 PM 70.3°F21.3°C -- 77% 6.0 mph SSE9.7 kmh SSE -- 29.72 in1006.4 mb 0.00 in0.0 mm 0.00 in0.0 mm 0.49 in12.4 mm
12:09 PM 70.3°F21.3°C -- 77% 8.1 mph S13.0 kmh S -- 29.72 in1006.4 mb 0.00 in0.0 mm 0.00 in0.0 mm 0.49 in12.4 mm
12:08 PM 70.3°F21.3°C -- 77% 6.9 mph SSE11.1 kmh SSE -- 29.72 in1006.4 mb 0.00 in0.0 mm 0.00 in0.0 mm 0.49 in12.4 mm
12:07 PM 70.2°F21.2°C -- 77% 4.9 mph S7.9 kmh S -- 29.72 in1006.4 mb 0.00 in0.0 mm 0.00 in0.0 mm 0.49 in12.4 mm
12:06 PM 70.2°F21.2°C -- 77% 6.0 mph S9.7 kmh S -- 29.72 in1006.4 mb 0.00 in0.0 mm 0.00 in0.0 mm 0.49 in12.4 mm
12:05 PM 70.2°F21.2°C -- 77% 8.1 mph S13.0 kmh S -- 29.72 in1006.4 mb 0.00 in0.0 mm 0.00 in0.0 mm 0.49 in12.4 mm
12:04 PM 70.0°F21.1°C -- 77% 6.0 mph S9.7 kmh S -- 29.72 in1006.4 mb 0.00 in0.0 mm 0.00 in0.0 mm 0.49 in12.4 mm
12:03 PM 70.0°F21.1°C -- 77% 10.1 mph S16.3 kmh S -- 29.72 in1006.4 mb 0.00 in0.0 mm 0.00 in0.0 mm 0.49 in12.4 mm
12:02 PM 70.0°F21.1°C -- 78% 8.1 mph S13.0 kmh S -- 29.72 in1006.4 mb 0.00 in0.0 mm 0.00 in0.0 mm 0.49 in12.4 mm
12:01 PM 70.0°F21.1°C -- 78% 8.9 mph S14.3 kmh S -- 29.73 in1006.8 mb 0.00 in0.0 mm 0.00 in0.0 mm 0.49 in12.4 mm
12:00 PM 69.8°F21.0°C -- 78% 6.9 mph S11.1 kmh S -- 29.73 in1006.8 mb 0.00 in0.0 mm 0.00 in0.0 mm 0.49 in12.4 mm
11:59 AM 69.6°F20.9°C -- 78% 8.9 mph S14.3 kmh S -- 29.73 in1006.8 mb 0.00 in0.0 mm 0.00 in0.0 mm 0.49 in12.4 mm
11:58 AM 69.6°F20.9°C -- 79% 6.0 mph S9.7 kmh S -- 29.73 in1006.8 mb 0.00 in0.0 mm 0.00 in0.0 mm 0.49 in12.4 mm
11:57 AM 69.6°F20.9°C -- 79% 2.9 mph SSW4.7 kmh SSW -- 29.73 in1006.8 mb 0.00 in0.0 mm 0.00 in0.0 mm 0.49 in12.4 mm
11:56 AM 69.6°F20.9°C -- 79% 6.0 mph S9.7 kmh S -- 29.73 in1006.8 mb 0.00 in0.0 mm 0.00 in0.0 mm 0.49 in12.4 mm
11:55 AM 69.4°F20.8°C -- 80% 10.1 mph S16.3 kmh S -- 29.73 in1006.8 mb 0.00 in0.0 mm 0.00 in0.0 mm 0.49 in12.4 mm
11:54 AM 69.4°F20.8°C -- 80% 6.9 mph S11.1 kmh S -- 29.73 in1006.8 mb 0.00 in0.0 mm 0.00 in0.0 mm 0.49 in12.4 mm
11:53 AM 69.4°F20.8°C -- 80% 6.0 mph S9.7 kmh S -- 29.74 in1007.1 mb 0.00 in0.0 mm 0.00 in0.0 mm 0.49 in12.4 mm
11:52 AM 69.4°F20.8°C -- 80% 4.9 mph S7.9 kmh S -- 29.73 in1006.8 mb 0.00 in0.0 mm 0.00 in0.0 mm 0.49 in12.4 mm
11:51 AM 69.6°F20.9°C -- 80% 4.9 mph SSE7.9 kmh SSE -- 29.74 in1007.1 mb 0.00 in0.0 mm 0.00 in0.0 mm 0.49 in12.4 mm
11:50 AM 69.6°F20.9°C -- 79% 6.0 mph SSE9.7 kmh SSE -- 29.74 in1007.1 mb 0.00 in0.0 mm 0.00 in0.0 mm 0.49 in12.4 mm
11:49 AM 69.6°F20.9°C -- 79% 4.9 mph SE7.9 kmh SE -- 29.74 in1007.1 mb 0.00 in0.0 mm 0.00 in0.0 mm 0.49 in12.4 mm
11:48 AM 69.6°F20.9°C -- 79% 4.0 mph SSE6.4 kmh SSE -- 29.74 in1007.1 mb 0.00 in0.0 mm 0.00 in0.0 mm 0.49 in12.4 mm
11:47 AM 69.6°F20.9°C -- 78% 6.0 mph S9.7 kmh S -- 29.74 in1007.1 mb 0.00 in0.0 mm 0.00 in0.0 mm 0.49 in12.4 mm
11:46 AM 69.6°F20.9°C -- 78% 8.9 mph SSE14.3 kmh SSE -- 29.74 in1007.1 mb 0.00 in0.0 mm 0.00 in0.0 mm 0.49 in12.4 mm
11:45 AM 69.6°F20.9°C -- 80% 8.1 mph S13.0 kmh S -- 29.74 in1007.1 mb 0.00 in0.0 mm 0.00 in0.0 mm 0.49 in12.4 mm
11:44 AM 69.6°F20.9°C -- 80% 6.9 mph SSE11.1 kmh SSE -- 29.74 in1007.1 mb 0.00 in0.0 mm 0.00 in0.0 mm 0.49 in12.4 mm
11:43 AM 69.6°F20.9°C -- 80% 4.0 mph S6.4 kmh S -- 29.74 in1007.1 mb 0.00 in0.0 mm 0.00 in0.0 mm 0.49 in12.4 mm
11:42 AM 69.6°F20.9°C -- 80% 6.9 mph S11.1 kmh S -- 29.74 in1007.1 mb 0.00 in0.0 mm 0.00 in0.0 mm 0.49 in12.4 mm
11:41 AM 69.6°F20.9°C -- 81% 11.0 mph S17.7 kmh S -- 29.74 in1007.1 mb 0.00 in0.0 mm 0.00 in0.0 mm 0.49 in12.4 mm
11:40 AM 69.6°F20.9°C -- 81% 6.9 mph S11.1 kmh S -- 29.74 in1007.1 mb 0.00 in0.0 mm 0.00 in0.0 mm 0.49 in12.4 mm
11:39 AM 69.6°F20.9°C -- 81% 8.9 mph S14.3 kmh S -- 29.74 in1007.1 mb 0.00 in0.0 mm 0.00 in0.0 mm 0.49 in12.4 mm
11:38 AM 69.6°F20.9°C -- 81% 6.0 mph S9.7 kmh S -- 29.74 in1007.1 mb 0.00 in0.0 mm 0.00 in0.0 mm 0.49 in12.4 mm
11:37 AM 69.6°F20.9°C -- 81% 6.9 mph S11.1 kmh S -- 29.75 in1007.5 mb 0.00 in0.0 mm 0.00 in0.0 mm 0.49 in12.4 mm
11:36 AM 69.6°F20.9°C -- 81% 4.9 mph S7.9 kmh S -- 29.75 in1007.5 mb 0.00 in0.0 mm 0.00 in0.0 mm 0.49 in12.4 mm
11:35 AM 69.6°F20.9°C -- 81% 6.9 mph SSE11.1 kmh SSE -- 29.75 in1007.5 mb 0.00 in0.0 mm 0.00 in0.0 mm 0.49 in12.4 mm
11:34 AM 69.6°F20.9°C -- 81% 6.0 mph S9.7 kmh S -- 29.75 in1007.5 mb 0.00 in0.0 mm 0.00 in0.0 mm 0.49 in12.4 mm
11:33 AM 69.6°F20.9°C -- 81% 4.0 mph S6.4 kmh S -- 29.75 in1007.5 mb 0.00 in0.0 mm 0.00 in0.0 mm 0.49 in12.4 mm
11:32 AM 69.6°F20.9°C -- 82% 2.9 mph S4.7 kmh S -- 29.75 in1007.5 mb 0.00 in0.0 mm 0.00 in0.0 mm 0.49 in12.4 mm
11:31 AM 69.4°F20.8°C -- 82% 4.9 mph S7.9 kmh S -- 29.75 in1007.5 mb 0.00 in0.0 mm 0.00 in0.0 mm 0.49 in12.4 mm
11:30 AM 69.6°F20.9°C -- 81% 8.9 mph S14.3 kmh S -- 29.75 in1007.5 mb 0.00 in0.0 mm 0.00 in0.0 mm 0.49 in12.4 mm
11:29 AM 69.4°F20.8°C -- 81% 4.0 mph SW6.4 kmh SW -- 29.75 in1007.5 mb 0.00 in0.0 mm 0.00 in0.0 mm 0.49 in12.4 mm
11:28 AM 69.4°F20.8°C -- 82% 4.9 mph S7.9 kmh S -- 29.75 in1007.5 mb 0.00 in0.0 mm 0.00 in0.0 mm 0.49 in12.4 mm
11:27 AM 69.4°F20.8°C -- 82% 4.0 mph S6.4 kmh S -- 29.75 in1007.5 mb 0.00 in0.0 mm 0.00 in0.0 mm 0.49 in12.4 mm
11:26 AM 69.3°F20.7°C -- 82% 6.9 mph S11.1 kmh S -- 29.76 in1007.8 mb 0.00 in0.0 mm 0.00 in0.0 mm 0.49 in12.4 mm
11:25 AM 69.3°F20.7°C -- 82% 6.0 mph S9.7 kmh S -- 29.76 in1007.8 mb 0.00 in0.0 mm 0.00 in0.0 mm 0.49 in12.4 mm
11:24 AM 69.3°F20.7°C -- 82% 6.9 mph SW11.1 kmh SW -- 29.76 in1007.8 mb 0.00 in0.0 mm 0.00 in0.0 mm 0.49 in12.4 mm
11:23 AM 69.1°F20.6°C -- 83% 4.0 mph SW6.4 kmh SW -- 29.76 in1007.8 mb 0.00 in0.0 mm 0.00 in0.0 mm 0.49 in12.4 mm
11:22 AM 69.1°F20.6°C -- 84% 4.0 mph SSW6.4 kmh SSW -- 29.76 in1007.8 mb 0.00 in0.0 mm 0.00 in0.0 mm 0.49 in12.4 mm
11:21 AM 69.1°F20.6°C -- 84% 6.0 mph S9.7 kmh S -- 29.76 in1007.8 mb 0.00 in0.0 mm 0.00 in0.0 mm 0.49 in12.4 mm
11:20 AM 69.1°F20.6°C -- 84% 4.9 mph SSE7.9 kmh SSE -- 29.76 in1007.8 mb 0.00 in0.0 mm 0.00 in0.0 mm 0.49 in12.4 mm
11:19 AM 68.9°F20.5°C -- 84% 8.1 mph S13.0 kmh S -- 29.76 in1007.8 mb 0.00 in0.0 mm 0.00 in0.0 mm 0.49 in12.4 mm
11:18 AM 69.1°F20.6°C -- 84% 4.9 mph SSW7.9 kmh SSW -- 29.76 in1007.8 mb 0.00 in0.0 mm 0.00 in0.0 mm 0.49 in12.4 mm
11:17 AM 69.1°F20.6°C -- 84% 8.1 mph SW13.0 kmh SW -- 29.76 in1007.8 mb 0.00 in0.0 mm 0.00 in0.0 mm 0.49 in12.4 mm
11:16 AM 69.1°F20.6°C -- 84% 8.1 mph SW13.0 kmh SW -- 29.76 in1007.8 mb 0.00 in0.0 mm 0.00 in0.0 mm 0.49 in12.4 mm
11:15 AM 69.1°F20.6°C -- 85% 4.9 mph SW7.9 kmh SW -- 29.76 in1007.8 mb 0.00 in0.0 mm 0.00 in0.0 mm 0.49 in12.4 mm
11:14 AM 69.1°F20.6°C -- 85% 6.9 mph SW11.1 kmh SW -- 29.76 in1007.8 mb 0.00 in0.0 mm 0.00 in0.0 mm 0.49 in12.4 mm
11:13 AM 69.1°F20.6°C -- 85% 8.1 mph SSE13.0 kmh SSE -- 29.77 in1008.1 mb 0.00 in0.0 mm 0.00 in0.0 mm 0.49 in12.4 mm
11:12 AM 68.9°F20.5°C -- 85% 2.9 mph S4.7 kmh S -- 29.77 in1008.1 mb 0.00 in0.0 mm 0.00 in0.0 mm 0.49 in12.4 mm
11:11 AM 68.7°F20.4°C -- 85% 4.9 mph S7.9 kmh S -- 29.77 in1008.1 mb 0.00 in0.0 mm 0.00 in0.0 mm 0.49 in12.4 mm
11:10 AM 68.7°F20.4°C -- 86% 6.9 mph SW11.1 kmh SW -- 29.77 in1008.1 mb 0.00 in0.0 mm 0.00 in0.0 mm 0.49 in12.4 mm
11:09 AM 68.7°F20.4°C -- 86% 6.9 mph S11.1 kmh S -- 29.77 in1008.1 mb 0.00 in0.0 mm 0.00 in0.0 mm 0.49 in12.4 mm
11:08 AM 68.7°F20.4°C -- 86% 6.9 mph SSE11.1 kmh SSE -- 29.77 in1008.1 mb 0.00 in0.0 mm 0.00 in0.0 mm 0.49 in12.4 mm
11:07 AM 68.7°F20.4°C -- 86% 4.0 mph SSW6.4 kmh SSW -- 29.77 in1008.1 mb 0.00 in0.0 mm 0.00 in0.0 mm 0.49 in12.4 mm
11:06 AM 68.7°F20.4°C -- 86% 4.0 mph SSW6.4 kmh SSW -- 29.77 in1008.1 mb 0.00 in0.0 mm 0.00 in0.0 mm 0.49 in12.4 mm
11:05 AM 68.5°F20.3°C -- 86% 2.9 mph SSE4.7 kmh SSE -- 29.77 in1008.1 mb 0.00 in0.0 mm 0.00 in0.0 mm 0.49 in12.4 mm
11:04 AM 68.5°F20.3°C -- 87% 6.9 mph S11.1 kmh S -- 29.77 in1008.1 mb 0.00 in0.0 mm 0.00 in0.0 mm 0.49 in12.4 mm
11:03 AM 68.5°F20.3°C -- 87% 6.9 mph WSW11.1 kmh WSW -- 29.77 in1008.1 mb 0.00 in0.0 mm 0.00 in0.0 mm 0.49 in12.4 mm
11:02 AM 68.4°F20.2°C -- 87% 8.1 mph SSW13.0 kmh SSW -- 29.77 in1008.1 mb 0.00 in0.0 mm 0.00 in0.0 mm 0.49 in12.4 mm
11:01 AM 68.4°F20.2°C -- 88% 4.9 mph SSW7.9 kmh SSW -- 29.77 in1008.1 mb 0.00 in0.0 mm 0.00 in0.0 mm 0.49 in12.4 mm
11:00 AM 68.4°F20.2°C -- 88% 6.9 mph S11.1 kmh S -- 29.77 in1008.1 mb 0.00 in0.0 mm 0.00 in0.0 mm 0.49 in12.4 mm
10:59 AM 68.2°F20.1°C -- 88% 8.1 mph SSE13.0 kmh SSE -- 29.77 in1008.1 mb 0.00 in0.0 mm 0.00 in0.0 mm 0.49 in12.4 mm
10:58 AM 68.2°F20.1°C -- 88% 4.9 mph S7.9 kmh S -- 29.77 in1008.1 mb 0.00 in0.0 mm 0.00 in0.0 mm 0.49 in12.4 mm
10:57 AM 68.0°F20.0°C -- 89% 8.9 mph S14.3 kmh S -- 29.77 in1008.1 mb 0.00 in0.0 mm 0.00 in0.0 mm 0.49 in12.4 mm
10:56 AM 68.0°F20.0°C -- 89% 8.9 mph S14.3 kmh S -- 29.77 in1008.1 mb 0.00 in0.0 mm 0.00 in0.0 mm 0.49 in12.4 mm
10:55 AM 68.0°F20.0°C -- 89% 6.9 mph S11.1 kmh S -- 29.77 in1008.1 mb 0.00 in0.0 mm 0.00 in0.0 mm 0.49 in12.4 mm
10:54 AM 68.0°F20.0°C -- 89% 4.9 mph S7.9 kmh S -- 29.78 in1008.5 mb 0.00 in0.0 mm 0.00 in0.0 mm 0.49 in12.4 mm
10:53 AM 68.0°F20.0°C -- 89% 4.0 mph S6.4 kmh S -- 29.78 in1008.5 mb 0.00 in0.0 mm 0.00 in0.0 mm 0.49 in12.4 mm
10:52 AM 67.8°F19.9°C -- 89% 4.9 mph SSE7.9 kmh SSE -- 29.78 in1008.5 mb 0.00 in0.0 mm 0.00 in0.0 mm 0.49 in12.4 mm
10:51 AM 68.0°F20.0°C -- 89% 8.9 mph S14.3 kmh S -- 29.78 in1008.5 mb 0.00 in0.0 mm 0.00 in0.0 mm 0.49 in12.4 mm
10:50 AM 67.8°F19.9°C -- 90% 8.1 mph SSE13.0 kmh SSE -- 29.78 in1008.5 mb 0.00 in0.0 mm 0.00 in0.0 mm 0.49 in12.4 mm
10:49 AM 67.8°F19.9°C -- 90% 8.9 mph S14.3 kmh S -- 29.78 in1008.5 mb 0.00 in0.0 mm 0.00 in0.0 mm 0.49 in12.4 mm
10:48 AM 67.8°F19.9°C -- 90% 8.1 mph SSW13.0 kmh SSW -- 29.78 in1008.5 mb 0.00 in0.0 mm 0.00 in0.0 mm 0.49 in12.4 mm
10:47 AM 67.8°F19.9°C -- 90% 6.9 mph S11.1 kmh S -- 29.78 in1008.5 mb 0.00 in0.0 mm 0.00 in0.0 mm 0.49 in12.4 mm
10:46 AM 67.8°F19.9°C -- 90% 6.9 mph SSW11.1 kmh SSW -- 29.78 in1008.5 mb 0.00 in0.0 mm 0.00 in0.0 mm 0.49 in12.4 mm
10:45 AM 67.8°F19.9°C -- 90% 4.0 mph S6.4 kmh S -- 29.78 in1008.5 mb 0.00 in0.0 mm 0.00 in0.0 mm 0.49 in12.4 mm
10:44 AM 67.8°F19.9°C -- 90% 6.9 mph S11.1 kmh S -- 29.78 in1008.5 mb 0.00 in0.0 mm 0.00 in0.0 mm 0.49 in12.4 mm
10:43 AM 67.8°F19.9°C -- 90% 4.9 mph SSW7.9 kmh SSW -- 29.78 in1008.5 mb 0.00 in0.0 mm 0.00 in0.0 mm 0.49 in12.4 mm
10:42 AM 67.8°F19.9°C -- 90% 8.1 mph S13.0 kmh S -- 29.78 in1008.5 mb 0.00 in0.0 mm 0.00 in0.0 mm 0.49 in12.4 mm
10:41 AM 67.8°F19.9°C -- 90% 4.9 mph S7.9 kmh S -- 29.78 in1008.5 mb 0.00 in0.0 mm 0.00 in0.0 mm 0.49 in12.4 mm
10:40 AM 67.8°F19.9°C -- 90% 8.1 mph SSE13.0 kmh SSE -- 29.78 in1008.5 mb 0.00 in0.0 mm 0.00 in0.0 mm 0.49 in12.4 mm
10:39 AM 67.8°F19.9°C -- 90% 8.9 mph SW14.3 kmh SW -- 29.78 in1008.5 mb 0.00 in0.0 mm 0.00 in0.0 mm 0.49 in12.4 mm
10:38 AM 67.8°F19.9°C -- 90% 6.9 mph SSW11.1 kmh SSW -- 29.78 in1008.5 mb 0.00 in0.0 mm 0.00 in0.0 mm 0.49 in12.4 mm
10:37 AM 67.8°F19.9°C -- 90% 8.1 mph S13.0 kmh S -- 29.78 in1008.5 mb 0.00 in0.0 mm 0.00 in0.0 mm 0.49 in12.4 mm
10:36 AM 67.8°F19.9°C -- 90% 6.9 mph S11.1 kmh S -- 29.78 in1008.5 mb 0.00 in0.0 mm 0.00 in0.0 mm 0.49 in12.4 mm
10:35 AM 68.0°F20.0°C -- 90% 6.9 mph S11.1 kmh S -- 29.78 in1008.5 mb 0.00 in0.0 mm 0.00 in0.0 mm 0.49 in12.4 mm
10:34 AM 68.0°F20.0°C -- 90% 6.0 mph SSE9.7 kmh SSE -- 29.78 in1008.5 mb 0.00 in0.0 mm 0.00 in0.0 mm 0.49 in12.4 mm
10:33 AM 68.0°F20.0°C -- 90% 10.1 mph S16.3 kmh S -- 29.78 in1008.5 mb 0.00 in0.0 mm 0.00 in0.0 mm 0.49 in12.4 mm
10:32 AM 68.2°F20.1°C -- 89% 8.9 mph S14.3 kmh S -- 29.78 in1008.5 mb 0.00 in0.0 mm 0.00 in0.0 mm 0.49 in12.4 mm
10:31 AM 68.2°F20.1°C -- 89% 8.9 mph S14.3 kmh S -- 29.78 in1008.5 mb 0.00 in0.0 mm 0.00 in0.0 mm 0.49 in12.4 mm
10:30 AM 68.2°F20.1°C -- 89% 8.1 mph S13.0 kmh S -- 29.78 in1008.5 mb 0.00 in0.0 mm 0.00 in0.0 mm 0.49 in12.4 mm
10:29 AM 68.2°F20.1°C -- 89% 10.1 mph S16.3 kmh S -- 29.78 in1008.5 mb 0.00 in0.0 mm 0.00 in0.0 mm 0.49 in12.4 mm
10:28 AM 68.2°F20.1°C -- 89% 8.9 mph S14.3 kmh S -- 29.78 in1008.5 mb 0.00 in0.0 mm 0.00 in0.0 mm 0.49 in12.4 mm
10:27 AM 68.4°F20.2°C -- 89% 8.9 mph S14.3 kmh S -- 29.78 in1008.5 mb 0.00 in0.0 mm 0.00 in0.0 mm 0.49 in12.4 mm
10:26 AM 68.4°F20.2°C -- 89% 6.9 mph SSE11.1 kmh SSE -- 29.78 in1008.5 mb 0.00 in0.0 mm 0.00 in0.0 mm 0.49 in12.4 mm
10:25 AM 68.2°F20.1°C -- 89% 8.9 mph SSE14.3 kmh SSE -- 29.78 in1008.5 mb 0.00 in0.0 mm 0.00 in0.0 mm 0.49 in12.4 mm
10:24 AM 68.2°F20.1°C -- 89% 8.1 mph S13.0 kmh S -- 29.78 in1008.5 mb 0.00 in0.0 mm 0.00 in0.0 mm 0.49 in12.4 mm
10:23 AM 68.2°F20.1°C -- 89% 8.1 mph SSE13.0 kmh SSE -- 29.78 in1008.5 mb 0.00 in0.0 mm 0.00 in0.0 mm 0.49 in12.4 mm
10:22 AM 68.2°F20.1°C -- 89% 6.0 mph SSE9.7 kmh SSE -- 29.78 in1008.5 mb 0.00 in0.0 mm 0.00 in0.0 mm 0.49 in12.4 mm
10:21 AM 68.2°F20.1°C -- 89% 11.0 mph S17.7 kmh S -- 29.79 in1008.8 mb 0.00 in0.0 mm 0.00 in0.0 mm 0.49 in12.4 mm
10:20 AM 68.2°F20.1°C -- 89% 8.1 mph SSE13.0 kmh SSE -- 29.79 in1008.8 mb 0.00 in0.0 mm 0.00 in0.0 mm 0.49 in12.4 mm
10:19 AM 68.2°F20.1°C -- 89% 10.1 mph SE16.3 kmh SE -- 29.79 in1008.8 mb 0.00 in0.0 mm 0.00 in0.0 mm 0.49 in12.4 mm
10:18 AM 68.0°F20.0°C -- 89% 6.9 mph S11.1 kmh S -- 29.78 in1008.5 mb 0.00 in0.0 mm 0.00 in0.0 mm 0.49 in12.4 mm
10:17 AM 68.0°F20.0°C -- 89% 8.1 mph S13.0 kmh S -- 29.79 in1008.8 mb 0.00 in0.0 mm 0.00 in0.0 mm 0.49 in12.4 mm
10:16 AM 67.8°F19.9°C -- 89% 8.1 mph S13.0 kmh S -- 29.79 in1008.8 mb 0.00 in0.0 mm 0.00 in0.0 mm 0.49 in12.4 mm
10:15 AM 67.8°F19.9°C -- 90% 6.9 mph SSE11.1 kmh SSE -- 29.78 in1008.5 mb 0.00 in0.0 mm 0.00 in0.0 mm 0.49 in12.4 mm
10:14 AM 67.8°F19.9°C -- 90% 10.1 mph S16.3 kmh S -- 29.79 in1008.8 mb 0.00 in0.0 mm 0.00 in0.0 mm 0.49 in12.4 mm
10:13 AM 67.8°F19.9°C -- 90% 8.9 mph SSE14.3 kmh SSE -- 29.79 in1008.8 mb 0.00 in0.0 mm 0.00 in0.0 mm 0.49 in12.4 mm
10:12 AM 67.8°F19.9°C -- 90% 6.9 mph S11.1 kmh S -- 29.78 in1008.5 mb 0.00 in0.0 mm 0.00 in0.0 mm 0.49 in12.4 mm
10:11 AM 67.8°F19.9°C -- 90% 4.9 mph S7.9 kmh S -- 29.78 in1008.5 mb 0.00 in0.0 mm 0.00 in0.0 mm 0.49 in12.4 mm
10:10 AM 67.8°F19.9°C -- 90% 10.1 mph SSE16.3 kmh SSE -- 29.79 in1008.8 mb 0.00 in0.0 mm 0.00 in0.0 mm 0.49 in12.4 mm
10:09 AM 67.8°F19.9°C -- 90% 6.0 mph SSW9.7 kmh SSW -- 29.79 in1008.8 mb 0.00 in0.0 mm 0.00 in0.0 mm 0.49 in12.4 mm
10:08 AM 67.8°F19.9°C -- 90% 10.1 mph SW16.3 kmh SW -- 29.79 in1008.8 mb 0.00 in0.0 mm 0.00 in0.0 mm 0.49 in12.4 mm
10:07 AM 67.6°F19.8°C -- 90% 8.1 mph S13.0 kmh S -- 29.79 in1008.8 mb 0.00 in0.0 mm 0.00 in0.0 mm 0.49 in12.4 mm
10:06 AM 67.6°F19.8°C -- 90% 12.1 mph S19.5 kmh S -- 29.79 in1008.8 mb 0.00 in0.0 mm 0.00 in0.0 mm 0.49 in12.4 mm
10:05 AM 67.6°F19.8°C -- 90% 10.1 mph S16.3 kmh S -- 29.79 in1008.8 mb 0.00 in0.0 mm 0.00 in0.0 mm 0.49 in12.4 mm
10:04 AM 67.6°F19.8°C -- 90% 10.1 mph S16.3 kmh S -- 29.79 in1008.8 mb 0.00 in0.0 mm 0.00 in0.0 mm 0.49 in12.4 mm
10:03 AM 67.6°F19.8°C -- 90% 8.1 mph S13.0 kmh S -- 29.78 in1008.5 mb 0.00 in0.0 mm 0.00 in0.0 mm 0.49 in12.4 mm
10:02 AM 67.6°F19.8°C -- 90% 8.1 mph S13.0 kmh S -- 29.79 in1008.8 mb 0.00 in0.0 mm 0.00 in0.0 mm 0.49 in12.4 mm
10:01 AM 67.6°F19.8°C -- 90% 8.1 mph S13.0 kmh S -- 29.79 in1008.8 mb 0.00 in0.0 mm 0.00 in0.0 mm 0.49 in12.4 mm
10:00 AM 67.6°F19.8°C -- 90% 8.1 mph S13.0 kmh S -- 29.78 in1008.5 mb 0.00 in0.0 mm 0.00 in0.0 mm 0.49 in12.4 mm
09:59 AM 67.6°F19.8°C -- 90% 8.9 mph S14.3 kmh S -- 29.78 in1008.5 mb 0.00 in0.0 mm 0.00 in0.0 mm 0.49 in12.4 mm
09:58 AM 67.6°F19.8°C -- 90% 6.9 mph S11.1 kmh S -- 29.78 in1008.5 mb 0.00 in0.0 mm 0.00 in0.0 mm 0.49 in12.4 mm
09:57 AM 67.6°F19.8°C -- 90% 6.0 mph SE9.7 kmh SE -- 29.78 in1008.5 mb 0.00 in0.0 mm 0.00 in0.0 mm 0.49 in12.4 mm
09:56 AM 67.5°F19.7°C -- 90% 6.9 mph S11.1 kmh S -- 29.78 in1008.5 mb 0.00 in0.0 mm 0.00 in0.0 mm 0.49 in12.4 mm
09:55 AM 67.5°F19.7°C -- 91% 8.9 mph SSW14.3 kmh SSW -- 29.78 in1008.5 mb 0.00 in0.0 mm 0.00 in0.0 mm 0.49 in12.4 mm
09:54 AM 67.5°F19.7°C -- 91% 14.1 mph S22.7 kmh S -- 29.78 in1008.5 mb 0.00 in0.0 mm 0.00 in0.0 mm 0.49 in12.4 mm
09:53 AM 67.5°F19.7°C -- 91% 8.1 mph S13.0 kmh S -- 29.78 in1008.5 mb 0.00 in0.0 mm 0.00 in0.0 mm 0.49 in12.4 mm
09:52 AM 67.5°F19.7°C -- 91% 4.9 mph S7.9 kmh S -- 29.78 in1008.5 mb 0.00 in0.0 mm 0.00 in0.0 mm 0.49 in12.4 mm
09:51 AM 67.3°F19.6°C -- 91% 8.1 mph S13.0 kmh S -- 29.79 in1008.8 mb 0.00 in0.0 mm 0.00 in0.0 mm 0.49 in12.4 mm
09:50 AM 67.3°F19.6°C -- 91% 8.1 mph SSE13.0 kmh SSE -- 29.79 in1008.8 mb 0.00 in0.0 mm 0.00 in0.0 mm 0.49 in12.4 mm
09:49 AM 67.1°F19.5°C -- 91% 4.9 mph S7.9 kmh S -- 29.79 in1008.8 mb 0.00 in0.0 mm 0.00 in0.0 mm 0.49 in12.4 mm
09:48 AM 66.9°F19.4°C -- 91% 8.9 mph S14.3 kmh S -- 29.79 in1008.8 mb 0.00 in0.0 mm 0.00 in0.0 mm 0.49 in12.4 mm
09:47 AM 66.9°F19.4°C -- 91% 4.9 mph S7.9 kmh S -- 29.79 in1008.8 mb 0.00 in0.0 mm 0.00 in0.0 mm 0.49 in12.4 mm
09:46 AM 66.7°F19.3°C -- 91% 6.0 mph S9.7 kmh S -- 29.79 in1008.8 mb 0.00 in0.0 mm 0.00 in0.0 mm 0.49 in12.4 mm
09:45 AM 66.7°F19.3°C -- 91% 8.1 mph S13.0 kmh S -- 29.79 in1008.8 mb 0.00 in0.0 mm 0.00 in0.0 mm 0.49 in12.4 mm
09:44 AM 66.7°F19.3°C -- 91% 8.1 mph SE13.0 kmh SE -- 29.79 in1008.8 mb 0.00 in0.0 mm 0.00 in0.0 mm 0.49 in12.4 mm
09:43 AM 66.6°F19.2°C -- 92% 8.9 mph SSE14.3 kmh SSE -- 29.79 in1008.8 mb 0.00 in0.0 mm 0.00 in0.0 mm 0.49 in12.4 mm
09:42 AM 66.6°F19.2°C -- 92% 4.9 mph S7.9 kmh S -- 29.79 in1008.8 mb 0.00 in0.0 mm 0.00 in0.0 mm 0.49 in12.4 mm
09:41 AM 66.6°F19.2°C -- 92% 6.0 mph SSE9.7 kmh SSE -- 29.79 in1008.8 mb 0.00 in0.0 mm 0.00 in0.0 mm 0.49 in12.4 mm
09:40 AM 66.4°F19.1°C -- 92% 8.1 mph SW13.0 kmh SW -- 29.79 in1008.8 mb 0.00 in0.0 mm 0.00 in0.0 mm 0.49 in12.4 mm
09:39 AM 66.4°F19.1°C -- 92% 6.0 mph SW9.7 kmh SW -- 29.79 in1008.8 mb 0.00 in0.0 mm 0.00 in0.0 mm 0.49 in12.4 mm
09:38 AM 66.4°F19.1°C -- 92% 6.0 mph S9.7 kmh S -- 29.79 in1008.8 mb 0.00 in0.0 mm 0.00 in0.0 mm 0.49 in12.4 mm
09:37 AM 66.4°F19.1°C -- 92% 4.9 mph S7.9 kmh S -- 29.79 in1008.8 mb 0.00 in0.0 mm 0.00 in0.0 mm 0.49 in12.4 mm
09:36 AM 66.2°F19.0°C -- 92% 6.0 mph SSW9.7 kmh SSW -- 29.79 in1008.8 mb 0.00 in0.0 mm 0.00 in0.0 mm 0.49 in12.4 mm
09:35 AM 66.2°F19.0°C -- 92% 8.1 mph S13.0 kmh S -- 29.79 in1008.8 mb 0.00 in0.0 mm 0.00 in0.0 mm 0.49 in12.4 mm
09:34 AM 66.0°F18.9°C -- 92% 8.1 mph S13.0 kmh S -- 29.79 in1008.8 mb 0.00 in0.0 mm 0.00 in0.0 mm 0.49 in12.4 mm
09:33 AM 66.0°F18.9°C -- 92% 8.1 mph S13.0 kmh S -- 29.78 in1008.5 mb 0.00 in0.0 mm 0.00 in0.0 mm 0.49 in12.4 mm
09:32 AM 65.8°F18.8°C -- 92% 6.0 mph S9.7 kmh S -- 29.78 in1008.5 mb 0.00 in0.0 mm 0.00 in0.0 mm 0.49 in12.4 mm
09:31 AM 65.8°F18.8°C -- 93% 6.0 mph S9.7 kmh S -- 29.78 in1008.5 mb 0.00 in0.0 mm 0.00 in0.0 mm 0.49 in12.4 mm
09:30 AM 65.8°F18.8°C -- 93% 6.0 mph SSE9.7 kmh SSE -- 29.78 in1008.5 mb 0.00 in0.0 mm 0.00 in0.0 mm 0.49 in12.4 mm
09:29 AM 65.8°F18.8°C -- 93% 8.9 mph S14.3 kmh S -- 29.78 in1008.5 mb 0.00 in0.0 mm 0.00 in0.0 mm 0.49 in12.4 mm
09:28 AM 65.7°F18.7°C -- 93% 6.0 mph S9.7 kmh S -- 29.78 in1008.5 mb 0.00 in0.0 mm 0.00 in0.0 mm 0.49 in12.4 mm
09:27 AM 65.7°F18.7°C -- 93% 8.9 mph S14.3 kmh S -- 29.78 in1008.5 mb 0.00 in0.0 mm 0.00 in0.0 mm 0.49 in12.4 mm
09:26 AM 65.5°F18.6°C -- 93% 8.9 mph SSE14.3 kmh SSE -- 29.78 in1008.5 mb 0.00 in0.0 mm 0.00 in0.0 mm 0.49 in12.4 mm
09:25 AM 65.5°F18.6°C -- 93% 8.1 mph S13.0 kmh S -- 29.78 in1008.5 mb 0.00 in0.0 mm 0.00 in0.0 mm 0.49 in12.4 mm
09:24 AM 65.5°F18.6°C -- 93% 6.9 mph S11.1 kmh S -- 29.78 in1008.5 mb 0.00 in0.0 mm 0.00 in0.0 mm 0.49 in12.4 mm
09:23 AM 65.5°F18.6°C -- 93% 6.0 mph SSE9.7 kmh SSE -- 29.78 in1008.5 mb 0.00 in0.0 mm 0.00 in0.0 mm 0.49 in12.4 mm
09:22 AM 65.5°F18.6°C -- 94% 4.9 mph SW7.9 kmh SW -- 29.78 in1008.5 mb 0.00 in0.0 mm 0.00 in0.0 mm 0.49 in12.4 mm
09:21 AM 65.3°F18.5°C -- 93% 8.1 mph S13.0 kmh S -- 29.78 in1008.5 mb 0.00 in0.0 mm 0.00 in0.0 mm 0.49 in12.4 mm
09:20 AM 65.1°F18.4°C -- 93% 8.1 mph S13.0 kmh S -- 29.78 in1008.5 mb 0.00 in0.0 mm 0.00 in0.0 mm 0.49 in12.4 mm
09:19 AM 65.1°F18.4°C -- 94% 6.0 mph S9.7 kmh S -- 29.78 in1008.5 mb 0.00 in0.0 mm 0.00 in0.0 mm 0.49 in12.4 mm
09:18 AM 65.1°F18.4°C -- 93% 6.9 mph S11.1 kmh S -- 29.78 in1008.5 mb 0.00 in0.0 mm 0.00 in0.0 mm 0.49 in12.4 mm
09:17 AM 65.1°F18.4°C -- 93% 8.1 mph S13.0 kmh S -- 29.78 in1008.5 mb 0.00 in0.0 mm 0.00 in0.0 mm 0.49 in12.4 mm
09:16 AM 65.1°F18.4°C -- 94% 8.9 mph SSE14.3 kmh SSE -- 29.78 in1008.5 mb 0.00 in0.0 mm 0.00 in0.0 mm 0.49 in12.4 mm
09:15 AM 65.1°F18.4°C -- 94% 6.9 mph S11.1 kmh S -- 29.78 in1008.5 mb 0.00 in0.0 mm 0.00 in0.0 mm 0.49 in12.4 mm
09:14 AM 65.1°F18.4°C -- 94% 8.1 mph S13.0 kmh S -- 29.78 in1008.5 mb 0.00 in0.0 mm 0.00 in0.0 mm 0.49 in12.4 mm
09:13 AM 65.1°F18.4°C -- 94% 8.9 mph S14.3 kmh S -- 29.78 in1008.5 mb 0.00 in0.0 mm 0.00 in0.0 mm 0.49 in12.4 mm
09:12 AM 65.1°F18.4°C -- 94% 6.9 mph S11.1 kmh S -- 29.78 in1008.5 mb 0.00 in0.0 mm 0.00 in0.0 mm 0.49 in12.4 mm
09:11 AM 65.1°F18.4°C -- 94% 6.0 mph SSW9.7 kmh SSW -- 29.78 in1008.5 mb 0.00 in0.0 mm 0.00 in0.0 mm 0.49 in12.4 mm
09:10 AM 65.1°F18.4°C -- 94% 8.9 mph S14.3 kmh S -- 29.78 in1008.5 mb 0.00 in0.0 mm 0.00 in0.0 mm 0.49 in12.4 mm
09:09 AM 65.1°F18.4°C -- 94% 4.9 mph S7.9 kmh S -- 29.78 in1008.5 mb 0.00 in0.0 mm 0.00 in0.0 mm 0.49 in12.4 mm
09:08 AM 65.1°F18.4°C -- 94% 6.9 mph SSE11.1 kmh SSE -- 29.78 in1008.5 mb 0.00 in0.0 mm 0.00 in0.0 mm 0.49 in12.4 mm
09:07 AM 65.1°F18.4°C -- 94% 6.9 mph SSE11.1 kmh SSE -- 29.78 in1008.5 mb 0.00 in0.0 mm 0.00 in0.0 mm 0.49 in12.4 mm
09:06 AM 64.9°F18.3°C -- 94% 8.1 mph SSW13.0 kmh SSW -- 29.78 in1008.5 mb 0.00 in0.0 mm 0.00 in0.0 mm 0.49 in12.4 mm
09:05 AM 64.9°F18.3°C -- 94% 8.1 mph SSE13.0 kmh SSE -- 29.77 in1008.1 mb 0.00 in0.0 mm 0.00 in0.0 mm 0.49 in12.4 mm
09:04 AM 64.9°F18.3°C -- 94% 6.9 mph S11.1 kmh S -- 29.77 in1008.1 mb 0.00 in0.0 mm 0.00 in0.0 mm 0.49 in12.4 mm
09:03 AM 64.9°F18.3°C -- 94% 8.1 mph S13.0 kmh S -- 29.77 in1008.1 mb 0.00 in0.0 mm 0.00 in0.0 mm 0.49 in12.4 mm
09:02 AM 64.8°F18.2°C -- 95% 8.1 mph S13.0 kmh S -- 29.77 in1008.1 mb 0.00 in0.0 mm 0.00 in0.0 mm 0.49 in12.4 mm
09:01 AM 64.8°F18.2°C -- 95% 6.9 mph S11.1 kmh S -- 29.77 in1008.1 mb 0.00 in0.0 mm 0.00 in0.0 mm 0.49 in12.4 mm
09:00 AM 64.8°F18.2°C -- 95% 6.0 mph SSE9.7 kmh SSE -- 29.77 in1008.1 mb 0.00 in0.0 mm 0.00 in0.0 mm 0.49 in12.4 mm
08:59 AM 64.8°F18.2°C -- 95% 4.9 mph S7.9 kmh S -- 29.77 in1008.1 mb 0.00 in0.0 mm 0.00 in0.0 mm 0.49 in12.4 mm
08:58 AM 64.8°F18.2°C -- 95% 6.9 mph SSW11.1 kmh SSW -- 29.77 in1008.1 mb 0.00 in0.0 mm 0.00 in0.0 mm 0.49 in12.4 mm
08:57 AM 64.6°F18.1°C -- 95% 4.9 mph S7.9 kmh S -- 29.77 in1008.1 mb 0.00 in0.0 mm 0.00 in0.0 mm 0.49 in12.4 mm
08:56 AM 64.6°F18.1°C -- 95% 4.0 mph SSW6.4 kmh SSW -- 29.77 in1008.1 mb 0.00 in0.0 mm 0.00 in0.0 mm 0.49 in12.4 mm
08:55 AM 64.6°F18.1°C -- 95% 6.9 mph S11.1 kmh S -- 29.77 in1008.1 mb 0.00 in0.0 mm 0.00 in0.0 mm 0.49 in12.4 mm
08:54 AM 64.6°F18.1°C -- 95% 6.0 mph S9.7 kmh S -- 29.77 in1008.1 mb 0.00 in0.0 mm 0.00 in0.0 mm 0.49 in12.4 mm
08:53 AM 64.6°F18.1°C -- 95% 6.9 mph SSW11.1 kmh SSW -- 29.77 in1008.1 mb 0.00 in0.0 mm 0.00 in0.0 mm 0.49 in12.4 mm
08:52 AM 64.6°F18.1°C -- 95% 4.9 mph S7.9 kmh S -- 29.77 in1008.1 mb 0.00 in0.0 mm 0.00 in0.0 mm 0.49 in12.4 mm
08:51 AM 64.6°F18.1°C -- 95% 4.9 mph S7.9 kmh S -- 29.77 in1008.1 mb 0.00 in0.0 mm 0.00 in0.0 mm 0.49 in12.4 mm
08:50 AM 64.6°F18.1°C -- 95% 4.0 mph S6.4 kmh S -- 29.77 in1008.1 mb 0.00 in0.0 mm 0.00 in0.0 mm 0.49 in12.4 mm
08:49 AM 64.6°F18.1°C -- 95% 4.0 mph SSE6.4 kmh SSE -- 29.77 in1008.1 mb 0.00 in0.0 mm 0.00 in0.0 mm 0.49 in12.4 mm
08:48 AM 64.4°F18.0°C -- 95% 6.9 mph S11.1 kmh S -- 29.77 in1008.1 mb 0.00 in0.0 mm 0.00 in0.0 mm 0.49 in12.4 mm
08:47 AM 64.4°F18.0°C -- 96% 4.0 mph S6.4 kmh S -- 29.77 in1008.1 mb 0.00 in0.0 mm 0.00 in0.0 mm 0.49 in12.4 mm
08:46 AM 64.2°F17.9°C -- 96% 4.0 mph SW6.4 kmh SW -- 29.77 in1008.1 mb 0.00 in0.0 mm 0.00 in0.0 mm 0.49 in12.4 mm
08:45 AM 64.2°F17.9°C -- 96% 4.9 mph S7.9 kmh S -- 29.77 in1008.1 mb 0.00 in0.0 mm 0.00 in0.0 mm 0.49 in12.4 mm
08:44 AM 64.2°F17.9°C -- 96% 6.0 mph SSW9.7 kmh SSW -- 29.77 in1008.1 mb 0.00 in0.0 mm 0.00 in0.0 mm 0.49 in12.4 mm
08:43 AM 64.2°F17.9°C -- 96% 8.9 mph SW14.3 kmh SW -- 29.77 in1008.1 mb 0.00 in0.0 mm 0.00 in0.0 mm 0.49 in12.4 mm
08:42 AM 64.0°F17.8°C -- 96% 6.9 mph SSW11.1 kmh SSW -- 29.77 in1008.1 mb 0.00 in0.0 mm 0.00 in0.0 mm 0.49 in12.4 mm
08:41 AM 64.0°F17.8°C -- 96% 4.0 mph S6.4 kmh S -- 29.77 in1008.1 mb 0.00 in0.0 mm 0.00 in0.0 mm 0.49 in12.4 mm
08:40 AM 64.0°F17.8°C -- 96% 4.9 mph S7.9 kmh S -- 29.77 in1008.1 mb 0.00 in0.0 mm 0.00 in0.0 mm 0.49 in12.4 mm
08:39 AM 64.0°F17.8°C -- 96% 6.0 mph S9.7 kmh S -- 29.77 in1008.1 mb 0.00 in0.0 mm 0.00 in0.0 mm 0.49 in12.4 mm
08:38 AM 64.0°F17.8°C -- 96% 6.0 mph SW9.7 kmh SW -- 29.77 in1008.1 mb 0.00 in0.0 mm 0.00 in0.0 mm 0.49 in12.4 mm
08:37 AM 63.9°F17.7°C -- 97% 6.0 mph S9.7 kmh S -- 29.77 in1008.1 mb 0.00 in0.0 mm 0.00 in0.0 mm 0.49 in12.4 mm
08:36 AM 63.9°F17.7°C -- 96% 8.1 mph S13.0 kmh S -- 29.76 in1007.8 mb 0.00 in0.0 mm 0.00 in0.0 mm 0.49 in12.4 mm
08:35 AM 63.9°F17.7°C -- 97% 8.1 mph SSW13.0 kmh SSW -- 29.76 in1007.8 mb 0.00 in0.0 mm 0.00 in0.0 mm 0.49 in12.4 mm
08:34 AM 63.9°F17.7°C -- 97% 6.0 mph SSW9.7 kmh SSW -- 29.76 in1007.8 mb 0.00 in0.0 mm 0.00 in0.0 mm 0.49 in12.4 mm
08:33 AM 63.7°F17.6°C -- 97% 6.9 mph S11.1 kmh S -- 29.76 in1007.8 mb 0.00 in0.0 mm 0.00 in0.0 mm 0.49 in12.4 mm
08:32 AM 63.7°F17.6°C -- 97% 6.0 mph S9.7 kmh S -- 29.77 in1008.1 mb 0.00 in0.0 mm 0.00 in0.0 mm 0.49 in12.4 mm
08:31 AM 63.5°F17.5°C -- 97% 6.0 mph S9.7 kmh S -- 29.77 in1008.1 mb 0.00 in0.0 mm 0.00 in0.0 mm 0.49 in12.4 mm
08:30 AM 63.3°F17.4°C -- 97% 4.9 mph SSW7.9 kmh SSW -- 29.77 in1008.1 mb 0.00 in0.0 mm 0.00 in0.0 mm 0.49 in12.4 mm
08:29 AM 63.3°F17.4°C -- 96% 8.9 mph SSW14.3 kmh SSW -- 29.76 in1007.8 mb 0.00 in0.0 mm 0.00 in0.0 mm 0.49 in12.4 mm
08:28 AM 63.3°F17.4°C -- 97% 4.0 mph S6.4 kmh S -- 29.76 in1007.8 mb 0.00 in0.0 mm 0.00 in0.0 mm 0.49 in12.4 mm
08:27 AM 63.3°F17.4°C -- 97% 2.9 mph S4.7 kmh S -- 29.76 in1007.8 mb 0.00 in0.0 mm 0.00 in0.0 mm 0.49 in12.4 mm
08:26 AM 63.1°F17.3°C -- 97% 4.9 mph S7.9 kmh S -- 29.75 in1007.5 mb 0.00 in0.0 mm 0.00 in0.0 mm 0.49 in12.4 mm
08:25 AM 63.1°F17.3°C -- 96% 4.0 mph S6.4 kmh S -- 29.75 in1007.5 mb 0.00 in0.0 mm 0.00 in0.0 mm 0.49 in12.4 mm
08:24 AM 63.1°F17.3°C -- 96% 2.9 mph SSW4.7 kmh SSW -- 29.75 in1007.5 mb 0.00 in0.0 mm 0.00 in0.0 mm 0.49 in12.4 mm
08:23 AM 63.1°F17.3°C -- 96% 4.0 mph SSE6.4 kmh SSE -- 29.75 in1007.5 mb 0.00 in0.0 mm 0.00 in0.0 mm 0.49 in12.4 mm
08:22 AM 63.1°F17.3°C -- 96% 2.9 mph SSE4.7 kmh SSE -- 29.75 in1007.5 mb 0.00 in0.0 mm 0.00 in0.0 mm 0.49 in12.4 mm
08:21 AM 63.0°F17.2°C -- 96% 4.0 mph SE6.4 kmh SE -- 29.75 in1007.5 mb 0.00 in0.0 mm 0.00 in0.0 mm 0.49 in12.4 mm
08:20 AM 63.1°F17.3°C -- 96% 2.9 mph S4.7 kmh S -- 29.75 in1007.5 mb 0.00 in0.0 mm 0.00 in0.0 mm 0.49 in12.4 mm
08:19 AM 63.0°F17.2°C -- 96% 4.0 mph SSE6.4 kmh SSE -- 29.75 in1007.5 mb 0.00 in0.0 mm 0.00 in0.0 mm 0.49 in12.4 mm
08:18 AM 63.1°F17.3°C -- 96% 4.0 mph SSE6.4 kmh SSE -- 29.75 in1007.5 mb 0.00 in0.0 mm 0.00 in0.0 mm 0.49 in12.4 mm
08:17 AM 63.1°F17.3°C -- 96% 6.0 mph S9.7 kmh S -- 29.76 in1007.8 mb 0.00 in0.0 mm 0.00 in0.0 mm 0.49 in12.4 mm
08:16 AM 63.1°F17.3°C -- 96% 4.0 mph S6.4 kmh S -- 29.76 in1007.8 mb 0.00 in0.0 mm 0.00 in0.0 mm 0.49 in12.4 mm
08:15 AM 63.1°F17.3°C -- 96% 4.0 mph SE6.4 kmh SE -- 29.75 in1007.5 mb 0.00 in0.0 mm 0.00 in0.0 mm 0.49 in12.4 mm
08:14 AM 63.1°F17.3°C -- 96% 4.9 mph S7.9 kmh S -- 29.75 in1007.5 mb 0.00 in0.0 mm 0.00 in0.0 mm 0.49 in12.4 mm
08:13 AM 63.1°F17.3°C -- 96% 6.9 mph S11.1 kmh S -- 29.75 in1007.5 mb 0.00 in0.0 mm 0.00 in0.0 mm 0.49 in12.4 mm
08:12 AM 63.1°F17.3°C -- 96% 4.9 mph SSE7.9 kmh SSE -- 29.76 in1007.8 mb 0.00 in0.0 mm 0.00 in0.0 mm 0.49 in12.4 mm
08:11 AM 63.1°F17.3°C -- 96% 4.9 mph SSW7.9 kmh SSW -- 29.76 in1007.8 mb 0.00 in0.0 mm 0.00 in0.0 mm 0.49 in12.4 mm
08:10 AM 63.1°F17.3°C -- 96% 6.0 mph SSE9.7 kmh SSE -- 29.76 in1007.8 mb 0.00 in0.0 mm 0.00 in0.0 mm 0.49 in12.4 mm
08:09 AM 63.1°F17.3°C -- 97% 4.9 mph SSE7.9 kmh SSE -- 29.76 in1007.8 mb 0.00 in0.0 mm 0.00 in0.0 mm 0.49 in12.4 mm
08:08 AM 63.0°F17.2°C -- 97% 6.9 mph S11.1 kmh S -- 29.76 in1007.8 mb 0.00 in0.0 mm 0.00 in0.0 mm 0.49 in12.4 mm
08:07 AM 63.0°F17.2°C -- 97% 4.9 mph S7.9 kmh S -- 29.76 in1007.8 mb 0.00 in0.0 mm 0.00 in0.0 mm 0.49 in12.4 mm
08:06 AM 63.0°F17.2°C -- 97% 4.9 mph S7.9 kmh S -- 29.76 in1007.8 mb 0.00 in0.0 mm 0.00 in0.0 mm 0.49 in12.4 mm
08:05 AM 62.8°F17.1°C -- 97% 6.0 mph S9.7 kmh S -- 29.76 in1007.8 mb 0.00 in0.0 mm 0.00 in0.0 mm 0.49 in12.4 mm
08:04 AM 62.8°F17.1°C -- 97% 4.0 mph S6.4 kmh S -- 29.76 in1007.8 mb 0.00 in0.0 mm 0.00 in0.0 mm 0.49 in12.4 mm
08:03 AM 62.8°F17.1°C -- 97% 4.0 mph S6.4 kmh S -- 29.76 in1007.8 mb 0.00 in0.0 mm 0.00 in0.0 mm 0.49 in12.4 mm
08:02 AM 62.6°F17.0°C -- 97% 6.0 mph S9.7 kmh S -- 29.76 in1007.8 mb 0.00 in0.0 mm 0.00 in0.0 mm 0.49 in12.4 mm
08:01 AM 62.4°F16.9°C -- 97% 8.1 mph S13.0 kmh S -- 29.76 in1007.8 mb 0.00 in0.0 mm 0.00 in0.0 mm 0.49 in12.4 mm
08:00 AM 62.4°F16.9°C -- 96% 8.1 mph S13.0 kmh S -- 29.76 in1007.8 mb 0.00 in0.0 mm 0.00 in0.0 mm 0.49 in12.4 mm
07:59 AM 62.4°F16.9°C -- 96% 8.1 mph S13.0 kmh S -- 29.76 in1007.8 mb 0.00 in0.0 mm 0.00 in0.0 mm 0.49 in12.4 mm
07:58 AM 62.2°F16.8°C -- 96% 6.9 mph SSE11.1 kmh SSE -- 29.76 in1007.8 mb 0.00 in0.0 mm 0.00 in0.0 mm 0.49 in12.4 mm
07:57 AM 62.2°F16.8°C -- 96% 11.0 mph SSE17.7 kmh SSE -- 29.76 in1007.8 mb 0.00 in0.0 mm 0.00 in0.0 mm 0.49 in12.4 mm
07:56 AM 62.2°F16.8°C -- 96% 8.9 mph SSE14.3 kmh SSE -- 29.76 in1007.8 mb 0.00 in0.0 mm 0.00 in0.0 mm 0.49 in12.4 mm
07:55 AM 62.2°F16.8°C -- 96% 8.1 mph S13.0 kmh S -- 29.76 in1007.8 mb 0.00 in0.0 mm 0.00 in0.0 mm 0.49 in12.4 mm
07:54 AM 62.2°F16.8°C -- 96% 6.9 mph S11.1 kmh S -- 29.76 in1007.8 mb 0.00 in0.0 mm 0.00 in0.0 mm 0.49 in12.4 mm
07:53 AM 62.2°F16.8°C -- 96% 8.9 mph S14.3 kmh S -- 29.76 in1007.8 mb 0.00 in0.0 mm 0.00 in0.0 mm 0.49 in12.4 mm
07:52 AM 62.2°F16.8°C -- 96% 8.1 mph S13.0 kmh S -- 29.76 in1007.8 mb 0.00 in0.0 mm 0.00 in0.0 mm 0.49 in12.4 mm
07:51 AM 62.1°F16.7°C -- 96% 6.9 mph SSE11.1 kmh SSE -- 29.76 in1007.8 mb 0.00 in0.0 mm 0.00 in0.0 mm 0.49 in12.4 mm
07:50 AM 62.1°F16.7°C -- 96% 8.1 mph S13.0 kmh S -- 29.76 in1007.8 mb 0.00 in0.0 mm 0.00 in0.0 mm 0.49 in12.4 mm
07:49 AM 62.1°F16.7°C -- 96% 6.0 mph SSE9.7 kmh SSE -- 29.76 in1007.8 mb 0.00 in0.0 mm 0.00 in0.0 mm 0.49 in12.4 mm
07:48 AM 62.1°F16.7°C -- 96% 6.9 mph SSE11.1 kmh SSE -- 29.76 in1007.8 mb 0.00 in0.0 mm 0.00 in0.0 mm 0.49 in12.4 mm
07:47 AM 62.1°F16.7°C -- 96% 8.1 mph SSE13.0 kmh SSE -- 29.76 in1007.8 mb 0.00 in0.0 mm 0.00 in0.0 mm 0.49 in12.4 mm
07:46 AM 62.1°F16.7°C -- 95% 8.1 mph SSE13.0 kmh SSE -- 29.76 in1007.8 mb 0.00 in0.0 mm 0.00 in0.0 mm 0.49 in12.4 mm
07:45 AM 62.1°F16.7°C -- 95% 6.9 mph SSE11.1 kmh SSE -- 29.76 in1007.8 mb 0.00 in0.0 mm 0.00 in0.0 mm 0.49 in12.4 mm
07:44 AM 62.1°F16.7°C -- 95% 8.1 mph SSE13.0 kmh SSE -- 29.76 in1007.8 mb 0.00 in0.0 mm 0.00 in0.0 mm 0.49 in12.4 mm
07:43 AM 62.1°F16.7°C -- 95% 6.0 mph SSE9.7 kmh SSE -- 29.76 in1007.8 mb 0.00 in0.0 mm 0.00 in0.0 mm 0.49 in12.4 mm
07:42 AM 62.2°F16.8°C -- 95% 8.1 mph SE13.0 kmh SE -- 29.76 in1007.8 mb 0.00 in0.0 mm 0.00 in0.0 mm 0.49 in12.4 mm
07:41 AM 62.2°F16.8°C -- 95% 6.0 mph SSE9.7 kmh SSE -- 29.76 in1007.8 mb 0.00 in0.0 mm 0.00 in0.0 mm 0.49 in12.4 mm
07:40 AM 62.2°F16.8°C -- 96% 6.0 mph SSE9.7 kmh SSE -- 29.75 in1007.5 mb 0.00 in0.0 mm 0.00 in0.0 mm 0.49 in12.4 mm
07:39 AM 62.2°F16.8°C -- 96% 6.0 mph SSE9.7 kmh SSE -- 29.75 in1007.5 mb 0.00 in0.0 mm 0.00 in0.0 mm 0.49 in12.4 mm
07:38 AM 62.2°F16.8°C -- 96% 4.9 mph SE7.9 kmh SE -- 29.75 in1007.5 mb 0.00 in0.0 mm 0.00 in0.0 mm 0.49 in12.4 mm
07:37 AM 62.2°F16.8°C -- 96% 6.0 mph S9.7 kmh S -- 29.75 in1007.5 mb 0.00 in0.0 mm 0.00 in0.0 mm 0.49 in12.4 mm
07:36 AM 62.1°F16.7°C -- 96% 4.9 mph SSE7.9 kmh SSE -- 29.75 in1007.5 mb 0.00 in0.0 mm 0.00 in0.0 mm 0.49 in12.4 mm
07:35 AM 62.1°F16.7°C -- 96% 4.9 mph SSE7.9 kmh SSE -- 29.75 in1007.5 mb 0.00 in0.0 mm 0.00 in0.0 mm 0.49 in12.4 mm
07:34 AM 62.1°F16.7°C -- 96% 6.0 mph SSE9.7 kmh SSE -- 29.75 in1007.5 mb 0.00 in0.0 mm 0.00 in0.0 mm 0.49 in12.4 mm
07:33 AM 62.1°F16.7°C -- 96% 6.0 mph SSE9.7 kmh SSE -- 29.75 in1007.5 mb 0.00 in0.0 mm 0.00 in0.0 mm 0.49 in12.4 mm
07:32 AM 62.1°F16.7°C -- 96% 8.9 mph SE14.3 kmh SE -- 29.75 in1007.5 mb 0.00 in0.0 mm 0.00 in0.0 mm 0.49 in12.4 mm
07:31 AM 62.1°F16.7°C -- 95% 6.9 mph SSE11.1 kmh SSE -- 29.75 in1007.5 mb 0.00 in0.0 mm 0.00 in0.0 mm 0.49 in12.4 mm
07:30 AM 62.1°F16.7°C -- 95% 6.0 mph S9.7 kmh S -- 29.75 in1007.5 mb 0.00 in0.0 mm 0.00 in0.0 mm 0.49 in12.4 mm
07:29 AM 62.1°F16.7°C -- 95% 6.9 mph S11.1 kmh S -- 29.75 in1007.5 mb 0.00 in0.0 mm 0.00 in0.0 mm 0.49 in12.4 mm
07:28 AM 62.1°F16.7°C -- 95% 8.1 mph SSE13.0 kmh SSE -- 29.75 in1007.5 mb 0.00 in0.0 mm 0.00 in0.0 mm 0.49 in12.4 mm
07:27 AM 62.1°F16.7°C -- 95% 6.9 mph S11.1 kmh S -- 29.75 in1007.5 mb 0.00 in0.0 mm 0.00 in0.0 mm 0.49 in12.4 mm
07:26 AM 62.1°F16.7°C -- 96% 6.0 mph SSE9.7 kmh SSE -- 29.75 in1007.5 mb 0.00 in0.0 mm 0.00 in0.0 mm 0.49 in12.4 mm
07:25 AM 62.1°F16.7°C -- 96% 8.1 mph SSE13.0 kmh SSE -- 29.75 in1007.5 mb 0.00 in0.0 mm 0.00 in0.0 mm 0.49 in12.4 mm
07:24 AM 62.1°F16.7°C -- 96% 8.1 mph SE13.0 kmh SE -- 29.75 in1007.5 mb 0.00 in0.0 mm 0.00 in0.0 mm 0.49 in12.4 mm
07:23 AM 62.1°F16.7°C -- 95% 10.1 mph SSE16.3 kmh SSE -- 29.75 in1007.5 mb 0.00 in0.0 mm 0.00 in0.0 mm 0.49 in12.4 mm
07:22 AM 61.9°F16.6°C -- 95% 8.9 mph SE14.3 kmh SE -- 29.75 in1007.5 mb 0.00 in0.0 mm 0.00 in0.0 mm 0.49 in12.4 mm
07:21 AM 61.9°F16.6°C -- 95% 6.9 mph SSE11.1 kmh SSE -- 29.75 in1007.5 mb 0.00 in0.0 mm 0.00 in0.0 mm 0.49 in12.4 mm
07:20 AM 61.9°F16.6°C -- 95% 6.9 mph SSE11.1 kmh SSE -- 29.75 in1007.5 mb 0.00 in0.0 mm 0.00 in0.0 mm 0.49 in12.4 mm
07:19 AM 61.9°F16.6°C -- 95% 6.9 mph SSE11.1 kmh SSE -- 29.75 in1007.5 mb 0.00 in0.0 mm 0.00 in0.0 mm 0.49 in12.4 mm
07:18 AM 62.1°F16.7°C -- 95% 11.0 mph SE17.7 kmh SE -- 29.75 in1007.5 mb 0.00 in0.0 mm 0.00 in0.0 mm 0.49 in12.4 mm
07:17 AM 62.1°F16.7°C -- 96% 11.0 mph SSE17.7 kmh SSE -- 29.75 in1007.5 mb 0.00 in0.0 mm 0.00 in0.0 mm 0.49 in12.4 mm
07:16 AM 61.9°F16.6°C -- 96% 8.9 mph SE14.3 kmh SE -- 29.75 in1007.5 mb 0.00 in0.0 mm 0.00 in0.0 mm 0.49 in12.4 mm
07:15 AM 61.9°F16.6°C -- 95% 12.1 mph SE19.5 kmh SE -- 29.75 in1007.5 mb 0.00 in0.0 mm 0.00 in0.0 mm 0.49 in12.4 mm
07:14 AM 61.9°F16.6°C -- 95% 6.9 mph SSE11.1 kmh SSE -- 29.75 in1007.5 mb 0.00 in0.0 mm 0.00 in0.0 mm 0.49 in12.4 mm
07:13 AM 61.7°F16.5°C -- 95% 8.1 mph SSE13.0 kmh SSE -- 29.75 in1007.5 mb 0.00 in0.0 mm 0.00 in0.0 mm 0.49 in12.4 mm
07:12 AM 61.5°F16.4°C -- 95% 8.1 mph SE13.0 kmh SE -- 29.75 in1007.5 mb 0.00 in0.0 mm 0.00 in0.0 mm 0.49 in12.4 mm
07:11 AM 61.5°F16.4°C -- 95% 8.1 mph SE13.0 kmh SE -- 29.75 in1007.5 mb 0.00 in0.0 mm 0.00 in0.0 mm 0.49 in12.4 mm
07:10 AM 61.5°F16.4°C -- 95% 6.9 mph SE11.1 kmh SE -- 29.75 in1007.5 mb 0.00 in0.0 mm 0.00 in0.0 mm 0.49 in12.4 mm
07:09 AM 61.5°F16.4°C -- 95% 6.0 mph SE9.7 kmh SE -- 29.75 in1007.5 mb 0.00 in0.0 mm 0.00 in0.0 mm 0.49 in12.4 mm
07:08 AM 61.5°F16.4°C -- 95% 4.9 mph SE7.9 kmh SE -- 29.75 in1007.5 mb 0.00 in0.0 mm 0.00 in0.0 mm 0.49 in12.4 mm
07:07 AM 61.5°F16.4°C -- 95% 6.9 mph SE11.1 kmh SE -- 29.75 in1007.5 mb 0.00 in0.0 mm 0.00 in0.0 mm 0.49 in12.4 mm
07:06 AM 61.5°F16.4°C -- 94% 6.9 mph SE11.1 kmh SE -- 29.75 in1007.5 mb 0.00 in0.0 mm 0.00 in0.0 mm 0.49 in12.4 mm
07:05 AM 61.5°F16.4°C -- 94% 8.9 mph SSE14.3 kmh SSE -- 29.75 in1007.5 mb 0.00 in0.0 mm 0.00 in0.0 mm 0.49 in12.4 mm
07:04 AM 61.5°F16.4°C -- 94% 8.9 mph SE14.3 kmh SE -- 29.76 in1007.8 mb 0.00 in0.0 mm 0.00 in0.0 mm 0.49 in12.4 mm
07:03 AM 61.5°F16.4°C -- 94% 6.9 mph SSE11.1 kmh SSE -- 29.76 in1007.8 mb 0.00 in0.0 mm 0.00 in0.0 mm 0.49 in12.4 mm
07:02 AM 61.5°F16.4°C -- 94% 6.9 mph S11.1 kmh S -- 29.76 in1007.8 mb 0.00 in0.0 mm 0.00 in0.0 mm 0.49 in12.4 mm
07:01 AM 61.7°F16.5°C -- 94% 8.1 mph S13.0 kmh S -- 29.76 in1007.8 mb 0.00 in0.0 mm 0.00 in0.0 mm 0.49 in12.4 mm
07:00 AM 61.7°F16.5°C -- 94% 10.1 mph SSE16.3 kmh SSE -- 29.76 in1007.8 mb 0.00 in0.0 mm 0.00 in0.0 mm 0.49 in12.4 mm
06:59 AM 61.5°F16.4°C -- 94% 6.0 mph SSE9.7 kmh SSE -- 29.75 in1007.5 mb 0.00 in0.0 mm 0.00 in0.0 mm 0.49 in12.4 mm
06:58 AM 61.5°F16.4°C -- 95% 8.9 mph SSE14.3 kmh SSE -- 29.75 in1007.5 mb 0.00 in0.0 mm 0.00 in0.0 mm 0.49 in12.4 mm
06:57 AM 61.5°F16.4°C -- 94% 8.9 mph SSE14.3 kmh SSE -- 29.75 in1007.5 mb 0.00 in0.0 mm 0.00 in0.0 mm 0.49 in12.4 mm
06:56 AM 61.5°F16.4°C -- 94% 12.1 mph ESE19.5 kmh ESE -- 29.75 in1007.5 mb 0.00 in0.0 mm 0.00 in0.0 mm 0.49 in12.4 mm
06:55 AM 61.5°F16.4°C -- 94% 8.9 mph SE14.3 kmh SE -- 29.75 in1007.5 mb 0.00 in0.0 mm 0.00 in0.0 mm 0.49 in12.4 mm
06:54 AM 61.3°F16.3°C -- 94% 12.1 mph SSE19.5 kmh SSE -- 29.76 in1007.8 mb 0.00 in0.0 mm 0.00 in0.0 mm 0.49 in12.4 mm
06:53 AM 61.3°F16.3°C -- 94% 8.1 mph SSE13.0 kmh SSE -- 29.76 in1007.8 mb 0.00 in0.0 mm 0.00 in0.0 mm 0.49 in12.4 mm
06:52 AM 61.3°F16.3°C -- 94% 10.1 mph S16.3 kmh S -- 29.76 in1007.8 mb 0.00 in0.0 mm 0.00 in0.0 mm 0.49 in12.4 mm
06:51 AM 61.3°F16.3°C -- 93% 8.1 mph SSE13.0 kmh SSE -- 29.76 in1007.8 mb 0.00 in0.0 mm 0.00 in0.0 mm 0.49 in12.4 mm
06:50 AM 61.3°F16.3°C -- 93% 6.0 mph SE9.7 kmh SE -- 29.75 in1007.5 mb 0.00 in0.0 mm 0.00 in0.0 mm 0.49 in12.4 mm
06:49 AM 61.3°F16.3°C -- 93% 4.9 mph SE7.9 kmh SE -- 29.76 in1007.8 mb 0.00 in0.0 mm 0.00 in0.0 mm 0.49 in12.4 mm
06:48 AM 61.3°F16.3°C -- 93% 6.0 mph SE9.7 kmh SE -- 29.76 in1007.8 mb 0.00 in0.0 mm 0.00 in0.0 mm 0.49 in12.4 mm
06:47 AM 61.3°F16.3°C -- 93% 8.1 mph SSE13.0 kmh SSE -- 29.76 in1007.8 mb 0.00 in0.0 mm 0.00 in0.0 mm 0.49 in12.4 mm
06:46 AM 61.3°F16.3°C -- 93% 11.0 mph SSE17.7 kmh SSE -- 29.76 in1007.8 mb 0.00 in0.0 mm 0.00 in0.0 mm 0.49 in12.4 mm
06:45 AM 61.3°F16.3°C -- 93% 10.1 mph SSE16.3 kmh SSE -- 29.76 in1007.8 mb 0.00 in0.0 mm 0.00 in0.0 mm 0.49 in12.4 mm
06:44 AM 61.3°F16.3°C -- 93% 8.9 mph SSE14.3 kmh SSE -- 29.76 in1007.8 mb 0.00 in0.0 mm 0.00 in0.0 mm 0.49 in12.4 mm
06:43 AM 61.3°F16.3°C -- 93% 8.1 mph SSE13.0 kmh SSE -- 29.76 in1007.8 mb 0.00 in0.0 mm 0.00 in0.0 mm 0.49 in12.4 mm
06:42 AM 61.2°F16.2°C -- 93% 6.9 mph SSE11.1 kmh SSE -- 29.76 in1007.8 mb 0.00 in0.0 mm 0.00 in0.0 mm 0.49 in12.4 mm
06:41 AM 61.2°F16.2°C -- 93% 8.1 mph SSE13.0 kmh SSE -- 29.76 in1007.8 mb 0.00 in0.0 mm 0.00 in0.0 mm 0.49 in12.4 mm
06:40 AM 61.3°F16.3°C -- 93% 6.0 mph SSE9.7 kmh SSE -- 29.76 in1007.8 mb 0.00 in0.0 mm 0.00 in0.0 mm 0.49 in12.4 mm
06:39 AM 61.3°F16.3°C -- 93% 6.9 mph SSE11.1 kmh SSE -- 29.76 in1007.8 mb 0.00 in0.0 mm 0.00 in0.0 mm 0.49 in12.4 mm
06:38 AM 61.3°F16.3°C -- 92% 10.1 mph SSE16.3 kmh SSE -- 29.76 in1007.8 mb 0.00 in0.0 mm 0.00 in0.0 mm 0.49 in12.4 mm
06:37 AM 61.3°F16.3°C -- 92% 6.9 mph SSE11.1 kmh SSE -- 29.76 in1007.8 mb 0.00 in0.0 mm 0.00 in0.0 mm 0.49 in12.4 mm
06:36 AM 61.3°F16.3°C -- 92% 6.0 mph S9.7 kmh S -- 29.76 in1007.8 mb 0.00 in0.0 mm 0.00 in0.0 mm 0.48 in12.2 mm
06:35 AM 61.3°F16.3°C -- 92% 8.9 mph SSE14.3 kmh SSE -- 29.77 in1008.1 mb 0.00 in0.0 mm 0.00 in0.0 mm 0.48 in12.2 mm
06:34 AM 61.3°F16.3°C -- 92% 13.0 mph SSE20.9 kmh SSE -- 29.77 in1008.1 mb 0.00 in0.0 mm 0.00 in0.0 mm 0.48 in12.2 mm
06:33 AM 61.3°F16.3°C -- 92% 12.1 mph SE19.5 kmh SE -- 29.76 in1007.8 mb 0.00 in0.0 mm 0.00 in0.0 mm 0.48 in12.2 mm
06:32 AM 61.3°F16.3°C -- 92% 13.0 mph SE20.9 kmh SE -- 29.76 in1007.8 mb 0.00 in0.0 mm 0.00 in0.0 mm 0.48 in12.2 mm
06:31 AM 61.3°F16.3°C -- 92% 6.0 mph SE9.7 kmh SE -- 29.76 in1007.8 mb 0.00 in0.0 mm 0.00 in0.0 mm 0.48 in12.2 mm
06:30 AM 61.3°F16.3°C -- 92% 11.0 mph SSE17.7 kmh SSE -- 29.76 in1007.8 mb 0.00 in0.0 mm 0.00 in0.0 mm 0.48 in12.2 mm
06:29 AM 61.3°F16.3°C -- 92% 6.9 mph SE11.1 kmh SE -- 29.76 in1007.8 mb 0.00 in0.0 mm 0.00 in0.0 mm 0.48 in12.2 mm
06:28 AM 61.3°F16.3°C -- 92% 8.1 mph SE13.0 kmh SE -- 29.76 in1007.8 mb 0.00 in0.0 mm 0.00 in0.0 mm 0.48 in12.2 mm
06:27 AM 61.3°F16.3°C -- 92% 8.9 mph SE14.3 kmh SE -- 29.76 in1007.8 mb 0.00 in0.0 mm 0.00 in0.0 mm 0.48 in12.2 mm
06:26 AM 61.3°F16.3°C -- 92% 10.1 mph SE16.3 kmh SE -- 29.76 in1007.8 mb 0.00 in0.0 mm 0.00 in0.0 mm 0.48 in12.2 mm
06:25 AM 61.3°F16.3°C -- 92% 6.9 mph SE11.1 kmh SE -- 29.76 in1007.8 mb 0.00 in0.0 mm 0.00 in0.0 mm 0.48 in12.2 mm
06:24 AM 61.3°F16.3°C -- 92% 8.9 mph SSE14.3 kmh SSE -- 29.76 in1007.8 mb 0.00 in0.0 mm 0.00 in0.0 mm 0.48 in12.2 mm
06:23 AM 61.3°F16.3°C -- 92% 6.0 mph SE9.7 kmh SE -- 29.76 in1007.8 mb 0.00 in0.0 mm 0.00 in0.0 mm 0.48 in12.2 mm
06:22 AM 61.5°F16.4°C -- 92% 6.0 mph SE9.7 kmh SE -- 29.76 in1007.8 mb 0.00 in0.0 mm 0.00 in0.0 mm 0.48 in12.2 mm
06:21 AM 61.5°F16.4°C -- 92% 10.1 mph SE16.3 kmh SE -- 29.76 in1007.8 mb 0.00 in0.0 mm 0.00 in0.0 mm 0.48 in12.2 mm
06:20 AM 61.5°F16.4°C -- 92% 6.9 mph ESE11.1 kmh ESE -- 29.76 in1007.8 mb 0.00 in0.0 mm 0.00 in0.0 mm 0.48 in12.2 mm
06:19 AM 61.5°F16.4°C -- 92% 10.1 mph ESE16.3 kmh ESE -- 29.76 in1007.8 mb 0.00 in0.0 mm 0.00 in0.0 mm 0.48 in12.2 mm
06:18 AM 61.5°F16.4°C -- 93% 8.1 mph SE13.0 kmh SE -- 29.76 in1007.8 mb 0.00 in0.0 mm 0.00 in0.0 mm 0.48 in12.2 mm
06:17 AM 61.7°F16.5°C -- 93% 8.9 mph SE14.3 kmh SE -- 29.76 in1007.8 mb 0.00 in0.0 mm 0.00 in0.0 mm 0.48 in12.2 mm
06:16 AM 61.9°F16.6°C -- 93% 10.1 mph SSE16.3 kmh SSE -- 29.76 in1007.8 mb 0.00 in0.0 mm 0.00 in0.0 mm 0.48 in12.2 mm
06:15 AM 61.9°F16.6°C -- 93% 8.1 mph SE13.0 kmh SE -- 29.76 in1007.8 mb 0.00 in0.0 mm 0.00 in0.0 mm 0.48 in12.2 mm
06:14 AM 61.9°F16.6°C -- 93% 10.1 mph SSE16.3 kmh SSE -- 29.76 in1007.8 mb 0.00 in0.0 mm 0.00 in0.0 mm 0.48 in12.2 mm
06:13 AM 62.1°F16.7°C -- 93% 10.1 mph SE16.3 kmh SE -- 29.76 in1007.8 mb 0.00 in0.0 mm 0.00 in0.0 mm 0.48 in12.2 mm
06:12 AM 62.1°F16.7°C -- 93% 8.1 mph SE13.0 kmh SE -- 29.76 in1007.8 mb 0.00 in0.0 mm 0.00 in0.0 mm 0.48 in12.2 mm
06:11 AM 62.1°F16.7°C -- 93% 8.9 mph SSE14.3 kmh SSE -- 29.76 in1007.8 mb 0.00 in0.0 mm 0.00 in0.0 mm 0.48 in12.2 mm
06:10 AM 62.1°F16.7°C -- 93% 12.1 mph SSE19.5 kmh SSE -- 29.76 in1007.8 mb 0.00 in0.0 mm 0.00 in0.0 mm 0.48 in12.2 mm
06:09 AM 62.2°F16.8°C -- 93% 6.9 mph SE11.1 kmh SE -- 29.76 in1007.8 mb 0.00 in0.0 mm 0.00 in0.0 mm 0.48 in12.2 mm
06:08 AM 62.2°F16.8°C -- 93% 11.0 mph SSE17.7 kmh SSE -- 29.76 in1007.8 mb 0.00 in0.0 mm 0.00 in0.0 mm 0.48 in12.2 mm
06:07 AM 62.4°F16.9°C -- 93% 8.9 mph SSE14.3 kmh SSE -- 29.76 in1007.8 mb 0.00 in0.0 mm 0.00 in0.0 mm 0.48 in12.2 mm
06:06 AM 62.4°F16.9°C -- 93% 14.1 mph SE22.7 kmh SE -- 29.76 in1007.8 mb 0.00 in0.0 mm 0.00 in0.0 mm 0.48 in12.2 mm
06:05 AM 62.4°F16.9°C -- 93% 13.0 mph SSE20.9 kmh SSE -- 29.76 in1007.8 mb 0.00 in0.0 mm 0.00 in0.0 mm 0.48 in12.2 mm
06:04 AM 62.4°F16.9°C -- 93% 10.1 mph S16.3 kmh S -- 29.76 in1007.8 mb 0.00 in0.0 mm 0.00 in0.0 mm 0.48 in12.2 mm
06:03 AM 62.4°F16.9°C -- 93% 13.0 mph SSE20.9 kmh SSE -- 29.76 in1007.8 mb 0.00 in0.0 mm 0.00 in0.0 mm 0.48 in12.2 mm
06:02 AM 62.6°F17.0°C -- 93% 12.1 mph SE19.5 kmh SE -- 29.76 in1007.8 mb 0.00 in0.0 mm 0.00 in0.0 mm 0.48 in12.2 mm
06:01 AM 62.6°F17.0°C -- 93% 11.0 mph SSE17.7 kmh SSE -- 29.76 in1007.8 mb 0.00 in0.0 mm 0.00 in0.0 mm 0.48 in12.2 mm
06:00 AM 62.8°F17.1°C -- 93% 10.1 mph SSE16.3 kmh SSE -- 29.76 in1007.8 mb 0.00 in0.0 mm 0.00 in0.0 mm 0.48 in12.2 mm
05:59 AM 62.8°F17.1°C -- 93% 12.1 mph S19.5 kmh S -- 29.76 in1007.8 mb 0.00 in0.0 mm 0.00 in0.0 mm 0.48 in12.2 mm
05:58 AM 62.8°F17.1°C -- 93% 8.9 mph SSE14.3 kmh SSE -- 29.76 in1007.8 mb 0.00 in0.0 mm 0.00 in0.0 mm 0.48 in12.2 mm
05:57 AM 62.8°F17.1°C -- 93% 11.0 mph S17.7 kmh S -- 29.75 in1007.5 mb 0.00 in0.0 mm 0.00 in0.0 mm 0.48 in12.2 mm
05:56 AM 62.8°F17.1°C -- 93% 12.1 mph SSE19.5 kmh SSE -- 29.75 in1007.5 mb 0.00 in0.0 mm 0.00 in0.0 mm 0.48 in12.2 mm
05:55 AM 62.8°F17.1°C -- 94% 12.1 mph S19.5 kmh S -- 29.75 in1007.5 mb 0.00 in0.0 mm 0.00 in0.0 mm 0.48 in12.2 mm
05:54 AM 63.0°F17.2°C -- 94% 14.1 mph SE22.7 kmh SE -- 29.75 in1007.5 mb 0.00 in0.0 mm 0.00 in0.0 mm 0.48 in12.2 mm
05:53 AM 62.8°F17.1°C -- 94% 12.1 mph SSE19.5 kmh SSE -- 29.75 in1007.5 mb 0.00 in0.0 mm 0.00 in0.0 mm 0.48 in12.2 mm
05:52 AM 62.8°F17.1°C -- 94% 14.1 mph SSE22.7 kmh SSE -- 29.75 in1007.5 mb 0.00 in0.0 mm 0.00 in0.0 mm 0.48 in12.2 mm
05:51 AM 63.0°F17.2°C -- 94% 16.1 mph SE25.9 kmh SE -- 29.75 in1007.5 mb 0.00 in0.0 mm 0.00 in0.0 mm 0.48 in12.2 mm
05:50 AM 63.0°F17.2°C -- 95% 14.1 mph SSE22.7 kmh SSE -- 29.74 in1007.1 mb 0.00 in0.0 mm 0.00 in0.0 mm 0.48 in12.2 mm
05:49 AM 63.0°F17.2°C -- 95% 13.0 mph SSE20.9 kmh SSE -- 29.74 in1007.1 mb 0.00 in0.0 mm 0.00 in0.0 mm 0.48 in12.2 mm
05:48 AM 63.0°F17.2°C -- 95% 15.0 mph SSE24.1 kmh SSE -- 29.74 in1007.1 mb 0.00 in0.0 mm 0.00 in0.0 mm 0.48 in12.2 mm
05:47 AM 63.1°F17.3°C -- 95% 11.0 mph SSE17.7 kmh SSE -- 29.74 in1007.1 mb 0.00 in0.0 mm 0.00 in0.0 mm 0.48 in12.2 mm
05:46 AM 63.1°F17.3°C -- 95% 11.0 mph SSE17.7 kmh SSE -- 29.75 in1007.5 mb 0.00 in0.0 mm 0.00 in0.0 mm 0.48 in12.2 mm
05:45 AM 63.1°F17.3°C -- 95% 11.0 mph SSE17.7 kmh SSE -- 29.75 in1007.5 mb 0.00 in0.0 mm 0.00 in0.0 mm 0.48 in12.2 mm
05:44 AM 63.1°F17.3°C -- 95% 11.0 mph S17.7 kmh S -- 29.75 in1007.5 mb 0.00 in0.0 mm 0.00 in0.0 mm 0.48 in12.2 mm
05:43 AM 63.3°F17.4°C -- 95% 8.1 mph SSE13.0 kmh SSE -- 29.75 in1007.5 mb 0.00 in0.0 mm 0.00 in0.0 mm 0.48 in12.2 mm
05:42 AM 63.3°F17.4°C -- 95% 14.1 mph SE22.7 kmh SE -- 29.75 in1007.5 mb 0.00 in0.0 mm 0.00 in0.0 mm 0.48 in12.2 mm
05:41 AM 63.3°F17.4°C -- 96% 15.0 mph SE24.1 kmh SE -- 29.74 in1007.1 mb 0.00 in0.0 mm 0.00 in0.0 mm 0.48 in12.2 mm
05:40 AM 63.3°F17.4°C -- 96% 10.1 mph E16.3 kmh E -- 29.74 in1007.1 mb 0.00 in0.0 mm 0.00 in0.0 mm 0.48 in12.2 mm
05:39 AM 63.3°F17.4°C -- 96% 17.0 mph S27.4 kmh S -- 29.74 in1007.1 mb 0.00 in0.0 mm 0.00 in0.0 mm 0.48 in12.2 mm
05:38 AM 63.3°F17.4°C -- 95% 11.0 mph SE17.7 kmh SE -- 29.74 in1007.1 mb 0.00 in0.0 mm 0.00 in0.0 mm 0.48 in12.2 mm
05:37 AM 63.5°F17.5°C -- 96% 11.0 mph SE17.7 kmh SE -- 29.74 in1007.1 mb 0.00 in0.0 mm 0.00 in0.0 mm 0.48 in12.2 mm
05:36 AM 63.5°F17.5°C -- 95% 12.1 mph SSE19.5 kmh SSE -- 29.74 in1007.1 mb 0.00 in0.0 mm 0.00 in0.0 mm 0.48 in12.2 mm
05:35 AM 63.5°F17.5°C -- 95% 8.1 mph SE13.0 kmh SE -- 29.74 in1007.1 mb 0.00 in0.0 mm 0.00 in0.0 mm 0.48 in12.2 mm
05:34 AM 63.5°F17.5°C -- 95% 8.1 mph SSE13.0 kmh SSE -- 29.74 in1007.1 mb 0.00 in0.0 mm 0.00 in0.0 mm 0.48 in12.2 mm
05:33 AM 63.5°F17.5°C -- 95% 10.1 mph SSE16.3 kmh SSE -- 29.74 in1007.1 mb 0.00 in0.0 mm 0.00 in0.0 mm 0.48 in12.2 mm
05:32 AM 63.5°F17.5°C -- 95% 13.0 mph S20.9 kmh S -- 29.75 in1007.5 mb 0.00 in0.0 mm 0.00 in0.0 mm 0.48 in12.2 mm
05:31 AM 63.7°F17.6°C -- 95% 13.0 mph SSE20.9 kmh SSE -- 29.75 in1007.5 mb 0.00 in0.0 mm 0.00 in0.0 mm 0.48 in12.2 mm
05:30 AM 63.7°F17.6°C -- 95% 11.0 mph SSE17.7 kmh SSE -- 29.74 in1007.1 mb 0.00 in0.0 mm 0.00 in0.0 mm 0.48 in12.2 mm
05:29 AM 63.7°F17.6°C -- 95% 10.1 mph SSE16.3 kmh SSE -- 29.74 in1007.1 mb 0.00 in0.0 mm 0.00 in0.0 mm 0.48 in12.2 mm
05:28 AM 63.9°F17.7°C -- 95% 6.9 mph SSE11.1 kmh SSE -- 29.74 in1007.1 mb 0.00 in0.0 mm 0.00 in0.0 mm 0.48 in12.2 mm
05:27 AM 63.9°F17.7°C -- 95% 11.0 mph S17.7 kmh S -- 29.74 in1007.1 mb 0.00 in0.0 mm 0.00 in0.0 mm 0.48 in12.2 mm
05:26 AM 63.7°F17.6°C -- 95% 11.0 mph SSE17.7 kmh SSE -- 29.74 in1007.1 mb 0.00 in0.0 mm 0.00 in0.0 mm 0.48 in12.2 mm
05:25 AM 63.7°F17.6°C -- 95% 12.1 mph SSE19.5 kmh SSE -- 29.74 in1007.1 mb 0.00 in0.0 mm 0.00 in0.0 mm 0.48 in12.2 mm
05:24 AM 63.7°F17.6°C -- 95% 12.1 mph SE19.5 kmh SE -- 29.74 in1007.1 mb 0.00 in0.0 mm 0.00 in0.0 mm 0.48 in12.2 mm
05:23 AM 63.9°F17.7°C -- 95% 14.1 mph SSE22.7 kmh SSE -- 29.73 in1006.8 mb 0.00 in0.0 mm 0.00 in0.0 mm 0.48 in12.2 mm
05:22 AM 63.9°F17.7°C -- 94% 12.1 mph SSE19.5 kmh SSE -- 29.73 in1006.8 mb 0.00 in0.0 mm 0.00 in0.0 mm 0.48 in12.2 mm
05:21 AM 63.9°F17.7°C -- 95% 13.0 mph SSE20.9 kmh SSE -- 29.73 in1006.8 mb 0.00 in0.0 mm 0.00 in0.0 mm 0.48 in12.2 mm
05:20 AM 63.9°F17.7°C -- 95% 8.9 mph SSE14.3 kmh SSE -- 29.72 in1006.4 mb 0.00 in0.0 mm 0.00 in0.0 mm 0.48 in12.2 mm
05:19 AM 63.9°F17.7°C -- 94% 11.0 mph SE17.7 kmh SE -- 29.72 in1006.4 mb 0.00 in0.0 mm 0.00 in0.0 mm 0.48 in12.2 mm
05:18 AM 63.9°F17.7°C -- 94% 10.1 mph SE16.3 kmh SE -- 29.72 in1006.4 mb 0.00 in0.0 mm 0.00 in0.0 mm 0.48 in12.2 mm
05:17 AM 64.0°F17.8°C -- 94% 8.9 mph SE14.3 kmh SE -- 29.73 in1006.8 mb 0.00 in0.0 mm 0.00 in0.0 mm 0.48 in12.2 mm
05:16 AM 64.0°F17.8°C -- 94% 15.0 mph SSE24.1 kmh SSE -- 29.72 in1006.4 mb 0.00 in0.0 mm 0.00 in0.0 mm 0.47 in11.9 mm
05:15 AM 64.0°F17.8°C -- 94% 8.9 mph SE14.3 kmh SE -- 29.72 in1006.4 mb 0.00 in0.0 mm 0.00 in0.0 mm 0.47 in11.9 mm
05:14 AM 64.0°F17.8°C -- 94% 13.0 mph SSE20.9 kmh SSE -- 29.72 in1006.4 mb 0.00 in0.0 mm 0.00 in0.0 mm 0.47 in11.9 mm
05:13 AM 64.0°F17.8°C -- 94% 12.1 mph SE19.5 kmh SE -- 29.73 in1006.8 mb 0.00 in0.0 mm 0.00 in0.0 mm 0.47 in11.9 mm
05:12 AM 64.2°F17.9°C -- 94% 10.1 mph SSE16.3 kmh SSE -- 29.73 in1006.8 mb 0.00 in0.0 mm 0.00 in0.0 mm 0.47 in11.9 mm
05:11 AM 64.0°F17.8°C -- 94% 16.1 mph SE25.9 kmh SE -- 29.73 in1006.8 mb 0.00 in0.0 mm 0.00 in0.0 mm 0.47 in11.9 mm
05:10 AM 64.0°F17.8°C -- 94% 15.0 mph SSE24.1 kmh SSE -- 29.73 in1006.8 mb 0.00 in0.0 mm 0.00 in0.0 mm 0.46 in11.7 mm
05:09 AM 64.0°F17.8°C -- 95% 15.0 mph SSE24.1 kmh SSE -- 29.73 in1006.8 mb 0.00 in0.0 mm 0.00 in0.0 mm 0.46 in11.7 mm
05:08 AM 64.0°F17.8°C -- 94% 11.0 mph SSE17.7 kmh SSE -- 29.73 in1006.8 mb 0.00 in0.0 mm 0.00 in0.0 mm 0.46 in11.7 mm
05:07 AM 64.0°F17.8°C -- 93% 12.1 mph SE19.5 kmh SE -- 29.73 in1006.8 mb 0.00 in0.0 mm 0.00 in0.0 mm 0.46 in11.7 mm
05:06 AM 64.0°F17.8°C -- 93% 11.0 mph SE17.7 kmh SE -- 29.73 in1006.8 mb 0.00 in0.0 mm 0.00 in0.0 mm 0.45 in11.4 mm
05:05 AM 64.2°F17.9°C -- 94% 10.1 mph SE16.3 kmh SE -- 29.74 in1007.1 mb 0.00 in0.0 mm 0.00 in0.0 mm 0.45 in11.4 mm
05:04 AM 64.2°F17.9°C -- 94% 12.1 mph SE19.5 kmh SE -- 29.74 in1007.1 mb 0.00 in0.0 mm 0.00 in0.0 mm 0.44 in11.2 mm
05:03 AM 64.4°F18.0°C -- 94% 14.1 mph SE22.7 kmh SE -- 29.74 in1007.1 mb 0.00 in0.0 mm 0.00 in0.0 mm 0.44 in11.2 mm
05:02 AM 64.6°F18.1°C -- 94% 13.0 mph SSE20.9 kmh SSE -- 29.75 in1007.5 mb 0.00 in0.0 mm 0.00 in0.0 mm 0.44 in11.2 mm
05:01 AM 64.6°F18.1°C -- 93% 13.0 mph SE20.9 kmh SE -- 29.75 in1007.5 mb 0.00 in0.0 mm 0.00 in0.0 mm 0.43 in10.9 mm
05:00 AM 64.6°F18.1°C -- 94% 15.0 mph SSE24.1 kmh SSE -- 29.76 in1007.8 mb 0.00 in0.0 mm 0.00 in0.0 mm 0.41 in10.4 mm
04:59 AM 64.6°F18.1°C -- 94% 12.1 mph SSE19.5 kmh SSE -- 29.76 in1007.8 mb 0.00 in0.0 mm 0.00 in0.0 mm 0.40 in10.2 mm
04:58 AM 64.6°F18.1°C -- 94% 12.1 mph S19.5 kmh S -- 29.76 in1007.8 mb 0.00 in0.0 mm 0.00 in0.0 mm 0.39 in9.9 mm
04:57 AM 64.6°F18.1°C -- 93% 10.1 mph S16.3 kmh S -- 29.76 in1007.8 mb 0.00 in0.0 mm 0.00 in0.0 mm 0.39 in9.9 mm
04:56 AM 64.6°F18.1°C -- 94% 10.1 mph S16.3 kmh S -- 29.76 in1007.8 mb 0.00 in0.0 mm 0.00 in0.0 mm 0.39 in9.9 mm
04:55 AM 64.6°F18.1°C -- 94% 16.1 mph S25.9 kmh S -- 29.76 in1007.8 mb 0.00 in0.0 mm 0.00 in0.0 mm 0.38 in9.7 mm
04:54 AM 64.6°F18.1°C -- 94% 14.1 mph S22.7 kmh S -- 29.76 in1007.8 mb 0.00 in0.0 mm 0.00 in0.0 mm 0.38 in9.7 mm
04:53 AM 64.6°F18.1°C -- 94% 12.1 mph S19.5 kmh S -- 29.76 in1007.8 mb 0.00 in0.0 mm 0.00 in0.0 mm 0.38 in9.7 mm
04:52 AM 64.6°F18.1°C -- 94% 8.1 mph SSE13.0 kmh SSE -- 29.76 in1007.8 mb 0.00 in0.0 mm 0.00 in0.0 mm 0.38 in9.7 mm
04:51 AM 64.6°F18.1°C -- 94% 14.1 mph S22.7 kmh S -- 29.76 in1007.8 mb 0.00 in0.0 mm 0.00 in0.0 mm 0.38 in9.7 mm
04:50 AM 64.6°F18.1°C -- 94% 10.1 mph SSE16.3 kmh SSE -- 29.76 in1007.8 mb 0.00 in0.0 mm 0.00 in0.0 mm 0.38 in9.7 mm
04:49 AM 64.6°F18.1°C -- 94% 10.1 mph SSE16.3 kmh SSE -- 29.76 in1007.8 mb 0.00 in0.0 mm 0.00 in0.0 mm 0.38 in9.7 mm
04:48 AM 64.6°F18.1°C -- 94% 15.0 mph S24.1 kmh S -- 29.76 in1007.8 mb 0.00 in0.0 mm 0.00 in0.0 mm 0.37 in9.4 mm
04:47 AM 64.6°F18.1°C -- 94% 13.0 mph SSE20.9 kmh SSE -- 29.76 in1007.8 mb 0.00 in0.0 mm 0.00 in0.0 mm 0.37 in9.4 mm
04:46 AM 64.6°F18.1°C -- 94% 12.1 mph S19.5 kmh S -- 29.76 in1007.8 mb 0.00 in0.0 mm 0.00 in0.0 mm 0.37 in9.4 mm
04:45 AM 64.6°F18.1°C -- 94% 10.1 mph S16.3 kmh S -- 29.76 in1007.8 mb 0.00 in0.0 mm 0.00 in0.0 mm 0.37 in9.4 mm
04:44 AM 64.6°F18.1°C -- 94% 17.0 mph S27.4 kmh S -- 29.76 in1007.8 mb 0.00 in0.0 mm 0.00 in0.0 mm 0.37 in9.4 mm
04:43 AM 64.6°F18.1°C -- 94% 17.0 mph S27.4 kmh S -- 29.76 in1007.8 mb 0.00 in0.0 mm 0.00 in0.0 mm 0.37 in9.4 mm
04:42 AM 64.6°F18.1°C -- 94% 8.9 mph S14.3 kmh S -- 29.76 in1007.8 mb 0.00 in0.0 mm 0.00 in0.0 mm 0.36 in9.1 mm
04:41 AM 64.6°F18.1°C -- 94% 8.1 mph SSE13.0 kmh SSE -- 29.76 in1007.8 mb 0.00 in0.0 mm 0.00 in0.0 mm 0.36 in9.1 mm
04:40 AM 64.4°F18.0°C -- 94% 13.0 mph SSE20.9 kmh SSE -- 29.76 in1007.8 mb 0.00 in0.0 mm 0.00 in0.0 mm 0.36 in9.1 mm
04:39 AM 64.2°F17.9°C -- 94% 4.9 mph S7.9 kmh S -- 29.76 in1007.8 mb 0.00 in0.0 mm 0.00 in0.0 mm 0.35 in8.9 mm
04:38 AM 64.2°F17.9°C -- 94% 6.9 mph SSE11.1 kmh SSE -- 29.76 in1007.8 mb 0.00 in0.0 mm 0.00 in0.0 mm 0.34 in8.6 mm
04:37 AM 64.2°F17.9°C -- 94% 6.0 mph S9.7 kmh S -- 29.76 in1007.8 mb 0.00 in0.0 mm 0.00 in0.0 mm 0.33 in8.4 mm
04:36 AM 64.4°F18.0°C -- 94% 6.0 mph S9.7 kmh S -- 29.76 in1007.8 mb 0.00 in0.0 mm 0.00 in0.0 mm 0.32 in8.1 mm
04:35 AM 64.6°F18.1°C -- 94% 2.9 mph SSW4.7 kmh SSW -- 29.77 in1008.1 mb 0.00 in0.0 mm 0.00 in0.0 mm 0.30 in7.6 mm
04:34 AM 64.6°F18.1°C -- 94% 6.0 mph SSW9.7 kmh SSW -- 29.77 in1008.1 mb 0.00 in0.0 mm 0.00 in0.0 mm 0.28 in7.1 mm
04:33 AM 64.6°F18.1°C -- 94% 10.1 mph SSW16.3 kmh SSW -- 29.78 in1008.5 mb 0.00 in0.0 mm 0.00 in0.0 mm 0.27 in6.9 mm
04:32 AM 64.6°F18.1°C -- 94% 12.1 mph WSW19.5 kmh WSW -- 29.78 in1008.5 mb 0.00 in0.0 mm 0.00 in0.0 mm 0.26 in6.6 mm
04:31 AM 64.6°F18.1°C -- 93% 11.0 mph WSW17.7 kmh WSW -- 29.78 in1008.5 mb 0.00 in0.0 mm 0.00 in0.0 mm 0.25 in6.4 mm
04:30 AM 64.6°F18.1°C -- 94% 10.1 mph WSW16.3 kmh WSW -- 29.78 in1008.5 mb 0.00 in0.0 mm 0.00 in0.0 mm 0.24 in6.1 mm
04:29 AM 64.6°F18.1°C -- 94% 12.1 mph SW19.5 kmh SW -- 29.78 in1008.5 mb 0.00 in0.0 mm 0.00 in0.0 mm 0.22 in5.6 mm
04:28 AM 64.2°F17.9°C -- 94% 10.1 mph WSW16.3 kmh WSW -- 29.78 in1008.5 mb 0.00 in0.0 mm 0.00 in0.0 mm 0.19 in4.8 mm
04:27 AM 64.2°F17.9°C -- 93% 8.9 mph SW14.3 kmh SW -- 29.77 in1008.1 mb 0.00 in0.0 mm 0.00 in0.0 mm 0.19 in4.8 mm
04:26 AM 64.0°F17.8°C -- 93% 8.9 mph WSW14.3 kmh WSW -- 29.77 in1008.1 mb 0.00 in0.0 mm 0.00 in0.0 mm 0.18 in4.6 mm
04:25 AM 63.9°F17.7°C -- 93% 6.0 mph WSW9.7 kmh WSW -- 29.77 in1008.1 mb 0.00 in0.0 mm 0.00 in0.0 mm 0.18 in4.6 mm
04:24 AM 63.9°F17.7°C -- 93% 6.0 mph SW9.7 kmh SW -- 29.77 in1008.1 mb 0.00 in0.0 mm 0.00 in0.0 mm 0.17 in4.3 mm
04:23 AM 63.9°F17.7°C -- 93% 4.0 mph WSW6.4 kmh WSW -- 29.76 in1007.8 mb 0.00 in0.0 mm 0.00 in0.0 mm 0.17 in4.3 mm
04:22 AM 63.9°F17.7°C -- 93% 4.0 mph SSW6.4 kmh SSW -- 29.76 in1007.8 mb 0.00 in0.0 mm 0.00 in0.0 mm 0.17 in4.3 mm
04:21 AM 63.7°F17.6°C -- 93% 6.0 mph S9.7 kmh S -- 29.76 in1007.8 mb 0.00 in0.0 mm 0.00 in0.0 mm 0.16 in4.1 mm
04:20 AM 63.7°F17.6°C -- 92% 4.0 mph SSE6.4 kmh SSE -- 29.76 in1007.8 mb 0.00 in0.0 mm 0.00 in0.0 mm 0.16 in4.1 mm
04:19 AM 63.7°F17.6°C -- 92% 2.9 mph SSW4.7 kmh SSW -- 29.76 in1007.8 mb 0.00 in0.0 mm 0.00 in0.0 mm 0.16 in4.1 mm
04:18 AM 63.5°F17.5°C -- 92% 6.9 mph SSW11.1 kmh SSW -- 29.75 in1007.5 mb 0.00 in0.0 mm 0.00 in0.0 mm 0.15 in3.8 mm
04:17 AM 63.5°F17.5°C -- 92% 8.1 mph SE13.0 kmh SE -- 29.75 in1007.5 mb 0.00 in0.0 mm 0.00 in0.0 mm 0.15 in3.8 mm
04:16 AM 63.3°F17.4°C -- 92% 6.0 mph SSE9.7 kmh SSE -- 29.75 in1007.5 mb 0.00 in0.0 mm 0.00 in0.0 mm 0.14 in3.6 mm
04:15 AM 63.1°F17.3°C -- 92% 8.9 mph S14.3 kmh S -- 29.74 in1007.1 mb 0.00 in0.0 mm 0.00 in0.0 mm 0.12 in3.0 mm
04:14 AM 63.1°F17.3°C -- 92% 6.9 mph S11.1 kmh S -- 29.74 in1007.1 mb 0.00 in0.0 mm 0.00 in0.0 mm 0.11 in2.8 mm
04:13 AM 63.1°F17.3°C -- 92% 8.1 mph SSE13.0 kmh SSE -- 29.74 in1007.1 mb 0.00 in0.0 mm 0.00 in0.0 mm 0.11 in2.8 mm
04:12 AM 63.1°F17.3°C -- 92% 8.9 mph SE14.3 kmh SE -- 29.74 in1007.1 mb 0.00 in0.0 mm 0.00 in0.0 mm 0.11 in2.8 mm
04:11 AM 63.0°F17.2°C -- 92% 8.9 mph SE14.3 kmh SE -- 29.74 in1007.1 mb 0.00 in0.0 mm 0.00 in0.0 mm 0.10 in2.5 mm
04:10 AM 63.0°F17.2°C -- 92% 8.1 mph SSE13.0 kmh SSE -- 29.74 in1007.1 mb 0.00 in0.0 mm 0.00 in0.0 mm 0.10 in2.5 mm
04:09 AM 63.0°F17.2°C -- 92% 6.9 mph SE11.1 kmh SE -- 29.74 in1007.1 mb 0.00 in0.0 mm 0.00 in0.0 mm 0.10 in2.5 mm
04:08 AM 63.0°F17.2°C -- 92% 6.0 mph SE9.7 kmh SE -- 29.74 in1007.1 mb 0.00 in0.0 mm 0.00 in0.0 mm 0.09 in2.3 mm
04:07 AM 62.8°F17.1°C -- 92% 6.9 mph SE11.1 kmh SE -- 29.74 in1007.1 mb 0.00 in0.0 mm 0.00 in0.0 mm 0.08 in2.0 mm
04:06 AM 62.8°F17.1°C -- 92% 6.9 mph SE11.1 kmh SE -- 29.74 in1007.1 mb 0.00 in0.0 mm 0.00 in0.0 mm 0.06 in1.5 mm
04:05 AM 62.6°F17.0°C -- 92% 4.9 mph SE7.9 kmh SE -- 29.74 in1007.1 mb 0.00 in0.0 mm 0.00 in0.0 mm 0.05 in1.3 mm
04:04 AM 62.4°F16.9°C -- 92% 6.9 mph SSE11.1 kmh SSE -- 29.74 in1007.1 mb 0.00 in0.0 mm 0.00 in0.0 mm 0.05 in1.3 mm
04:03 AM 62.4°F16.9°C -- 92% 6.9 mph SE11.1 kmh SE -- 29.74 in1007.1 mb 0.00 in0.0 mm 0.00 in0.0 mm 0.05 in1.3 mm
04:02 AM 62.4°F16.9°C -- 92% 4.0 mph SE6.4 kmh SE -- 29.74 in1007.1 mb 0.00 in0.0 mm 0.00 in0.0 mm 0.05 in1.3 mm
04:01 AM 62.4°F16.9°C -- 92% 4.9 mph SSE7.9 kmh SSE -- 29.74 in1007.1 mb 0.00 in0.0 mm 0.00 in0.0 mm 0.04 in1.0 mm
04:00 AM 62.4°F16.9°C -- 92% 4.9 mph SE7.9 kmh SE -- 29.74 in1007.1 mb 0.00 in0.0 mm 0.00 in0.0 mm 0.04 in1.0 mm
03:59 AM 62.4°F16.9°C -- 92% 2.9 mph SE4.7 kmh SE -- 29.74 in1007.1 mb 0.00 in0.0 mm 0.00 in0.0 mm 0.04 in1.0 mm
03:58 AM 62.4°F16.9°C -- 92% 4.9 mph SE7.9 kmh SE -- 29.74 in1007.1 mb 0.00 in0.0 mm 0.00 in0.0 mm 0.04 in1.0 mm
03:57 AM 62.4°F16.9°C -- 92% 4.9 mph SE7.9 kmh SE -- 29.74 in1007.1 mb 0.00 in0.0 mm 0.00 in0.0 mm 0.04 in1.0 mm
03:56 AM 62.4°F16.9°C -- 92% 4.9 mph SE7.9 kmh SE -- 29.74 in1007.1 mb 0.00 in0.0 mm 0.00 in0.0 mm 0.03 in0.8 mm
03:55 AM 62.2°F16.8°C -- 92% 8.1 mph SE13.0 kmh SE -- 29.74 in1007.1 mb 0.00 in0.0 mm 0.00 in0.0 mm 0.03 in0.8 mm
03:54 AM 62.2°F16.8°C -- 92% 8.1 mph SE13.0 kmh SE -- 29.74 in1007.1 mb 0.00 in0.0 mm 0.00 in0.0 mm 0.03 in0.8 mm
03:53 AM 62.2°F16.8°C -- 92% 4.9 mph SE7.9 kmh SE -- 29.74 in1007.1 mb 0.00 in0.0 mm 0.00 in0.0 mm 0.03 in0.8 mm
03:52 AM 62.2°F16.8°C -- 92% 4.9 mph SE7.9 kmh SE -- 29.74 in1007.1 mb 0.00 in0.0 mm 0.00 in0.0 mm 0.03 in0.8 mm
03:51 AM 62.2°F16.8°C -- 92% 8.1 mph SE13.0 kmh SE -- 29.74 in1007.1 mb 0.00 in0.0 mm 0.00 in0.0 mm 0.02 in0.5 mm
03:50 AM 62.2°F16.8°C -- 92% 6.9 mph SE11.1 kmh SE -- 29.74 in1007.1 mb 0.00 in0.0 mm 0.00 in0.0 mm 0.02 in0.5 mm
03:49 AM 62.2°F16.8°C -- 92% 6.9 mph SE11.1 kmh SE -- 29.74 in1007.1 mb 0.00 in0.0 mm 0.00 in0.0 mm 0.02 in0.5 mm
03:48 AM 62.2°F16.8°C -- 91% 6.9 mph SE11.1 kmh SE -- 29.74 in1007.1 mb 0.00 in0.0 mm 0.00 in0.0 mm 0.02 in0.5 mm
03:47 AM 62.2°F16.8°C -- 91% 4.0 mph SE6.4 kmh SE -- 29.74 in1007.1 mb 0.00 in0.0 mm 0.00 in0.0 mm 0.02 in0.5 mm
03:46 AM 62.2°F16.8°C -- 92% 4.9 mph SE7.9 kmh SE -- 29.74 in1007.1 mb 0.00 in0.0 mm 0.00 in0.0 mm 0.01 in0.3 mm
03:45 AM 62.2°F16.8°C -- 91% 8.9 mph SSE14.3 kmh SSE -- 29.74 in1007.1 mb 0.00 in0.0 mm 0.00 in0.0 mm 0.01 in0.3 mm
03:44 AM 62.4°F16.9°C -- 91% 8.1 mph SE13.0 kmh SE -- 29.74 in1007.1 mb 0.00 in0.0 mm 0.00 in0.0 mm 0.01 in0.3 mm
03:43 AM 62.4°F16.9°C -- 92% 6.9 mph SE11.1 kmh SE -- 29.74 in1007.1 mb 0.00 in0.0 mm 0.00 in0.0 mm 0.01 in0.3 mm
03:42 AM 62.2°F16.8°C -- 92% 8.1 mph S13.0 kmh S -- 29.74 in1007.1 mb 0.00 in0.0 mm 0.00 in0.0 mm 0.01 in0.3 mm
03:41 AM 62.2°F16.8°C -- 92% 6.0 mph SE9.7 kmh SE -- 29.74 in1007.1 mb 0.00 in0.0 mm 0.00 in0.0 mm 0.00 in0.0 mm
03:40 AM 62.2°F16.8°C -- 92% 6.0 mph SE9.7 kmh SE -- 29.74 in1007.1 mb 0.00 in0.0 mm 0.00 in0.0 mm 0.00 in0.0 mm
03:39 AM 62.2°F16.8°C -- 92% 10.1 mph SE16.3 kmh SE -- 29.75 in1007.5 mb 0.00 in0.0 mm 0.00 in0.0 mm 0.00 in0.0 mm
03:38 AM 62.2°F16.8°C -- 92% 8.9 mph SE14.3 kmh SE -- 29.75 in1007.5 mb 0.00 in0.0 mm 0.00 in0.0 mm 0.00 in0.0 mm
03:37 AM 62.1°F16.7°C -- 92% 6.9 mph SE11.1 kmh SE -- 29.75 in1007.5 mb 0.00 in0.0 mm 0.00 in0.0 mm 0.00 in0.0 mm
03:36 AM 62.1°F16.7°C -- 92% 6.9 mph SE11.1 kmh SE -- 29.74 in1007.1 mb 0.00 in0.0 mm 0.00 in0.0 mm 0.00 in0.0 mm
03:35 AM 61.9°F16.6°C -- 93% 12.1 mph SE19.5 kmh SE -- 29.74 in1007.1 mb 0.00 in0.0 mm 0.00 in0.0 mm 0.00 in0.0 mm
03:34 AM 61.7°F16.5°C -- 93% 8.9 mph SE14.3 kmh SE -- 29.74 in1007.1 mb 0.00 in0.0 mm 0.00 in0.0 mm 0.00 in0.0 mm
03:33 AM 61.5°F16.4°C -- 93% 8.9 mph SSE14.3 kmh SSE -- 29.74 in1007.1 mb 0.00 in0.0 mm 0.00 in0.0 mm 0.00 in0.0 mm
03:32 AM 61.3°F16.3°C -- 93% 6.9 mph SE11.1 kmh SE -- 29.74 in1007.1 mb 0.00 in0.0 mm 0.00 in0.0 mm 0.00 in0.0 mm
03:31 AM 61.3°F16.3°C -- 93% 8.1 mph SE13.0 kmh SE -- 29.75 in1007.5 mb 0.00 in0.0 mm 0.00 in0.0 mm 0.00 in0.0 mm
03:30 AM 61.2°F16.2°C -- 93% 6.0 mph SE9.7 kmh SE -- 29.75 in1007.5 mb 0.00 in0.0 mm 0.00 in0.0 mm 0.00 in0.0 mm
03:29 AM 61.2°F16.2°C -- 93% 8.1 mph SE13.0 kmh SE -- 29.75 in1007.5 mb 0.00 in0.0 mm 0.00 in0.0 mm 0.00 in0.0 mm
03:28 AM 61.2°F16.2°C -- 93% 8.1 mph SE13.0 kmh SE -- 29.75 in1007.5 mb 0.00 in0.0 mm 0.00 in0.0 mm 0.00 in0.0 mm
03:27 AM 61.0°F16.1°C -- 93% 6.0 mph SE9.7 kmh SE -- 29.75 in1007.5 mb 0.00 in0.0 mm 0.00 in0.0 mm 0.00 in0.0 mm
03:26 AM 61.0°F16.1°C -- 93% 8.1 mph ESE13.0 kmh ESE -- 29.75 in1007.5 mb 0.00 in0.0 mm 0.00 in0.0 mm 0.00 in0.0 mm
03:25 AM 61.0°F16.1°C -- 93% 6.9 mph SE11.1 kmh SE -- 29.75 in1007.5 mb 0.00 in0.0 mm 0.00 in0.0 mm 0.00 in0.0 mm
03:24 AM 61.0°F16.1°C -- 92% 8.1 mph E13.0 kmh E -- 29.75 in1007.5 mb 0.00 in0.0 mm 0.00 in0.0 mm 0.00 in0.0 mm
03:23 AM 61.0°F16.1°C -- 92% 8.1 mph SE13.0 kmh SE -- 29.74 in1007.1 mb 0.00 in0.0 mm 0.00 in0.0 mm 0.00 in0.0 mm
03:22 AM 61.2°F16.2°C -- 93% 11.0 mph SE17.7 kmh SE -- 29.75 in1007.5 mb 0.00 in0.0 mm 0.00 in0.0 mm 0.00 in0.0 mm
03:21 AM 61.2°F16.2°C -- 92% 10.1 mph SE16.3 kmh SE -- 29.74 in1007.1 mb 0.00 in0.0 mm 0.00 in0.0 mm 0.00 in0.0 mm
03:20 AM 61.2°F16.2°C -- 92% 8.9 mph SE14.3 kmh SE -- 29.75 in1007.5 mb 0.00 in0.0 mm 0.00 in0.0 mm 0.00 in0.0 mm
03:19 AM 61.2°F16.2°C -- 92% 10.1 mph ESE16.3 kmh ESE -- 29.75 in1007.5 mb 0.00 in0.0 mm 0.00 in0.0 mm 0.00 in0.0 mm
03:18 AM 61.2°F16.2°C -- 92% 8.1 mph SE13.0 kmh SE -- 29.75 in1007.5 mb 0.00 in0.0 mm 0.00 in0.0 mm 0.00 in0.0 mm
03:17 AM 61.3°F16.3°C -- 92% 8.1 mph SE13.0 kmh SE -- 29.75 in1007.5 mb 0.00 in0.0 mm 0.00 in0.0 mm 0.00 in0.0 mm
03:16 AM 61.3°F16.3°C -- 91% 6.9 mph SE11.1 kmh SE -- 29.76 in1007.8 mb 0.00 in0.0 mm 0.00 in0.0 mm 0.00 in0.0 mm
03:15 AM 61.3°F16.3°C -- 91% 8.1 mph SE13.0 kmh SE -- 29.76 in1007.8 mb 0.00 in0.0 mm 0.00 in0.0 mm 0.00 in0.0 mm
03:14 AM 61.5°F16.4°C -- 90% 6.0 mph SE9.7 kmh SE -- 29.76 in1007.8 mb 0.00 in0.0 mm 0.00 in0.0 mm 0.00 in0.0 mm
03:13 AM 61.9°F16.6°C -- 90% 10.1 mph SE16.3 kmh SE -- 29.76 in1007.8 mb 0.00 in0.0 mm 0.00 in0.0 mm 0.00 in0.0 mm
03:12 AM 62.1°F16.7°C -- 90% 8.9 mph SE14.3 kmh SE -- 29.76 in1007.8 mb 0.00 in0.0 mm 0.00 in0.0 mm 0.00 in0.0 mm
03:11 AM 62.2°F16.8°C -- 89% 8.9 mph ESE14.3 kmh ESE -- 29.76 in1007.8 mb 0.00 in0.0 mm 0.00 in0.0 mm 0.00 in0.0 mm
03:10 AM 62.4°F16.9°C -- 89% 11.0 mph ESE17.7 kmh ESE -- 29.76 in1007.8 mb 0.00 in0.0 mm 0.00 in0.0 mm 0.00 in0.0 mm
03:09 AM 62.8°F17.1°C -- 89% 8.9 mph SE14.3 kmh SE -- 29.76 in1007.8 mb 0.00 in0.0 mm 0.00 in0.0 mm 0.00 in0.0 mm
03:08 AM 63.0°F17.2°C -- 89% 10.1 mph ESE16.3 kmh ESE -- 29.76 in1007.8 mb 0.00 in0.0 mm 0.00 in0.0 mm 0.00 in0.0 mm
03:07 AM 63.1°F17.3°C -- 90% 8.9 mph SE14.3 kmh SE -- 29.76 in1007.8 mb 0.00 in0.0 mm 0.00 in0.0 mm 0.00 in0.0 mm
03:06 AM 63.1°F17.3°C -- 89% 11.0 mph SE17.7 kmh SE -- 29.77 in1008.1 mb 0.00 in0.0 mm 0.00 in0.0 mm 0.00 in0.0 mm
03:05 AM 63.1°F17.3°C -- 90% 8.1 mph SE13.0 kmh SE -- 29.77 in1008.1 mb 0.00 in0.0 mm 0.00 in0.0 mm 0.00 in0.0 mm
03:04 AM 63.1°F17.3°C -- 90% 8.1 mph SE13.0 kmh SE -- 29.77 in1008.1 mb 0.00 in0.0 mm 0.00 in0.0 mm 0.00 in0.0 mm
03:03 AM 63.1°F17.3°C -- 90% 11.0 mph SE17.7 kmh SE -- 29.77 in1008.1 mb 0.00 in0.0 mm 0.00 in0.0 mm 0.00 in0.0 mm
03:02 AM 63.1°F17.3°C -- 90% 6.9 mph SSE11.1 kmh SSE -- 29.77 in1008.1 mb 0.00 in0.0 mm 0.00 in0.0 mm 0.00 in0.0 mm
03:01 AM 63.1°F17.3°C -- 90% 11.0 mph SE17.7 kmh SE -- 29.77 in1008.1 mb 0.00 in0.0 mm 0.00 in0.0 mm 0.00 in0.0 mm
03:00 AM 63.1°F17.3°C -- 90% 8.1 mph SE13.0 kmh SE -- 29.77 in1008.1 mb 0.00 in0.0 mm 0.00 in0.0 mm 0.00 in0.0 mm
02:59 AM 63.1°F17.3°C -- 90% 12.1 mph SE19.5 kmh SE -- 29.77 in1008.1 mb 0.00 in0.0 mm 0.00 in0.0 mm 0.00 in0.0 mm
02:58 AM 63.1°F17.3°C -- 90% 8.1 mph SE13.0 kmh SE -- 29.77 in1008.1 mb 0.00 in0.0 mm 0.00 in0.0 mm 0.00 in0.0 mm
02:57 AM 63.1°F17.3°C -- 90% 8.1 mph SSE13.0 kmh SSE -- 29.78 in1008.5 mb 0.00 in0.0 mm 0.00 in0.0 mm 0.00 in0.0 mm
02:56 AM 63.1°F17.3°C -- 90% 10.1 mph SSE16.3 kmh SSE -- 29.78 in1008.5 mb 0.00 in0.0 mm 0.00 in0.0 mm 0.00 in0.0 mm
02:55 AM 63.1°F17.3°C -- 90% 8.9 mph SSE14.3 kmh SSE -- 29.78 in1008.5 mb 0.00 in0.0 mm 0.00 in0.0 mm 0.00 in0.0 mm
02:54 AM 63.0°F17.2°C -- 90% 10.1 mph SE16.3 kmh SE -- 29.78 in1008.5 mb 0.00 in0.0 mm 0.00 in0.0 mm 0.00 in0.0 mm
02:53 AM 63.0°F17.2°C -- 91% 11.0 mph SE17.7 kmh SE -- 29.78 in1008.5 mb 0.00 in0.0 mm 0.00 in0.0 mm 0.00 in0.0 mm
02:52 AM 63.0°F17.2°C -- 90% 8.9 mph SE14.3 kmh SE -- 29.77 in1008.1 mb 0.00 in0.0 mm 0.00 in0.0 mm 0.00 in0.0 mm
02:51 AM 63.0°F17.2°C -- 90% 6.0 mph SE9.7 kmh SE -- 29.77 in1008.1 mb 0.00 in0.0 mm 0.00 in0.0 mm 0.00 in0.0 mm
02:50 AM 63.0°F17.2°C -- 91% 6.9 mph SE11.1 kmh SE -- 29.77 in1008.1 mb 0.00 in0.0 mm 0.00 in0.0 mm 0.00 in0.0 mm
02:49 AM 62.8°F17.1°C -- 91% 8.9 mph SE14.3 kmh SE -- 29.77 in1008.1 mb 0.00 in0.0 mm 0.00 in0.0 mm 0.00 in0.0 mm
02:48 AM 62.6°F17.0°C -- 91% 10.1 mph SSE16.3 kmh SSE -- 29.77 in1008.1 mb 0.00 in0.0 mm 0.00 in0.0 mm 0.00 in0.0 mm
02:47 AM 62.4°F16.9°C -- 91% 6.9 mph SE11.1 kmh SE -- 29.77 in1008.1 mb 0.00 in0.0 mm 0.00 in0.0 mm 0.00 in0.0 mm
02:46 AM 62.4°F16.9°C -- 91% 6.9 mph SE11.1 kmh SE -- 29.77 in1008.1 mb 0.00 in0.0 mm 0.00 in0.0 mm 0.00 in0.0 mm
02:45 AM 62.4°F16.9°C -- 91% 8.1 mph SSE13.0 kmh SSE -- 29.77 in1008.1 mb 0.00 in0.0 mm 0.00 in0.0 mm 0.00 in0.0 mm
02:44 AM 62.4°F16.9°C -- 91% 6.9 mph E11.1 kmh E -- 29.77 in1008.1 mb 0.00 in0.0 mm 0.00 in0.0 mm 0.00 in0.0 mm
02:43 AM 62.4°F16.9°C -- 90% 8.1 mph SE13.0 kmh SE -- 29.77 in1008.1 mb 0.00 in0.0 mm 0.00 in0.0 mm 0.00 in0.0 mm
02:42 AM 62.4°F16.9°C -- 90% 8.9 mph SE14.3 kmh SE -- 29.77 in1008.1 mb 0.00 in0.0 mm 0.00 in0.0 mm 0.00 in0.0 mm
02:41 AM 62.6°F17.0°C -- 90% 11.0 mph SE17.7 kmh SE -- 29.77 in1008.1 mb 0.00 in0.0 mm 0.00 in0.0 mm 0.00 in0.0 mm
02:40 AM 62.6°F17.0°C -- 90% 6.9 mph SE11.1 kmh SE -- 29.77 in1008.1 mb 0.00 in0.0 mm 0.00 in0.0 mm 0.00 in0.0 mm
02:39 AM 62.6°F17.0°C -- 90% 8.1 mph SE13.0 kmh SE -- 29.77 in1008.1 mb 0.00 in0.0 mm 0.00 in0.0 mm 0.00 in0.0 mm
02:38 AM 62.6°F17.0°C -- 90% 6.9 mph SSE11.1 kmh SSE -- 29.77 in1008.1 mb 0.00 in0.0 mm 0.00 in0.0 mm 0.00 in0.0 mm
02:37 AM 62.6°F17.0°C -- 90% 4.9 mph SE7.9 kmh SE -- 29.77 in1008.1 mb 0.00 in0.0 mm 0.00 in0.0 mm 0.00 in0.0 mm
02:36 AM 62.8°F17.1°C -- 90% 8.1 mph SE13.0 kmh SE -- 29.77 in1008.1 mb 0.00 in0.0 mm 0.00 in0.0 mm 0.00 in0.0 mm
02:35 AM 62.8°F17.1°C -- 90% 8.9 mph SE14.3 kmh SE -- 29.77 in1008.1 mb 0.00 in0.0 mm 0.00 in0.0 mm 0.00 in0.0 mm
02:34 AM 62.8°F17.1°C -- 90% 6.9 mph SE11.1 kmh SE -- 29.77 in1008.1 mb 0.00 in0.0 mm 0.00 in0.0 mm 0.00 in0.0 mm
02:33 AM 62.8°F17.1°C -- 90% 8.1 mph ESE13.0 kmh ESE -- 29.77 in1008.1 mb 0.00 in0.0 mm 0.00 in0.0 mm 0.00 in0.0 mm
02:32 AM 62.8°F17.1°C -- 90% 6.9 mph SE11.1 kmh SE -- 29.77 in1008.1 mb 0.00 in0.0 mm 0.00 in0.0 mm 0.00 in0.0 mm
02:31 AM 62.8°F17.1°C -- 90% 8.1 mph SE13.0 kmh SE -- 29.78 in1008.5 mb 0.00 in0.0 mm 0.00 in0.0 mm 0.00 in0.0 mm
02:30 AM 62.8°F17.1°C -- 90% 4.9 mph SE7.9 kmh SE -- 29.78 in1008.5 mb 0.00 in0.0 mm 0.00 in0.0 mm 0.00 in0.0 mm
02:29 AM 63.0°F17.2°C -- 90% 11.0 mph SE17.7 kmh SE -- 29.77 in1008.1 mb 0.00 in0.0 mm 0.00 in0.0 mm 0.00 in0.0 mm
02:28 AM 63.0°F17.2°C -- 90% 10.1 mph SE16.3 kmh SE -- 29.78 in1008.5 mb 0.00 in0.0 mm 0.00 in0.0 mm 0.00 in0.0 mm
02:27 AM 63.0°F17.2°C -- 90% 11.0 mph SE17.7 kmh SE -- 29.78 in1008.5 mb 0.00 in0.0 mm 0.00 in0.0 mm 0.00 in0.0 mm
02:26 AM 63.0°F17.2°C -- 90% 10.1 mph SE16.3 kmh SE -- 29.78 in1008.5 mb 0.00 in0.0 mm 0.00 in0.0 mm 0.00 in0.0 mm
02:25 AM 63.0°F17.2°C -- 90% 8.1 mph SE13.0 kmh SE -- 29.78 in1008.5 mb 0.00 in0.0 mm 0.00 in0.0 mm 0.00 in0.0 mm
02:24 AM 63.0°F17.2°C -- 90% 6.9 mph SE11.1 kmh SE -- 29.78 in1008.5 mb 0.00 in0.0 mm 0.00 in0.0 mm 0.00 in0.0 mm
02:23 AM 63.0°F17.2°C -- 90% 6.9 mph SE11.1 kmh SE -- 29.78 in1008.5 mb 0.00 in0.0 mm 0.00 in0.0 mm 0.00 in0.0 mm
02:22 AM 63.0°F17.2°C -- 90% 6.9 mph SE11.1 kmh SE -- 29.78 in1008.5 mb 0.00 in0.0 mm 0.00 in0.0 mm 0.00 in0.0 mm
02:21 AM 63.0°F17.2°C -- 90% 12.1 mph SE19.5 kmh SE -- 29.78 in1008.5 mb 0.00 in0.0 mm 0.00 in0.0 mm 0.00 in0.0 mm
02:20 AM 63.0°F17.2°C -- 90% 6.9 mph SE11.1 kmh SE -- 29.79 in1008.8 mb 0.00 in0.0 mm 0.00 in0.0 mm 0.00 in0.0 mm
02:19 AM 63.0°F17.2°C -- 89% 11.0 mph SE17.7 kmh SE -- 29.79 in1008.8 mb 0.00 in0.0 mm 0.00 in0.0 mm 0.00 in0.0 mm
02:18 AM 63.0°F17.2°C -- 90% 8.1 mph SE13.0 kmh SE -- 29.79 in1008.8 mb 0.00 in0.0 mm 0.00 in0.0 mm 0.00 in0.0 mm
02:17 AM 63.0°F17.2°C -- 90% 8.1 mph SE13.0 kmh SE -- 29.79 in1008.8 mb 0.00 in0.0 mm 0.00 in0.0 mm 0.00 in0.0 mm
02:16 AM 63.0°F17.2°C -- 89% 8.9 mph SE14.3 kmh SE -- 29.79 in1008.8 mb 0.00 in0.0 mm 0.00 in0.0 mm 0.00 in0.0 mm
02:15 AM 63.0°F17.2°C -- 90% 6.9 mph SSE11.1 kmh SSE -- 29.79 in1008.8 mb 0.00 in0.0 mm 0.00 in0.0 mm 0.00 in0.0 mm
02:14 AM 63.0°F17.2°C -- 90% 11.0 mph SE17.7 kmh SE -- 29.79 in1008.8 mb 0.00 in0.0 mm 0.00 in0.0 mm 0.00 in0.0 mm
02:13 AM 63.0°F17.2°C -- 90% 8.9 mph SE14.3 kmh SE -- 29.79 in1008.8 mb 0.00 in0.0 mm 0.00 in0.0 mm 0.00 in0.0 mm
02:12 AM 63.0°F17.2°C -- 90% 8.9 mph SE14.3 kmh SE -- 29.79 in1008.8 mb 0.00 in0.0 mm 0.00 in0.0 mm 0.00 in0.0 mm
02:11 AM 63.0°F17.2°C -- 90% 6.0 mph SE9.7 kmh SE -- 29.79 in1008.8 mb 0.00 in0.0 mm 0.00 in0.0 mm 0.00 in0.0 mm
02:10 AM 63.0°F17.2°C -- 90% 6.9 mph ESE11.1 kmh ESE -- 29.80 in1009.1 mb 0.00 in0.0 mm 0.00 in0.0 mm 0.00 in0.0 mm
02:09 AM 62.8°F17.1°C -- 90% 8.9 mph SSE14.3 kmh SSE -- 29.80 in1009.1 mb 0.00 in0.0 mm 0.00 in0.0 mm 0.00 in0.0 mm
02:08 AM 62.8°F17.1°C -- 90% 8.1 mph SE13.0 kmh SE -- 29.80 in1009.1 mb 0.00 in0.0 mm 0.00 in0.0 mm 0.00 in0.0 mm
02:07 AM 62.6°F17.0°C -- 91% 10.1 mph SE16.3 kmh SE -- 29.80 in1009.1 mb 0.00 in0.0 mm 0.00 in0.0 mm 0.00 in0.0 mm
02:06 AM 62.4°F16.9°C -- 91% 8.1 mph SE13.0 kmh SE -- 29.80 in1009.1 mb 0.00 in0.0 mm 0.00 in0.0 mm 0.00 in0.0 mm
02:05 AM 62.2°F16.8°C -- 92% 6.9 mph SE11.1 kmh SE -- 29.80 in1009.1 mb 0.00 in0.0 mm 0.00 in0.0 mm 0.00 in0.0 mm
02:04 AM 62.1°F16.7°C -- 91% 4.9 mph SSE7.9 kmh SSE -- 29.80 in1009.1 mb 0.00 in0.0 mm 0.00 in0.0 mm 0.00 in0.0 mm
02:03 AM 62.1°F16.7°C -- 91% 6.9 mph SE11.1 kmh SE -- 29.80 in1009.1 mb 0.00 in0.0 mm 0.00 in0.0 mm 0.00 in0.0 mm
02:02 AM 62.1°F16.7°C -- 91% 6.9 mph SE11.1 kmh SE -- 29.80 in1009.1 mb 0.00 in0.0 mm 0.00 in0.0 mm 0.00 in0.0 mm
02:00 AM 62.1°F16.7°C -- 90% 8.1 mph SE13.0 kmh SE -- 29.80 in1009.1 mb 0.00 in0.0 mm 0.00 in0.0 mm 0.00 in0.0 mm
01:59 AM 62.1°F16.7°C -- 90% 6.0 mph SE9.7 kmh SE -- 29.80 in1009.1 mb 0.00 in0.0 mm 0.00 in0.0 mm 0.00 in0.0 mm
01:58 AM 62.2°F16.8°C -- 90% 6.9 mph SE11.1 kmh SE -- 29.80 in1009.1 mb 0.00 in0.0 mm 0.00 in0.0 mm 0.00 in0.0 mm
01:57 AM 62.2°F16.8°C -- 90% 8.9 mph ESE14.3 kmh ESE -- 29.80 in1009.1 mb 0.00 in0.0 mm 0.00 in0.0 mm 0.00 in0.0 mm
01:56 AM 62.4°F16.9°C -- 89% 6.9 mph SE11.1 kmh SE -- 29.80 in1009.1 mb 0.00 in0.0 mm 0.00 in0.0 mm 0.00 in0.0 mm
01:55 AM 62.4°F16.9°C -- 89% 8.1 mph SE13.0 kmh SE -- 29.80 in1009.1 mb 0.00 in0.0 mm 0.00 in0.0 mm 0.00 in0.0 mm
01:54 AM 62.6°F17.0°C -- 89% 8.9 mph SE14.3 kmh SE -- 29.80 in1009.1 mb 0.00 in0.0 mm 0.00 in0.0 mm 0.00 in0.0 mm
01:53 AM 62.8°F17.1°C -- 89% 8.1 mph SE13.0 kmh SE -- 29.80 in1009.1 mb 0.00 in0.0 mm 0.00 in0.0 mm 0.00 in0.0 mm
01:52 AM 62.8°F17.1°C -- 89% 6.9 mph SE11.1 kmh SE -- 29.80 in1009.1 mb 0.00 in0.0 mm 0.00 in0.0 mm 0.00 in0.0 mm
01:51 AM 63.0°F17.2°C -- 89% 4.9 mph SE7.9 kmh SE -- 29.81 in1009.5 mb 0.00 in0.0 mm 0.00 in0.0 mm 0.00 in0.0 mm
01:50 AM 63.0°F17.2°C -- 89% 6.0 mph SE9.7 kmh SE -- 29.81 in1009.5 mb 0.00 in0.0 mm 0.00 in0.0 mm 0.00 in0.0 mm
01:49 AM 63.1°F17.3°C -- 88% 6.9 mph SE11.1 kmh SE -- 29.81 in1009.5 mb 0.00 in0.0 mm 0.00 in0.0 mm 0.00 in0.0 mm
01:48 AM 63.1°F17.3°C -- 88% 8.9 mph ESE14.3 kmh ESE -- 29.81 in1009.5 mb 0.00 in0.0 mm 0.00 in0.0 mm 0.00 in0.0 mm
01:47 AM 63.3°F17.4°C -- 88% 6.0 mph SE9.7 kmh SE -- 29.81 in1009.5 mb 0.00 in0.0 mm 0.00 in0.0 mm 0.00 in0.0 mm
01:46 AM 63.7°F17.6°C -- 88% 8.1 mph SE13.0 kmh SE -- 29.81 in1009.5 mb 0.00 in0.0 mm 0.00 in0.0 mm 0.00 in0.0 mm
01:45 AM 63.5°F17.5°C -- 88% 6.9 mph SE11.1 kmh SE -- 29.81 in1009.5 mb 0.00 in0.0 mm 0.00 in0.0 mm 0.00 in0.0 mm
01:44 AM 63.5°F17.5°C -- 89% 4.9 mph SE7.9 kmh SE -- 29.81 in1009.5 mb 0.00 in0.0 mm 0.00 in0.0 mm 0.00 in0.0 mm
01:43 AM 63.5°F17.5°C -- 89% 8.1 mph SE13.0 kmh SE -- 29.82 in1009.8 mb 0.00 in0.0 mm 0.00 in0.0 mm 0.00 in0.0 mm
01:42 AM 63.5°F17.5°C -- 89% 6.9 mph SE11.1 kmh SE -- 29.82 in1009.8 mb 0.00 in0.0 mm 0.00 in0.0 mm 0.00 in0.0 mm
01:41 AM 63.3°F17.4°C -- 89% 6.9 mph SE11.1 kmh SE -- 29.82 in1009.8 mb 0.00 in0.0 mm 0.00 in0.0 mm 0.00 in0.0 mm
01:40 AM 63.3°F17.4°C -- 89% 6.9 mph SE11.1 kmh SE -- 29.82 in1009.8 mb 0.00 in0.0 mm 0.00 in0.0 mm 0.00 in0.0 mm
01:39 AM 63.3°F17.4°C -- 89% 4.9 mph SE7.9 kmh SE -- 29.82 in1009.8 mb 0.00 in0.0 mm 0.00 in0.0 mm 0.00 in0.0 mm
01:38 AM 63.3°F17.4°C -- 89% 8.1 mph SE13.0 kmh SE -- 29.83 in1010.2 mb 0.00 in0.0 mm 0.00 in0.0 mm 0.00 in0.0 mm
01:37 AM 63.3°F17.4°C -- 90% 8.1 mph SE13.0 kmh SE -- 29.83 in1010.2 mb 0.00 in0.0 mm 0.00 in0.0 mm 0.00 in0.0 mm
01:36 AM 63.1°F17.3°C -- 90% 6.0 mph SSE9.7 kmh SSE -- 29.83 in1010.2 mb 0.00 in0.0 mm 0.00 in0.0 mm 0.00 in0.0 mm
01:35 AM 63.1°F17.3°C -- 90% 6.9 mph SSE11.1 kmh SSE -- 29.83 in1010.2 mb 0.00 in0.0 mm 0.00 in0.0 mm 0.00 in0.0 mm
01:34 AM 63.1°F17.3°C -- 90% 4.9 mph SE7.9 kmh SE -- 29.83 in1010.2 mb 0.00 in0.0 mm 0.00 in0.0 mm 0.00 in0.0 mm
01:33 AM 63.1°F17.3°C -- 90% 4.0 mph SE6.4 kmh SE -- 29.83 in1010.2 mb 0.00 in0.0 mm 0.00 in0.0 mm 0.00 in0.0 mm
01:32 AM 63.1°F17.3°C -- 90% 6.0 mph SE9.7 kmh SE -- 29.83 in1010.2 mb 0.00 in0.0 mm 0.00 in0.0 mm 0.00 in0.0 mm
01:31 AM 63.1°F17.3°C -- 90% 6.0 mph SE9.7 kmh SE -- 29.83 in1010.2 mb 0.00 in0.0 mm 0.00 in0.0 mm 0.00 in0.0 mm
01:30 AM 63.1°F17.3°C -- 90% 6.0 mph SSE9.7 kmh SSE -- 29.83 in1010.2 mb 0.00 in0.0 mm 0.00 in0.0 mm 0.00 in0.0 mm
01:29 AM 63.0°F17.2°C -- 90% 4.0 mph SE6.4 kmh SE -- 29.83 in1010.2 mb 0.00 in0.0 mm 0.00 in0.0 mm 0.00 in0.0 mm
01:28 AM 63.0°F17.2°C -- 90% 4.9 mph SE7.9 kmh SE -- 29.83 in1010.2 mb 0.00 in0.0 mm 0.00 in0.0 mm 0.00 in0.0 mm
01:27 AM 63.0°F17.2°C -- 90% 6.0 mph SSE9.7 kmh SSE -- 29.83 in1010.2 mb 0.00 in0.0 mm 0.00 in0.0 mm 0.00 in0.0 mm
01:26 AM 62.8°F17.1°C -- 90% 4.9 mph SE7.9 kmh SE -- 29.83 in1010.2 mb 0.00 in0.0 mm 0.00 in0.0 mm 0.00 in0.0 mm
01:25 AM 62.8°F17.1°C -- 90% 4.9 mph SE7.9 kmh SE -- 29.83 in1010.2 mb 0.00 in0.0 mm 0.00 in0.0 mm 0.00 in0.0 mm
01:24 AM 62.8°F17.1°C -- 90% 4.9 mph SE7.9 kmh SE -- 29.84 in1010.5 mb 0.00 in0.0 mm 0.00 in0.0 mm 0.00 in0.0 mm
01:23 AM 62.8°F17.1°C -- 90% 6.9 mph SSE11.1 kmh SSE -- 29.84 in1010.5 mb 0.00 in0.0 mm 0.00 in0.0 mm 0.00 in0.0 mm
01:22 AM 62.8°F17.1°C -- 90% 4.9 mph SE7.9 kmh SE -- 29.84 in1010.5 mb 0.00 in0.0 mm 0.00 in0.0 mm 0.00 in0.0 mm
01:21 AM 62.8°F17.1°C -- 90% 4.0 mph SE6.4 kmh SE -- 29.84 in1010.5 mb 0.00 in0.0 mm 0.00 in0.0 mm 0.00 in0.0 mm
01:20 AM 62.8°F17.1°C -- 91% 4.0 mph SE6.4 kmh SE -- 29.84 in1010.5 mb 0.00 in0.0 mm 0.00 in0.0 mm 0.00 in0.0 mm
01:19 AM 62.6°F17.0°C -- 91% 4.9 mph SE7.9 kmh SE -- 29.84 in1010.5 mb 0.00 in0.0 mm 0.00 in0.0 mm 0.00 in0.0 mm
01:18 AM 62.6°F17.0°C -- 91% 4.0 mph SE6.4 kmh SE -- 29.84 in1010.5 mb 0.00 in0.0 mm 0.00 in0.0 mm 0.00 in0.0 mm
01:17 AM 62.6°F17.0°C -- 91% 6.0 mph SE9.7 kmh SE -- 29.84 in1010.5 mb 0.00 in0.0 mm 0.00 in0.0 mm 0.00 in0.0 mm
01:16 AM 62.4°F16.9°C -- 91% 6.9 mph SE11.1 kmh SE -- 29.85 in1010.8 mb 0.00 in0.0 mm 0.00 in0.0 mm 0.00 in0.0 mm
01:15 AM 62.4°F16.9°C -- 91% 4.9 mph SE7.9 kmh SE -- 29.85 in1010.8 mb 0.00 in0.0 mm 0.00 in0.0 mm 0.00 in0.0 mm
01:14 AM 62.4°F16.9°C -- 91% 4.0 mph SE6.4 kmh SE -- 29.85 in1010.8 mb 0.00 in0.0 mm 0.00 in0.0 mm 0.00 in0.0 mm
01:13 AM 62.4°F16.9°C -- 91% 6.0 mph SE9.7 kmh SE -- 29.85 in1010.8 mb 0.00 in0.0 mm 0.00 in0.0 mm 0.00 in0.0 mm
01:12 AM 62.2°F16.8°C -- 91% 4.0 mph SE6.4 kmh SE -- 29.85 in1010.8 mb 0.00 in0.0 mm 0.00 in0.0 mm 0.00 in0.0 mm
01:11 AM 62.2°F16.8°C -- 91% 2.9 mph SE4.7 kmh SE -- 29.85 in1010.8 mb 0.00 in0.0 mm 0.00 in0.0 mm 0.00 in0.0 mm
01:10 AM 62.2°F16.8°C -- 91% 2.9 mph SE4.7 kmh SE -- 29.85 in1010.8 mb 0.00 in0.0 mm 0.00 in0.0 mm 0.00 in0.0 mm
01:09 AM 62.2°F16.8°C -- 91% 6.0 mph SE9.7 kmh SE -- 29.85 in1010.8 mb 0.00 in0.0 mm 0.00 in0.0 mm 0.00 in0.0 mm
01:08 AM 62.2°F16.8°C -- 91% 6.0 mph SSE9.7 kmh SSE -- 29.85 in1010.8 mb 0.00 in0.0 mm 0.00 in0.0 mm 0.00 in0.0 mm
01:07 AM 62.1°F16.7°C -- 91% 4.9 mph SE7.9 kmh SE -- 29.85 in1010.8 mb 0.00 in0.0 mm 0.00 in0.0 mm 0.00 in0.0 mm
01:06 AM 62.1°F16.7°C -- 91% 4.9 mph SSE7.9 kmh SSE -- 29.85 in1010.8 mb 0.00 in0.0 mm 0.00 in0.0 mm 0.00 in0.0 mm
01:05 AM 62.1°F16.7°C -- 91% 4.9 mph SSE7.9 kmh SSE -- 29.85 in1010.8 mb 0.00 in0.0 mm 0.00 in0.0 mm 0.00 in0.0 mm
01:04 AM 62.1°F16.7°C -- 91% 4.0 mph SSE6.4 kmh SSE -- 29.85 in1010.8 mb 0.00 in0.0 mm 0.00 in0.0 mm 0.00 in0.0 mm
01:03 AM 62.1°F16.7°C -- 91% 4.9 mph S7.9 kmh S -- 29.85 in1010.8 mb 0.00 in0.0 mm 0.00 in0.0 mm 0.00 in0.0 mm
01:02 AM 62.2°F16.8°C -- 91% 4.9 mph SSE7.9 kmh SSE -- 29.86 in1011.2 mb 0.00 in0.0 mm 0.00 in0.0 mm 0.00 in0.0 mm
01:01 AM 62.2°F16.8°C -- 91% 4.9 mph SSE7.9 kmh SSE -- 29.86 in1011.2 mb 0.00 in0.0 mm 0.00 in0.0 mm 0.00 in0.0 mm
01:00 AM 62.2°F16.8°C -- 91% 4.9 mph SSE7.9 kmh SSE -- 29.86 in1011.2 mb 0.00 in0.0 mm 0.00 in0.0 mm 0.00 in0.0 mm
12:59 AM 62.2°F16.8°C -- 91% 6.0 mph SSE9.7 kmh SSE -- 29.86 in1011.2 mb 0.00 in0.0 mm 0.00 in0.0 mm 0.00 in0.0 mm
12:58 AM 62.2°F16.8°C -- 91% 6.0 mph SE9.7 kmh SE -- 29.86 in1011.2 mb 0.00 in0.0 mm 0.00 in0.0 mm 0.00 in0.0 mm
12:57 AM 62.2°F16.8°C -- 91% 6.0 mph SSE9.7 kmh SSE -- 29.86 in1011.2 mb 0.00 in0.0 mm 0.00 in0.0 mm 0.00 in0.0 mm
12:56 AM 62.2°F16.8°C -- 91% 4.9 mph SE7.9 kmh SE -- 29.86 in1011.2 mb 0.00 in0.0 mm 0.00 in0.0 mm 0.00 in0.0 mm
12:55 AM 62.2°F16.8°C -- 91% 4.9 mph SSE7.9 kmh SSE -- 29.86 in1011.2 mb 0.00 in0.0 mm 0.00 in0.0 mm 0.00 in0.0 mm
12:54 AM 62.2°F16.8°C -- 91% 6.0 mph SE9.7 kmh SE -- 29.86 in1011.2 mb 0.00 in0.0 mm 0.00 in0.0 mm 0.00 in0.0 mm
12:53 AM 62.2°F16.8°C -- 91% 4.9 mph SE7.9 kmh SE -- 29.86 in1011.2 mb 0.00 in0.0 mm 0.00 in0.0 mm 0.00 in0.0 mm
12:52 AM 62.2°F16.8°C -- 91% 6.0 mph SSE9.7 kmh SSE -- 29.86 in1011.2 mb 0.00 in0.0 mm 0.00 in0.0 mm 0.00 in0.0 mm
12:51 AM 62.2°F16.8°C -- 91% 6.0 mph SSE9.7 kmh SSE -- 29.86 in1011.2 mb 0.00 in0.0 mm 0.00 in0.0 mm 0.00 in0.0 mm
12:50 AM 62.2°F16.8°C -- 91% 6.0 mph SE9.7 kmh SE -- 29.86 in1011.2 mb 0.00 in0.0 mm 0.00 in0.0 mm 0.00 in0.0 mm
12:49 AM 62.2°F16.8°C -- 91% 4.9 mph SSE7.9 kmh SSE -- 29.86 in1011.2 mb 0.00 in0.0 mm 0.00 in0.0 mm 0.00 in0.0 mm
12:48 AM 62.2°F16.8°C -- 91% 6.0 mph SSE9.7 kmh SSE -- 29.86 in1011.2 mb 0.00 in0.0 mm 0.00 in0.0 mm 0.00 in0.0 mm
12:47 AM 62.4°F16.9°C -- 91% 6.9 mph SSE11.1 kmh SSE -- 29.86 in1011.2 mb 0.00 in0.0 mm 0.00 in0.0 mm 0.00 in0.0 mm
12:46 AM 62.4°F16.9°C -- 91% 8.1 mph SE13.0 kmh SE -- 29.86 in1011.2 mb 0.00 in0.0 mm 0.00 in0.0 mm 0.00 in0.0 mm
12:45 AM 62.4°F16.9°C -- 91% 6.0 mph S9.7 kmh S -- 29.86 in1011.2 mb 0.00 in0.0 mm 0.00 in0.0 mm 0.00 in0.0 mm
12:44 AM 62.2°F16.8°C -- 91% 8.1 mph SSE13.0 kmh SSE -- 29.86 in1011.2 mb 0.00 in0.0 mm 0.00 in0.0 mm 0.00 in0.0 mm
12:43 AM 62.2°F16.8°C -- 91% 6.0 mph SSE9.7 kmh SSE -- 29.86 in1011.2 mb 0.00 in0.0 mm 0.00 in0.0 mm 0.00 in0.0 mm
12:42 AM 62.2°F16.8°C -- 92% 6.0 mph SSE9.7 kmh SSE -- 29.86 in1011.2 mb 0.00 in0.0 mm 0.00 in0.0 mm 0.00 in0.0 mm
12:41 AM 62.2°F16.8°C -- 92% 4.9 mph SE7.9 kmh SE -- 29.86 in1011.2 mb 0.00 in0.0 mm 0.00 in0.0 mm 0.00 in0.0 mm
12:40 AM 62.1°F16.7°C -- 92% 6.0 mph SE9.7 kmh SE -- 29.86 in1011.2 mb 0.00 in0.0 mm 0.00 in0.0 mm 0.00 in0.0 mm
12:39 AM 62.1°F16.7°C -- 92% 6.0 mph SSE9.7 kmh SSE -- 29.86 in1011.2 mb 0.00 in0.0 mm 0.00 in0.0 mm 0.00 in0.0 mm
12:38 AM 61.9°F16.6°C -- 93% 8.1 mph SSE13.0 kmh SSE -- 29.86 in1011.2 mb 0.00 in0.0 mm 0.00 in0.0 mm 0.00 in0.0 mm
12:37 AM 61.7°F16.5°C -- 93% 6.0 mph SE9.7 kmh SE -- 29.86 in1011.2 mb 0.00 in0.0 mm 0.00 in0.0 mm 0.00 in0.0 mm
12:36 AM 61.5°F16.4°C -- 93% 6.0 mph SE9.7 kmh SE -- 29.86 in1011.2 mb 0.00 in0.0 mm 0.00 in0.0 mm 0.00 in0.0 mm
12:35 AM 61.5°F16.4°C -- 92% 8.1 mph SE13.0 kmh SE -- 29.85 in1010.8 mb 0.00 in0.0 mm 0.00 in0.0 mm 0.00 in0.0 mm
12:34 AM 61.3°F16.3°C -- 92% 4.0 mph SSE6.4 kmh SSE -- 29.85 in1010.8 mb 0.00 in0.0 mm 0.00 in0.0 mm 0.00 in0.0 mm
12:33 AM 61.3°F16.3°C -- 92% 6.9 mph SE11.1 kmh SE -- 29.85 in1010.8 mb 0.00 in0.0 mm 0.00 in0.0 mm 0.00 in0.0 mm
12:32 AM 61.3°F16.3°C -- 92% 6.0 mph SSE9.7 kmh SSE -- 29.85 in1010.8 mb 0.00 in0.0 mm 0.00 in0.0 mm 0.00 in0.0 mm
12:31 AM 61.3°F16.3°C -- 92% 4.9 mph SE7.9 kmh SE -- 29.85 in1010.8 mb 0.00 in0.0 mm 0.00 in0.0 mm 0.00 in0.0 mm
12:30 AM 61.3°F16.3°C -- 92% 8.9 mph SE14.3 kmh SE -- 29.85 in1010.8 mb 0.00 in0.0 mm 0.00 in0.0 mm 0.00 in0.0 mm
12:29 AM 61.3°F16.3°C -- 92% 6.0 mph ESE9.7 kmh ESE -- 29.85 in1010.8 mb 0.00 in0.0 mm 0.00 in0.0 mm 0.00 in0.0 mm
12:28 AM 61.5°F16.4°C -- 92% 6.0 mph SE9.7 kmh SE -- 29.85 in1010.8 mb 0.00 in0.0 mm 0.00 in0.0 mm 0.00 in0.0 mm
12:27 AM 61.3°F16.3°C -- 92% 6.9 mph SE11.1 kmh SE -- 29.85 in1010.8 mb 0.00 in0.0 mm 0.00 in0.0 mm 0.00 in0.0 mm
12:26 AM 61.5°F16.4°C -- 92% 8.1 mph ESE13.0 kmh ESE -- 29.85 in1010.8 mb 0.00 in0.0 mm 0.00 in0.0 mm 0.00 in0.0 mm
12:25 AM 61.5°F16.4°C -- 92% 6.0 mph SE9.7 kmh SE -- 29.85 in1010.8 mb 0.00 in0.0 mm 0.00 in0.0 mm 0.00 in0.0 mm
12:24 AM 61.5°F16.4°C -- 92% 8.1 mph SE13.0 kmh SE -- 29.85 in1010.8 mb 0.00 in0.0 mm 0.00 in0.0 mm 0.00 in0.0 mm
12:23 AM 61.3°F16.3°C -- 92% 6.9 mph SE11.1 kmh SE -- 29.85 in1010.8 mb 0.00 in0.0 mm 0.00 in0.0 mm 0.00 in0.0 mm
12:22 AM 61.3°F16.3°C -- 92% 6.9 mph SE11.1 kmh SE -- 29.85 in1010.8 mb 0.00 in0.0 mm 0.00 in0.0 mm 0.00 in0.0 mm
12:21 AM 61.3°F16.3°C -- 92% 6.0 mph SE9.7 kmh SE -- 29.85 in1010.8 mb 0.00 in0.0 mm 0.00 in0.0 mm 0.00 in0.0 mm
12:20 AM 61.3°F16.3°C -- 92% 4.9 mph SE7.9 kmh SE -- 29.85 in1010.8 mb 0.00 in0.0 mm 0.00 in0.0 mm 0.00 in0.0 mm
12:19 AM 61.3°F16.3°C -- 92% 6.0 mph SE9.7 kmh SE -- 29.86 in1011.2 mb 0.00 in0.0 mm 0.00 in0.0 mm 0.00 in0.0 mm
12:18 AM 61.3°F16.3°C -- 92% 6.0 mph SE9.7 kmh SE -- 29.86 in1011.2 mb 0.00 in0.0 mm 0.00 in0.0 mm 0.00 in0.0 mm
12:17 AM 61.3°F16.3°C -- 92% 6.0 mph SE9.7 kmh SE -- 29.86 in1011.2 mb 0.00 in0.0 mm 0.00 in0.0 mm 0.00 in0.0 mm
12:16 AM 61.3°F16.3°C -- 92% 6.9 mph ESE11.1 kmh ESE -- 29.86 in1011.2 mb 0.00 in0.0 mm 0.00 in0.0 mm 0.00 in0.0 mm
12:15 AM 61.3°F16.3°C -- 91% 6.0 mph SE9.7 kmh SE -- 29.86 in1011.2 mb 0.00 in0.0 mm 0.00 in0.0 mm 0.00 in0.0 mm
12:14 AM 61.5°F16.4°C -- 91% 4.0 mph SE6.4 kmh SE -- 29.86 in1011.2 mb 0.00 in0.0 mm 0.00 in0.0 mm 0.00 in0.0 mm
12:13 AM 61.5°F16.4°C -- 91% 6.0 mph ESE9.7 kmh ESE -- 29.86 in1011.2 mb 0.00 in0.0 mm 0.00 in0.0 mm 0.00 in0.0 mm
12:12 AM 61.5°F16.4°C -- 91% 4.9 mph SE7.9 kmh SE -- 29.86 in1011.2 mb 0.00 in0.0 mm 0.00 in0.0 mm 0.00 in0.0 mm
12:11 AM 61.5°F16.4°C -- 92% 4.0 mph SE6.4 kmh SE -- 29.86 in1011.2 mb 0.00 in0.0 mm 0.00 in0.0 mm 0.00 in0.0 mm
12:10 AM 61.5°F16.4°C -- 93% 6.0 mph SE9.7 kmh SE -- 29.86 in1011.2 mb 0.00 in0.0 mm 0.00 in0.0 mm 0.00 in0.0 mm
12:09 AM 61.3°F16.3°C -- 93% 6.0 mph SE9.7 kmh SE -- 29.86 in1011.2 mb 0.00 in0.0 mm 0.00 in0.0 mm 0.00 in0.0 mm
12:08 AM 61.2°F16.2°C -- 93% 4.0 mph SE6.4 kmh SE -- 29.86 in1011.2 mb 0.00 in0.0 mm 0.00 in0.0 mm 0.00 in0.0 mm
12:07 AM 61.0°F16.1°C -- 93% 6.0 mph SE9.7 kmh SE -- 29.86 in1011.2 mb 0.00 in0.0 mm 0.00 in0.0 mm 0.00 in0.0 mm
12:06 AM 61.0°F16.1°C -- 93% 4.9 mph SE7.9 kmh SE -- 29.87 in1011.5 mb 0.00 in0.0 mm 0.00 in0.0 mm 0.00 in0.0 mm
12:05 AM 60.8°F16.0°C -- 93% 4.9 mph SSE7.9 kmh SSE -- 29.87 in1011.5 mb 0.00 in0.0 mm 0.00 in0.0 mm 0.00 in0.0 mm
12:04 AM 60.8°F16.0°C -- 93% 4.0 mph SE6.4 kmh SE -- 29.87 in1011.5 mb 0.00 in0.0 mm 0.00 in0.0 mm 0.00 in0.0 mm
12:03 AM 60.6°F15.9°C -- 93% 6.0 mph SE9.7 kmh SE -- 29.87 in1011.5 mb 0.00 in0.0 mm 0.00 in0.0 mm 0.00 in0.0 mm
12:02 AM 60.6°F15.9°C -- 93% 4.9 mph SE7.9 kmh SE -- 29.87 in1011.5 mb 0.00 in0.0 mm 0.00 in0.0 mm 0.00 in0.0 mm
12:01 AM 60.6°F15.9°C -- 93% 4.9 mph SE7.9 kmh SE -- 29.87 in1011.5 mb 0.00 in0.0 mm 0.00 in0.0 mm 0.00 in0.0 mm
12:00 AM 60.6°F15.9°C -- 93% 4.9 mph SE7.9 kmh SE -- 29.87 in1011.5 mb 0.00 in0.0 mm 0.00 in0.0 mm 0.00 in0.0 mm